Time,TemperatureF,DewpointF,PressureIn,WindDirection,WindDirectionDegrees,WindSpeedMPH,WindSpeedGustMPH,Humidity,HourlyPrecipIn,Conditions,Clouds,dailyrainin,SolarRadiationWatts/m^2,SoftwareType,DateUTC
2014-01-03 00:00:00,-12.5,-19.7,29.44,SSW,202,2.9,4.0,69,0.00,,,0.00,0.00,VWS V14.01,2014-01-03 06:00:00,
2014-01-03 00:01:00,-12.5,-19.7,29.44,SSW,202,2.9,3.8,69,0.00,,,0.00,0.00,VWS V14.01,2014-01-03 06:01:00,
2014-01-03 00:02:00,-12.5,-19.7,29.44,SSW,202,3.8,5.6,69,0.00,,,0.00,0.00,VWS V14.01,2014-01-03 06:02:00,
2014-01-03 00:03:00,-12.5,-19.7,29.44,SSW,202,5.4,5.4,69,0.00,,,0.00,0.00,VWS V14.01,2014-01-03 06:03:00,
2014-01-03 00:04:00,-12.5,-19.7,29.44,South,180,3.6,5.6,69,0.00,,,0.00,0.00,VWS V14.01,2014-01-03 06:04:00,
2014-01-03 00:05:00,-12.5,-19.7,29.44,South,180,3.6,4.0,69,0.00,,,0.00,0.00,VWS V14.01,2014-01-03 06:05:00,
2014-01-03 00:06:00,-12.6,-19.9,29.44,SSW,202,3.1,3.8,69,0.00,,,0.00,0.00,VWS V14.01,2014-01-03 06:06:00,
2014-01-03 00:07:00,-12.6,-19.9,29.44,SSW,202,3.8,3.8,69,0.00,,,0.00,0.00,VWS V14.01,2014-01-03 06:07:00,
2014-01-03 00:08:00,-12.6,-19.9,29.44,SSW,202,2.5,3.8,69,0.00,,,0.00,0.00,VWS V14.01,2014-01-03 06:08:00,
2014-01-03 00:09:00,-12.6,-19.9,29.44,South,180,2.7,3.4,69,0.00,,,0.00,0.00,VWS V14.01,2014-01-03 06:09:00,
2014-01-03 00:10:00,-12.6,-19.9,29.44,SSE,158,2.7,3.4,69,0.00,,,0.00,0.00,VWS V14.01,2014-01-03 06:10:00,
2014-01-03 00:11:00,-12.8,-20.1,29.44,South,180,2.2,2.9,69,0.00,,,0.00,0.00,VWS V14.01,2014-01-03 06:11:00,
2014-01-03 00:12:00,-12.8,-20.1,29.44,SSW,202,2.5,2.5,69,0.00,,,0.00,0.00,VWS V14.01,2014-01-03 06:12:00,
2014-01-03 00:13:00,-12.8,-20.1,29.44,SSW,202,3.6,3.6,69,0.00,,,0.00,0.00,VWS V14.01,2014-01-03 06:13:00,
2014-01-03 00:14:00,-12.8,-20.1,29.44,SSE,158,2.2,3.6,69,0.00,,,0.00,0.00,VWS V14.01,2014-01-03 06:14:00,
2014-01-03 00:15:00,-12.8,-20.1,29.44,SSE,158,2.2,2.2,69,0.00,,,0.00,0.00,VWS V14.01,2014-01-03 06:15:00,
2014-01-03 00:16:00,-12.8,-20.1,29.44,SSE,158,2.5,2.5,69,0.00,,,0.00,0.00,VWS V14.01,2014-01-03 06:16:00,
2014-01-03 00:17:00,-12.8,-20.1,29.44,SSE,158,2.9,3.1,69,0.00,,,0.00,0.00,VWS V14.01,2014-01-03 06:17:00,
2014-01-03 00:18:00,-12.8,-20.1,29.44,SSE,158,2.5,2.9,69,0.00,,,0.00,0.00,VWS V14.01,2014-01-03 06:18:00,
2014-01-03 00:19:00,-12.8,-20.1,29.44,SSE,158,2.5,3.6,69,0.00,,,0.00,0.00,VWS V14.01,2014-01-03 06:19:00,
2014-01-03 00:20:00,-12.8,-20.1,29.44,South,180,2.7,2.7,69,0.00,,,0.00,0.00,VWS V14.01,2014-01-03 06:20:00,
2014-01-03 00:21:00,-12.8,-20.1,29.44,ESE,112,2.2,3.6,69,0.00,,,0.00,0.00,VWS V14.01,2014-01-03 06:21:00,
2014-01-03 00:22:00,-12.8,-20.1,29.44,South,180,2.9,2.9,69,0.00,,,0.00,0.00,VWS V14.01,2014-01-03 06:22:00,
2014-01-03 00:23:00,-12.8,-20.1,29.44,SSE,158,0.9,2.9,69,0.00,,,0.00,0.00,VWS V14.01,2014-01-03 06:23:00,
2014-01-03 00:24:00,-12.8,-20.1,29.44,SSE,158,2.9,3.8,69,0.00,,,0.00,0.00,VWS V14.01,2014-01-03 06:24:00,
2014-01-03 00:25:00,-12.8,-20.1,29.44,SSE,158,2.7,3.1,69,0.00,,,0.00,0.00,VWS V14.01,2014-01-03 06:25:00,
2014-01-03 00:26:00,-12.8,-20.1,29.44,SSE,158,2.7,2.7,69,0.00,,,0.00,0.00,VWS V14.01,2014-01-03 06:26:00,
2014-01-03 00:27:00,-12.8,-20.1,29.44,South,180,2.7,2.9,69,0.00,,,0.00,0.00,VWS V14.01,2014-01-03 06:27:00,
2014-01-03 00:28:00,-12.8,-20.1,29.44,SSE,158,2.9,2.9,69,0.00,,,0.00,0.00,VWS V14.01,2014-01-03 06:28:00,
2014-01-03 00:29:00,-12.8,-20.1,29.44,SSE,158,2.5,2.9,69,0.00,,,0.00,0.00,VWS V14.01,2014-01-03 06:29:00,
2014-01-03 00:30:00,-12.8,-20.1,29.44,SSE,158,2.5,2.9,69,0.00,,,0.00,0.00,VWS V14.01,2014-01-03 06:30:00,
2014-01-03 00:31:00,-12.8,-20.1,29.44,SSE,158,3.4,3.4,69,0.00,,,0.00,0.00,VWS V14.01,2014-01-03 06:31:00,
2014-01-03 00:32:00,-12.8,-20.1,29.44,SSE,158,2.7,3.4,69,0.00,,,0.00,0.00,VWS V14.01,2014-01-03 06:32:00,
2014-01-03 00:33:00,-12.8,-20.1,29.38,SSE,158,2.0,2.7,69,0.00,,,0.00,0.00,VWS V14.01,2014-01-03 06:33:00,
2014-01-03 00:34:00,-12.8,-20.1,29.38,SSE,158,2.7,2.7,69,0.00,,,0.00,0.00,VWS V14.01,2014-01-03 06:34:00,
2014-01-03 00:35:00,-12.8,-20.1,29.38,South,180,2.5,3.1,69,0.00,,,0.00,0.00,VWS V14.01,2014-01-03 06:35:00,
2014-01-03 00:36:00,-12.8,-20.1,29.38,SSE,158,1.6,3.8,69,0.00,,,0.00,0.00,VWS V14.01,2014-01-03 06:36:00,
2014-01-03 00:37:00,-12.8,-20.1,29.38,SE,135,2.9,2.9,69,0.00,,,0.00,0.00,VWS V14.01,2014-01-03 06:37:00,
2014-01-03 00:38:00,-12.8,-20.1,29.38,South,180,3.6,3.6,69,0.00,,,0.00,0.00,VWS V14.01,2014-01-03 06:38:00,
2014-01-03 00:39:00,-11.7,-19.0,29.47,South,180,3.1,3.1,69,0.00,,,0.00,0.00,VWS V14.01,2014-01-03 06:39:00,
2014-01-03 00:40:00,-13.0,-20.2,29.38,SSE,158,3.1,3.1,69,0.00,,,0.00,0.00,VWS V14.01,2014-01-03 06:40:00,
2014-01-03 00:41:00,-11.7,-19.0,29.44,SW,225,4.3,4.3,69,0.00,,,0.00,0.00,VWS V14.01,2014-01-03 06:41:00,
2014-01-03 00:42:00,-11.7,-19.0,29.44,SW,225,4.3,4.3,69,0.00,,,0.00,0.00,VWS V14.01,2014-01-03 06:42:00,
2014-01-03 00:43:00,-12.5,-19.7,29.44,SSW,202,2.5,4.7,69,0.00,,,0.00,0.00,VWS V14.01,2014-01-03 06:43:00,
2014-01-03 00:44:00,-12.5,-19.7,29.44,SSW,202,3.6,3.6,69,0.00,,,0.00,0.00,VWS V14.01,2014-01-03 06:44:00,
2014-01-03 00:45:00,-12.5,-19.7,29.44,SSW,202,2.9,3.6,69,0.00,,,0.00,0.00,VWS V14.01,2014-01-03 06:45:00,
2014-01-03 00:46:00,-12.5,-19.7,29.44,SSW,202,4.0,5.6,69,0.00,,,0.00,0.00,VWS V14.01,2014-01-03 06:46:00,
2014-01-03 00:47:00,-12.3,-19.6,29.44,SSW,202,4.3,4.3,69,0.00,,,0.00,0.00,VWS V14.01,2014-01-03 06:47:00,
2014-01-03 00:48:00,-12.3,-19.6,29.44,SSW,202,4.3,4.3,69,0.00,,,0.00,0.00,VWS V14.01,2014-01-03 06:48:00,
2014-01-03 00:49:00,-12.5,-19.7,29.44,SSW,202,3.6,3.8,69,0.00,,,0.00,0.00,VWS V14.01,2014-01-03 06:49:00,
2014-01-03 00:50:00,-12.5,-19.7,29.44,SSW,202,3.6,3.8,69,0.00,,,0.00,0.00,VWS V14.01,2014-01-03 06:50:00,
2014-01-03 00:51:00,-12.5,-19.7,29.44,SSW,202,3.1,3.6,69,0.00,,,0.00,0.00,VWS V14.01,2014-01-03 06:51:00,
2014-01-03 00:52:00,-12.5,-19.7,29.44,South,180,3.4,3.8,69,0.00,,,0.00,0.00,VWS V14.01,2014-01-03 06:52:00,
2014-01-03 00:53:00,-12.5,-19.7,29.44,SSW,202,2.5,3.8,69,0.00,,,0.00,0.00,VWS V14.01,2014-01-03 06:53:00,
2014-01-03 00:54:00,-12.5,-19.7,29.44,SSW,202,3.6,3.6,69,0.00,,,0.00,0.00,VWS V14.01,2014-01-03 06:54:00,
2014-01-03 00:55:00,-12.5,-19.7,29.44,South,180,3.1,3.6,69,0.00,,,0.00,0.00,VWS V14.01,2014-01-03 06:55:00,
2014-01-03 00:56:00,-12.5,-19.7,29.44,SSW,202,3.6,4.0,69,0.00,,,0.00,0.00,VWS V14.01,2014-01-03 06:56:00,
2014-01-03 00:57:00,-12.5,-19.7,29.44,SSE,158,3.8,4.0,69,0.00,,,0.00,0.00,VWS V14.01,2014-01-03 06:57:00,
2014-01-03 00:58:00,-12.5,-19.7,29.44,SSW,202,2.9,3.8,69,0.00,,,0.00,0.00,VWS V14.01,2014-01-03 06:58:00,
2014-01-03 00:59:00,-12.5,-19.7,29.44,SSW,202,3.8,4.0,69,0.00,,,0.00,0.00,VWS V14.01,2014-01-03 06:59:00,
2014-01-03 01:00:00,-12.5,-19.7,29.44,SSW,202,2.9,4.0,69,0.00,,,0.00,0.00,VWS V14.01,2014-01-03 07:00:00,
2014-01-03 01:01:00,-12.5,-19.7,29.44,SSW,202,2.9,3.8,69,0.00,,,0.00,0.00,VWS V14.01,2014-01-03 07:01:00,
2014-01-03 01:02:00,-12.5,-19.7,29.44,SSW,202,3.8,5.6,69,0.00,,,0.00,0.00,VWS V14.01,2014-01-03 07:02:00,
2014-01-03 01:03:00,-12.5,-19.7,29.44,SSW,202,5.4,5.4,69,0.00,,,0.00,0.00,VWS V14.01,2014-01-03 07:03:00,
2014-01-03 01:04:00,-12.5,-19.7,29.44,SSW,202,4.0,4.0,69,0.00,,,0.00,0.00,VWS V14.01,2014-01-03 07:04:00,
2014-01-03 01:05:00,-12.5,-19.7,29.44,South,180,3.6,4.0,69,0.00,,,0.00,0.00,VWS V14.01,2014-01-03 07:05:00,
2014-01-03 01:06:00,-12.6,-19.9,29.44,SSW,202,3.1,3.8,69,0.00,,,0.00,0.00,VWS V14.01,2014-01-03 07:06:00,
2014-01-03 01:07:00,-12.6,-19.9,29.44,SSW,202,3.8,3.8,69,0.00,,,0.00,0.00,VWS V14.01,2014-01-03 07:07:00,
2014-01-03 01:08:00,-12.6,-19.9,29.44,SSW,202,2.5,3.8,69,0.00,,,0.00,0.00,VWS V14.01,2014-01-03 07:08:00,
2014-01-03 01:09:00,-12.6,-19.9,29.44,SSE,158,3.4,3.4,69,0.00,,,0.00,0.00,VWS V14.01,2014-01-03 07:09:00,
2014-01-03 01:10:00,-12.6,-19.9,29.44,SSE,158,2.7,3.4,69,0.00,,,0.00,0.00,VWS V14.01,2014-01-03 07:10:00,
2014-01-03 01:11:00,-12.8,-20.1,29.44,South,180,2.2,2.9,69,0.00,,,0.00,0.00,VWS V14.01,2014-01-03 07:11:00,
2014-01-03 01:12:00,-12.8,-20.1,29.44,SSW,202,2.5,2.5,69,0.00,,,0.00,0.00,VWS V14.01,2014-01-03 07:12:00,
2014-01-03 01:13:00,-12.8,-20.1,29.44,SSW,202,3.6,3.6,69,0.00,,,0.00,0.00,VWS V14.01,2014-01-03 07:13:00,
2014-01-03 01:14:00,-12.8,-20.1,29.44,SSE,158,2.7,3.6,69,0.00,,,0.00,0.00,VWS V14.01,2014-01-03 07:14:00,
2014-01-03 01:15:00,-12.8,-20.1,29.44,SSE,158,2.2,2.2,69,0.00,,,0.00,0.00,VWS V14.01,2014-01-03 07:15:00,
2014-01-03 01:16:00,-12.8,-20.1,29.44,SSE,158,2.5,2.5,69,0.00,,,0.00,0.00,VWS V14.01,2014-01-03 07:16:00,
2014-01-03 01:17:00,-12.8,-20.1,29.44,SSE,158,2.9,3.1,69,0.00,,,0.00,0.00,VWS V14.01,2014-01-03 07:17:00,
2014-01-03 01:18:00,-12.8,-20.1,29.44,SSE,158,2.5,2.9,69,0.00,,,0.00,0.00,VWS V14.01,2014-01-03 07:18:00,
2014-01-03 01:19:00,-12.8,-20.1,29.44,SSE,158,2.0,2.5,69,0.00,,,0.00,0.00,VWS V14.01,2014-01-03 07:19:00,
2014-01-03 01:20:00,-12.8,-20.1,29.44,South,180,2.7,2.7,69,0.00,,,0.00,0.00,VWS V14.01,2014-01-03 07:20:00,
2014-01-03 01:21:00,-12.8,-20.1,29.44,ESE,112,2.2,3.6,69,0.00,,,0.00,0.00,VWS V14.01,2014-01-03 07:21:00,
2014-01-03 01:22:00,-12.8,-20.1,29.44,South,180,2.9,2.9,69,0.00,,,0.00,0.00,VWS V14.01,2014-01-03 07:22:00,
2014-01-03 01:23:00,-12.8,-20.1,29.44,SSE,158,0.9,2.9,69,0.00,,,0.00,0.00,VWS V14.01,2014-01-03 07:23:00,
2014-01-03 01:24:00,-12.8,-20.1,29.44,SSE,158,2.7,3.1,69,0.00,,,0.00,0.00,VWS V14.01,2014-01-03 07:24:00,
2014-01-03 01:25:00,-12.8,-20.1,29.44,SSE,158,2.7,3.1,69,0.00,,,0.00,0.00,VWS V14.01,2014-01-03 07:25:00,
2014-01-03 01:26:00,-12.8,-20.1,29.44,SSE,158,2.7,2.7,69,0.00,,,0.00,0.00,VWS V14.01,2014-01-03 07:26:00,
2014-01-03 01:27:00,-12.8,-20.1,29.44,South,180,2.7,2.9,69,0.00,,,0.00,0.00,VWS V14.01,2014-01-03 07:27:00,
2014-01-03 01:28:00,-12.8,-20.1,29.44,SSE,158,2.9,2.9,69,0.00,,,0.00,0.00,VWS V14.01,2014-01-03 07:28:00,
2014-01-03 01:29:00,-12.8,-20.1,29.44,SSE,158,2.5,2.9,69,0.00,,,0.00,0.00,VWS V14.01,2014-01-03 07:29:00,
2014-01-03 01:30:00,-12.8,-20.1,29.44,SSE,158,2.5,2.9,69,0.00,,,0.00,0.00,VWS V14.01,2014-01-03 07:30:00,
2014-01-03 01:31:00,-12.8,-20.1,29.44,SSE,158,3.4,3.4,69,0.00,,,0.00,0.00,VWS V14.01,2014-01-03 07:31:00,
2014-01-03 01:32:00,-12.8,-20.1,29.44,SSE,158,2.7,3.4,69,0.00,,,0.00,0.00,VWS V14.01,2014-01-03 07:32:00,
2014-01-03 01:33:00,-12.8,-20.1,29.38,SSE,158,2.0,2.7,69,0.00,,,0.00,0.00,VWS V14.01,2014-01-03 07:33:00,
2014-01-03 01:34:00,-12.8,-20.1,29.38,SSE,158,2.2,3.1,69,0.00,,,0.00,0.00,VWS V14.01,2014-01-03 07:34:00,
2014-01-03 01:35:00,-12.8,-20.1,29.38,South,180,2.5,3.1,69,0.00,,,0.00,0.00,VWS V14.01,2014-01-03 07:35:00,
2014-01-03 01:36:00,-12.8,-20.1,29.38,SSE,158,1.6,3.8,69,0.00,,,0.00,0.00,VWS V14.01,2014-01-03 07:36:00,
2014-01-03 01:37:00,-12.8,-20.1,29.38,SE,135,2.9,2.9,69,0.00,,,0.00,0.00,VWS V14.01,2014-01-03 07:37:00,
2014-01-03 01:38:00,-12.8,-20.1,29.38,South,180,3.6,3.6,69,0.00,,,0.00,0.00,VWS V14.01,2014-01-03 07:38:00,
2014-01-03 01:39:00,-12.8,-20.1,29.38,SSE,158,2.9,3.6,69,0.00,,,0.00,0.00,VWS V14.01,2014-01-03 07:39:00,
2014-01-03 01:40:00,-13.0,-20.2,29.38,SSE,158,3.1,3.1,69,0.00,,,0.00,0.00,VWS V14.01,2014-01-03 07:40:00,
2014-01-03 01:41:00,-13.0,-20.2,29.38,SSE,158,3.1,3.1,69,0.00,,,0.00,0.00,VWS V14.01,2014-01-03 07:41:00,
2014-01-03 01:42:00,-13.0,-20.2,29.38,SSE,158,3.8,3.8,69,0.00,,,0.00,0.00,VWS V14.01,2014-01-03 07:42:00,
2014-01-03 01:43:00,-13.0,-20.2,29.38,SSE,158,2.5,3.8,69,0.00,,,0.00,0.00,VWS V14.01,2014-01-03 07:43:00,
2014-01-03 01:44:00,-13.0,-20.2,29.38,SSE,158,4.0,4.0,69,0.00,,,0.00,0.00,VWS V14.01,2014-01-03 07:44:00,
2014-01-03 01:45:00,-13.0,-20.2,29.38,SSE,158,4.7,4.7,69,0.00,,,0.00,0.00,VWS V14.01,2014-01-03 07:45:00,
2014-01-03 01:46:00,-13.0,-20.2,29.38,SSE,158,3.8,4.7,69,0.00,,,0.00,0.00,VWS V14.01,2014-01-03 07:46:00,
2014-01-03 01:47:00,-13.0,-20.2,29.38,SSE,158,3.6,4.9,69,0.00,,,0.00,0.00,VWS V14.01,2014-01-03 07:47:00,
2014-01-03 01:48:00,-13.0,-20.2,29.38,South,180,5.6,5.6,69,0.00,,,0.00,0.00,VWS V14.01,2014-01-03 07:48:00,
2014-01-03 01:49:00,-13.0,-20.2,29.38,SSE,158,3.4,5.6,69,0.00,,,0.00,0.00,VWS V14.01,2014-01-03 07:49:00,
2014-01-03 01:50:00,-13.0,-20.2,29.38,SSE,158,3.4,5.6,69,0.00,,,0.00,0.00,VWS V14.01,2014-01-03 07:50:00,
2014-01-03 01:51:00,-13.0,-20.2,29.38,South,180,3.1,4.0,69,0.00,,,0.00,0.00,VWS V14.01,2014-01-03 07:51:00,
2014-01-03 01:52:00,-13.0,-20.2,29.38,South,180,6.3,6.3,69,0.00,,,0.00,0.00,VWS V14.01,2014-01-03 07:52:00,
2014-01-03 01:53:00,-13.0,-20.2,29.38,South,180,6.0,6.3,69,0.00,,,0.00,0.00,VWS V14.01,2014-01-03 07:53:00,
2014-01-03 01:54:00,-13.0,-20.2,29.38,SSE,158,4.3,6.5,69,0.00,,,0.00,0.00,VWS V14.01,2014-01-03 07:54:00,
2014-01-03 01:55:00,-13.0,-20.2,29.38,SSE,158,4.3,4.3,69,0.00,,,0.00,0.00,VWS V14.01,2014-01-03 07:55:00,
2014-01-03 01:56:00,-13.0,-20.2,29.38,SSE,158,3.1,4.3,69,0.00,,,0.00,0.00,VWS V14.01,2014-01-03 07:56:00,
2014-01-03 01:57:00,-13.0,-20.2,29.38,SSE,158,4.0,5.4,69,0.00,,,0.00,0.00,VWS V14.01,2014-01-03 07:57:00,
2014-01-03 01:58:00,-13.0,-20.2,29.38,SSE,158,3.4,4.0,69,0.00,,,0.00,0.00,VWS V14.01,2014-01-03 07:58:00,
2014-01-03 01:59:00,-13.0,-20.2,29.38,ESE,112,2.9,3.4,69,0.00,,,0.00,0.00,VWS V14.01,2014-01-03 07:59:00,
2014-01-03 02:00:00,-13.0,-20.2,29.38,SSW,202,3.4,3.6,69,0.00,,,0.00,0.00,VWS V14.01,2014-01-03 08:00:00,
2014-01-03 02:01:00,-13.0,-20.2,29.38,SSE,158,3.8,4.3,69,0.00,,,0.00,0.00,VWS V14.01,2014-01-03 08:01:00,
2014-01-03 02:02:00,-13.0,-20.2,29.38,SSE,158,4.3,4.3,69,0.00,,,0.00,0.00,VWS V14.01,2014-01-03 08:02:00,
2014-01-03 02:03:00,-13.0,-20.2,29.41,SSE,158,2.7,4.3,69,0.00,,,0.00,0.00,VWS V14.01,2014-01-03 08:03:00,
2014-01-03 02:04:00,-13.0,-20.2,29.41,SSE,158,3.1,3.6,69,0.00,,,0.00,0.00,VWS V14.01,2014-01-03 08:04:00,
2014-01-03 02:05:00,-13.0,-20.2,29.41,South,180,3.8,4.0,69,0.00,,,0.00,0.00,VWS V14.01,2014-01-03 08:05:00,
2014-01-03 02:06:00,-13.0,-20.2,29.41,South,180,2.5,3.8,69,0.00,,,0.00,0.00,VWS V14.01,2014-01-03 08:06:00,
2014-01-03 02:07:00,-13.0,-20.2,29.41,South,180,2.2,2.7,69,0.00,,,0.00,0.00,VWS V14.01,2014-01-03 08:07:00,
2014-01-03 02:08:00,-13.2,-20.4,29.41,SSE,158,3.4,3.8,69,0.00,,,0.00,0.00,VWS V14.01,2014-01-03 08:08:00,
2014-01-03 02:09:00,-13.2,-20.4,29.41,SSE,158,3.1,3.4,69,0.00,,,0.00,0.00,VWS V14.01,2014-01-03 08:09:00,
2014-01-03 02:10:00,-13.0,-20.2,29.41,SSE,158,3.4,3.8,69,0.00,,,0.00,0.00,VWS V14.01,2014-01-03 08:10:00,
2014-01-03 02:11:00,-13.0,-20.2,29.41,WSW,248,5.8,5.8,69,0.00,,,0.00,0.00,VWS V14.01,2014-01-03 08:11:00,
2014-01-03 02:12:00,-13.0,-20.2,29.41,SSW,202,4.9,5.8,69,0.00,,,0.00,0.00,VWS V14.01,2014-01-03 08:12:00,
2014-01-03 02:13:00,-13.0,-20.2,29.41,South,180,4.3,5.8,69,0.00,,,0.00,0.00,VWS V14.01,2014-01-03 08:13:00,
2014-01-03 02:14:00,-13.0,-20.2,29.41,SSW,202,3.6,4.3,69,0.00,,,0.00,0.00,VWS V14.01,2014-01-03 08:14:00,
2014-01-03 02:15:00,-13.0,-20.2,29.41,SSE,158,3.8,3.8,69,0.00,,,0.00,0.00,VWS V14.01,2014-01-03 08:15:00,
2014-01-03 02:16:00,-12.8,-20.1,29.41,South,180,4.9,4.9,69,0.00,,,0.00,0.00,VWS V14.01,2014-01-03 08:16:00,
2014-01-03 02:17:00,-12.8,-20.1,29.41,SSE,158,3.1,4.9,69,0.00,,,0.00,0.00,VWS V14.01,2014-01-03 08:17:00,
2014-01-03 02:18:00,-12.8,-20.1,29.41,SSE,158,6.3,6.5,69,0.00,,,0.00,0.00,VWS V14.01,2014-01-03 08:18:00,
2014-01-03 02:19:00,-12.8,-20.1,29.41,South,180,5.4,6.5,69,0.00,,,0.00,0.00,VWS V14.01,2014-01-03 08:19:00,
2014-01-03 02:20:00,-12.8,-20.1,29.41,SSE,158,4.9,5.8,69,0.00,,,0.00,0.00,VWS V14.01,2014-01-03 08:20:00,
2014-01-03 02:21:00,-12.8,-20.1,29.41,South,180,5.6,5.6,69,0.00,,,0.00,0.00,VWS V14.01,2014-01-03 08:21:00,
2014-01-03 02:22:00,-12.6,-19.9,29.41,SSE,158,4.9,5.8,69,0.00,,,0.00,0.00,VWS V14.01,2014-01-03 08:22:00,
2014-01-03 02:23:00,-12.6,-19.9,29.41,SSE,158,5.4,6.0,69,0.00,,,0.00,0.00,VWS V14.01,2014-01-03 08:23:00,
2014-01-03 02:24:00,-12.5,-19.7,29.41,South,180,3.6,5.4,69,0.00,,,0.00,0.00,VWS V14.01,2014-01-03 08:24:00,
2014-01-03 02:25:00,-12.5,-19.7,29.41,SSE,158,2.9,5.8,69,0.00,,,0.00,0.00,VWS V14.01,2014-01-03 08:25:00,
2014-01-03 02:26:00,-12.5,-19.7,29.41,SSE,158,3.8,6.0,69,0.00,,,0.00,0.00,VWS V14.01,2014-01-03 08:26:00,
2014-01-03 02:27:00,-12.5,-19.7,29.41,SSE,158,2.9,3.8,69,0.00,,,0.00,0.00,VWS V14.01,2014-01-03 08:27:00,
2014-01-03 02:28:00,-12.5,-19.7,29.41,SSE,158,3.4,4.7,69,0.00,,,0.00,0.00,VWS V14.01,2014-01-03 08:28:00,
2014-01-03 02:29:00,-12.5,-19.7,29.41,SSW,202,3.8,3.8,69,0.00,,,0.00,0.00,VWS V14.01,2014-01-03 08:29:00,
2014-01-03 02:30:00,-12.5,-19.7,29.41,SSE,158,2.5,3.8,69,0.00,,,0.00,0.00,VWS V14.01,2014-01-03 08:30:00,
2014-01-03 02:31:00,-12.3,-19.6,29.41,SSE,158,2.5,4.0,69,0.00,,,0.00,0.00,VWS V14.01,2014-01-03 08:31:00,
2014-01-03 02:32:00,-12.3,-19.6,29.41,SSE,158,4.0,5.8,69,0.00,,,0.00,0.00,VWS V14.01,2014-01-03 08:32:00,
2014-01-03 02:33:00,-12.3,-19.6,29.35,SSE,158,3.8,4.0,69,0.00,,,0.00,0.00,VWS V14.01,2014-01-03 08:33:00,
2014-01-03 02:34:00,-12.3,-19.6,29.35,SSE,158,5.8,5.8,69,0.00,,,0.00,0.00,VWS V14.01,2014-01-03 08:34:00,
2014-01-03 02:35:00,-12.3,-19.6,29.35,SSE,158,6.0,6.0,69,0.00,,,0.00,0.00,VWS V14.01,2014-01-03 08:35:00,
2014-01-03 02:36:00,-12.1,-19.4,29.35,SSE,158,3.6,6.0,69,0.00,,,0.00,0.00,VWS V14.01,2014-01-03 08:36:00,
2014-01-03 02:37:00,-12.1,-19.4,29.35,South,180,3.8,6.0,69,0.00,,,0.00,0.00,VWS V14.01,2014-01-03 08:37:00,
2014-01-03 02:38:00,-12.1,-19.4,29.35,SSE,158,3.1,3.1,69,0.00,,,0.00,0.00,VWS V14.01,2014-01-03 08:38:00,
2014-01-03 02:39:00,-12.1,-19.4,29.35,SSE,158,2.9,3.1,69,0.00,,,0.00,0.00,VWS V14.01,2014-01-03 08:39:00,
2014-01-03 02:40:00,-12.1,-19.4,29.35,South,180,3.6,3.6,69,0.00,,,0.00,0.00,VWS V14.01,2014-01-03 08:40:00,
2014-01-03 02:41:00,-12.1,-19.4,29.35,SSE,158,3.1,3.6,69,0.00,,,0.00,0.00,VWS V14.01,2014-01-03 08:41:00,
2014-01-03 02:42:00,-11.9,-19.2,29.35,SSE,158,2.2,3.8,69,0.00,,,0.00,0.00,VWS V14.01,2014-01-03 08:42:00,
2014-01-03 02:43:00,-11.9,-19.2,29.35,South,180,2.5,2.7,69,0.00,,,0.00,0.00,VWS V14.01,2014-01-03 08:43:00,
2014-01-03 02:44:00,-11.9,-19.2,29.35,SSE,158,2.5,2.7,69,0.00,,,0.00,0.00,VWS V14.01,2014-01-03 08:44:00,
2014-01-03 02:45:00,-11.9,-19.2,29.35,SSE,158,3.4,3.4,69,0.00,,,0.00,0.00,VWS V14.01,2014-01-03 08:45:00,
2014-01-03 02:46:00,-11.9,-19.2,29.35,SSW,202,6.0,6.0,69,0.00,,,0.00,0.00,VWS V14.01,2014-01-03 08:46:00,
2014-01-03 02:47:00,-11.9,-19.2,29.35,SSW,202,2.5,6.0,69,0.00,,,0.00,0.00,VWS V14.01,2014-01-03 08:47:00,
2014-01-03 02:48:00,-11.9,-19.2,29.38,South,180,3.8,3.8,69,0.00,,,0.00,0.00,VWS V14.01,2014-01-03 08:48:00,
2014-01-03 02:49:00,-11.9,-19.2,29.38,SSW,202,2.0,3.8,69,0.00,,,0.00,0.00,VWS V14.01,2014-01-03 08:49:00,
2014-01-03 02:50:00,-11.7,-19.0,29.38,SSW,202,3.1,3.1,69,0.00,,,0.00,0.00,VWS V14.01,2014-01-03 08:50:00,
2014-01-03 02:51:00,-11.7,-19.0,29.38,SSE,158,2.9,4.7,69,0.00,,,0.00,0.00,VWS V14.01,2014-01-03 08:51:00,
2014-01-03 02:52:00,-8.5,-15.9,29.29,SSE,158,2.5,3.4,69,0.00,,,0.00,0.00,VWS V14.01,2014-01-03 08:52:00,
2014-01-03 02:53:00,-11.7,-19.0,29.38,South,180,2.9,3.1,69,0.00,,,0.00,0.00,VWS V14.01,2014-01-03 08:53:00,
2014-01-03 02:54:00,-11.6,-18.9,29.38,South,180,2.9,3.1,69,0.00,,,0.00,0.00,VWS V14.01,2014-01-03 08:54:00,
2014-01-03 02:55:00,-11.4,-18.7,29.38,SSW,202,4.0,5.4,69,0.00,,,0.00,0.00,VWS V14.01,2014-01-03 08:55:00,
2014-01-03 02:56:00,-11.4,-18.7,29.38,SSE,158,4.0,4.0,69,0.00,,,0.00,0.00,VWS V14.01,2014-01-03 08:56:00,
2014-01-03 02:57:00,-11.2,-18.5,29.38,SSW,202,3.4,4.3,69,0.00,,,0.00,0.00,VWS V14.01,2014-01-03 08:57:00,
2014-01-03 02:58:00,-11.2,-18.5,29.38,SSE,158,3.6,3.6,69,0.00,,,0.00,0.00,VWS V14.01,2014-01-03 08:58:00,
2014-01-03 02:59:00,-11.2,-18.5,29.38,South,180,3.6,3.6,69,0.00,,,0.00,0.00,VWS V14.01,2014-01-03 08:59:00,
2014-01-03 03:00:00,-11.2,-18.5,29.38,SSW,202,4.9,5.6,69,0.00,,,0.00,0.00,VWS V14.01,2014-01-03 09:00:00,
2014-01-03 03:01:00,-11.0,-18.3,29.38,SSE,158,4.3,4.9,69,0.00,,,0.00,0.00,VWS V14.01,2014-01-03 09:01:00,
2014-01-03 03:02:00,-11.0,-18.3,29.38,South,180,3.6,4.3,69,0.00,,,0.00,0.00,VWS V14.01,2014-01-03 09:02:00,
2014-01-03 03:03:00,-10.8,-18.2,29.35,SSE,158,2.7,3.4,69,0.00,,,0.00,0.00,VWS V14.01,2014-01-03 09:03:00,
2014-01-03 03:04:00,-10.8,-18.2,29.35,SSE,158,3.6,3.8,69,0.00,,,0.00,0.00,VWS V14.01,2014-01-03 09:04:00,
2014-01-03 03:05:00,-10.7,-18.0,29.35,SSE,158,3.8,3.8,69,0.00,,,0.00,0.00,VWS V14.01,2014-01-03 09:05:00,
2014-01-03 03:06:00,-10.7,-18.0,29.35,South,180,1.6,3.8,69,0.00,,,0.00,0.00,VWS V14.01,2014-01-03 09:06:00,
2014-01-03 03:07:00,-10.5,-17.8,29.35,South,180,4.3,4.3,69,0.00,,,0.00,0.00,VWS V14.01,2014-01-03 09:07:00,
2014-01-03 03:08:00,-10.5,-17.8,29.35,South,180,4.0,4.0,69,0.00,,,0.00,0.00,VWS V14.01,2014-01-03 09:08:00,
2014-01-03 03:09:00,-10.3,-17.6,29.35,South,180,4.7,4.7,69,0.00,,,0.00,0.00,VWS V14.01,2014-01-03 09:09:00,
2014-01-03 03:10:00,-10.3,-17.6,29.35,South,180,2.9,4.9,69,0.00,,,0.00,0.00,VWS V14.01,2014-01-03 09:10:00,
2014-01-03 03:11:00,-10.3,-17.6,29.35,South,180,3.4,5.4,69,0.00,,,0.00,0.00,VWS V14.01,2014-01-03 09:11:00,
2014-01-03 03:12:00,-10.1,-17.5,29.35,SSW,202,6.3,6.3,69,0.00,,,0.00,0.00,VWS V14.01,2014-01-03 09:12:00,
2014-01-03 03:13:00,-10.1,-17.5,29.35,SSE,158,3.4,3.6,69,0.00,,,0.00,0.00,VWS V14.01,2014-01-03 09:13:00,
2014-01-03 03:14:00,-10.1,-17.5,29.35,SSE,158,2.5,3.6,69,0.00,,,0.00,0.00,VWS V14.01,2014-01-03 09:14:00,
2014-01-03 03:15:00,-9.9,-17.3,29.35,SSW,202,2.9,3.6,69,0.00,,,0.00,0.00,VWS V14.01,2014-01-03 09:15:00,
2014-01-03 03:16:00,-9.9,-17.3,29.35,SE,135,3.4,3.8,69,0.00,,,0.00,0.00,VWS V14.01,2014-01-03 09:16:00,
2014-01-03 03:17:00,-9.8,-17.1,29.35,South,180,2.9,3.4,69,0.00,,,0.00,0.00,VWS V14.01,2014-01-03 09:17:00,
2014-01-03 03:18:00,-9.8,-17.1,29.32,SSW,202,3.4,3.4,69,0.00,,,0.00,0.00,VWS V14.01,2014-01-03 09:18:00,
2014-01-03 03:19:00,-9.6,-17.0,29.32,SSE,158,4.3,4.3,69,0.00,,,0.00,0.00,VWS V14.01,2014-01-03 09:19:00,
2014-01-03 03:20:00,-9.6,-17.0,29.32,South,180,6.3,6.3,69,0.00,,,0.00,0.00,VWS V14.01,2014-01-03 09:20:00,
2014-01-03 03:21:00,-9.6,-17.0,29.32,SSE,158,4.0,6.3,69,0.00,,,0.00,0.00,VWS V14.01,2014-01-03 09:21:00,
2014-01-03 03:22:00,-9.4,-16.8,29.32,SSE,158,3.6,4.3,69,0.00,,,0.00,0.00,VWS V14.01,2014-01-03 09:22:00,
2014-01-03 03:23:00,-9.4,-16.8,29.32,South,180,3.8,4.0,69,0.00,,,0.00,0.00,VWS V14.01,2014-01-03 09:23:00,
2014-01-03 03:24:00,-9.2,-16.6,29.32,South,180,7.4,7.4,69,0.00,,,0.00,0.00,VWS V14.01,2014-01-03 09:24:00,
2014-01-03 03:25:00,-9.2,-16.6,29.32,SSE,158,6.3,7.4,69,0.00,,,0.00,0.00,VWS V14.01,2014-01-03 09:25:00,
2014-01-03 03:26:00,-9.2,-16.6,29.32,SE,135,3.6,6.3,69,0.00,,,0.00,0.00,VWS V14.01,2014-01-03 09:26:00,
2014-01-03 03:27:00,-9.0,-16.4,29.32,South,180,6.3,6.3,69,0.00,,,0.00,0.00,VWS V14.01,2014-01-03 09:27:00,
2014-01-03 03:28:00,-8.9,-16.3,29.32,SSE,158,7.4,7.4,69,0.00,,,0.00,0.00,VWS V14.01,2014-01-03 09:28:00,
2014-01-03 03:29:00,-8.9,-16.3,29.32,South,180,6.0,7.4,69,0.00,,,0.00,0.00,VWS V14.01,2014-01-03 09:29:00,
2014-01-03 03:30:00,-8.9,-16.3,29.32,South,180,3.8,6.0,69,0.00,,,0.00,0.00,VWS V14.01,2014-01-03 09:30:00,
2014-01-03 03:31:00,-8.9,-16.3,29.32,SSW,202,3.4,4.3,69,0.00,,,0.00,0.00,VWS V14.01,2014-01-03 09:31:00,
2014-01-03 03:32:00,-8.9,-16.3,29.32,South,180,2.7,3.4,69,0.00,,,0.00,0.00,VWS V14.01,2014-01-03 09:32:00,
2014-01-03 03:33:00,-8.9,-16.3,29.32,South,180,2.7,3.1,69,0.00,,,0.00,0.00,VWS V14.01,2014-01-03 09:33:00,
2014-01-03 03:34:00,-8.9,-16.3,29.32,South,180,6.0,6.0,69,0.00,,,0.00,0.00,VWS V14.01,2014-01-03 09:34:00,
2014-01-03 03:35:00,-8.9,-16.3,29.32,South,180,5.8,6.5,69,0.00,,,0.00,0.00,VWS V14.01,2014-01-03 09:35:00,
2014-01-03 03:36:00,-8.7,-16.1,29.32,SSW,202,4.9,5.8,69,0.00,,,0.00,0.00,VWS V14.01,2014-01-03 09:36:00,
2014-01-03 03:37:00,-4.7,-12.3,29.23,SSW,202,6.3,6.3,69,0.00,,,0.00,0.00,VWS V14.01,2014-01-03 09:37:00,
2014-01-03 03:38:00,-8.7,-16.1,29.32,SSW,202,3.4,4.9,69,0.00,,,0.00,0.00,VWS V14.01,2014-01-03 09:38:00,
2014-01-03 03:39:00,-8.7,-16.1,29.32,SSE,158,3.1,3.8,69,0.00,,,0.00,0.00,VWS V14.01,2014-01-03 09:39:00,
2014-01-03 03:40:00,-8.7,-16.1,29.32,South,180,2.9,3.8,69,0.00,,,0.00,0.00,VWS V14.01,2014-01-03 09:40:00,
2014-01-03 03:41:00,-8.7,-16.1,29.32,SSW,202,4.0,4.7,69,0.00,,,0.00,0.00,VWS V14.01,2014-01-03 09:41:00,
2014-01-03 03:42:00,-8.7,-16.1,29.32,South,180,5.6,5.6,69,0.00,,,0.00,0.00,VWS V14.01,2014-01-03 09:42:00,
2014-01-03 03:43:00,-8.7,-16.1,29.32,South,180,3.4,4.3,69,0.00,,,0.00,0.00,VWS V14.01,2014-01-03 09:43:00,
2014-01-03 03:44:00,-8.7,-16.1,29.32,SSE,158,2.0,4.3,69,0.00,,,0.00,0.00,VWS V14.01,2014-01-03 09:44:00,
2014-01-03 03:45:00,-8.7,-16.1,29.32,SE,135,3.8,3.8,69,0.00,,,0.00,0.00,VWS V14.01,2014-01-03 09:45:00,
2014-01-03 03:46:00,-8.7,-16.1,29.32,SSE,158,1.6,3.8,69,0.00,,,0.00,0.00,VWS V14.01,2014-01-03 09:46:00,
2014-01-03 03:47:00,-8.7,-16.1,29.32,South,180,2.5,3.6,69,0.00,,,0.00,0.00,VWS V14.01,2014-01-03 09:47:00,
2014-01-03 03:48:00,-8.7,-16.1,29.29,SSE,158,3.6,4.9,69,0.00,,,0.00,0.00,VWS V14.01,2014-01-03 09:48:00,
2014-01-03 03:49:00,-8.5,-15.9,29.29,SE,135,3.4,4.9,69,0.00,,,0.00,0.00,VWS V14.01,2014-01-03 09:49:00,
2014-01-03 03:50:00,-8.5,-15.9,29.29,SSW,202,4.0,4.0,69,0.00,,,0.00,0.00,VWS V14.01,2014-01-03 09:50:00,
2014-01-03 03:51:00,-8.5,-15.9,29.29,SSE,158,2.0,4.0,69,0.00,,,0.00,0.00,VWS V14.01,2014-01-03 09:51:00,
2014-01-03 03:52:00,-8.5,-15.9,29.29,SSE,158,2.5,3.4,69,0.00,,,0.00,0.00,VWS V14.01,2014-01-03 09:52:00,
2014-01-03 03:53:00,-8.3,-15.8,29.29,SSE,158,4.0,4.0,69,0.00,,,0.00,0.00,VWS V14.01,2014-01-03 09:53:00,
2014-01-03 03:54:00,-8.3,-15.7,29.29,South,180,4.9,4.9,69,0.00,,,0.00,0.00,VWS V14.01,2014-01-03 09:54:00,
2014-01-03 03:55:00,-8.1,-15.6,29.29,South,180,3.8,6.3,69,0.00,,,0.00,0.00,VWS V14.01,2014-01-03 09:55:00,
2014-01-03 03:56:00,-8.1,-15.6,29.29,SSW,202,2.9,3.8,69,0.00,,,0.00,0.00,VWS V14.01,2014-01-03 09:56:00,
2014-01-03 03:57:00,-8.0,-15.4,29.29,South,180,3.8,3.8,69,0.00,,,0.00,0.00,VWS V14.01,2014-01-03 09:57:00,
2014-01-03 03:58:00,-8.0,-15.4,29.29,South,180,3.6,4.0,69,0.00,,,0.00,0.00,VWS V14.01,2014-01-03 09:58:00,
2014-01-03 03:59:00,-8.0,-15.4,29.29,South,180,3.6,4.0,69,0.00,,,0.00,0.00,VWS V14.01,2014-01-03 09:59:00,
2014-01-03 04:00:00,-8.0,-15.4,29.29,SE,135,2.5,3.6,69,0.00,,,0.00,0.00,VWS V14.01,2014-01-03 10:00:00,
2014-01-03 04:01:00,-7.6,-15.1,29.29,SSW,202,4.7,6.5,69,0.00,,,0.00,0.00,VWS V14.01,2014-01-03 10:01:00,
2014-01-03 04:02:00,-3.1,-10.7,29.26,SSE,158,5.4,6.5,69,0.00,,,0.00,0.00,VWS V14.01,2014-01-03 10:02:00,
2014-01-03 04:03:00,-7.6,-15.1,29.29,SE,135,3.8,3.8,69,0.00,,,0.00,0.00,VWS V14.01,2014-01-03 10:03:00,
2014-01-03 04:04:00,-7.2,-14.7,29.29,SSE,158,3.8,3.8,69,0.00,,,0.00,0.00,VWS V14.01,2014-01-03 10:04:00,
2014-01-03 04:05:00,-7.2,-14.7,29.29,SSE,158,2.7,3.8,69,0.00,,,0.00,0.00,VWS V14.01,2014-01-03 10:05:00,
2014-01-03 04:06:00,-7.1,-14.5,29.29,ESE,112,3.8,6.0,69,0.00,,,0.00,0.00,VWS V14.01,2014-01-03 10:06:00,
2014-01-03 04:07:00,-7.1,-14.5,29.29,SSE,158,4.0,7.2,69,0.00,,,0.00,0.00,VWS V14.01,2014-01-03 10:07:00,
2014-01-03 04:08:00,-6.9,-14.4,29.29,SSE,158,3.6,3.6,69,0.00,,,0.00,0.00,VWS V14.01,2014-01-03 10:08:00,
2014-01-03 04:09:00,-6.7,-14.2,29.29,SSE,158,6.5,6.5,69,0.00,,,0.00,0.00,VWS V14.01,2014-01-03 10:09:00,
2014-01-03 04:10:00,-6.7,-14.2,29.29,SSE,158,3.1,7.2,69,0.00,,,0.00,0.00,VWS V14.01,2014-01-03 10:10:00,
2014-01-03 04:11:00,-6.7,-14.2,29.29,SSW,202,3.8,3.8,69,0.00,,,0.00,0.00,VWS V14.01,2014-01-03 10:11:00,
2014-01-03 04:12:00,-6.5,-14.0,29.29,SSE,158,2.5,3.8,69,0.00,,,0.00,0.00,VWS V14.01,2014-01-03 10:12:00,
2014-01-03 04:13:00,-6.5,-14.0,29.29,South,180,5.6,5.6,69,0.00,,,0.00,0.00,VWS V14.01,2014-01-03 10:13:00,
2014-01-03 04:14:00,-6.5,-14.0,29.29,ESE,112,3.8,6.0,69,0.00,,,0.00,0.00,VWS V14.01,2014-01-03 10:14:00,
2014-01-03 04:15:00,-6.3,-13.8,29.29,South,180,4.9,6.5,69,0.00,,,0.00,0.00,VWS V14.01,2014-01-03 10:15:00,
2014-01-03 04:16:00,-6.3,-13.8,29.29,South,180,4.9,4.9,69,0.00,,,0.00,0.00,VWS V14.01,2014-01-03 10:16:00,
2014-01-03 04:17:00,-6.3,-13.8,29.29,SE,135,5.6,6.5,69,0.00,,,0.00,0.00,VWS V14.01,2014-01-03 10:17:00,
2014-01-03 04:18:00,-6.2,-13.7,29.29,SE,135,3.1,3.1,69,0.00,,,0.00,0.00,VWS V14.01,2014-01-03 10:18:00,
2014-01-03 04:19:00,-6.2,-13.7,29.29,SSE,158,7.4,7.4,69,0.00,,,0.00,0.00,VWS V14.01,2014-01-03 10:19:00,
2014-01-03 04:20:00,-6.0,-13.5,29.29,SSE,158,4.3,7.4,69,0.00,,,0.00,0.00,VWS V14.01,2014-01-03 10:20:00,
2014-01-03 04:21:00,-5.8,-13.3,29.29,SSE,158,7.4,8.1,69,0.00,,,0.00,0.00,VWS V14.01,2014-01-03 10:21:00,
2014-01-03 04:22:00,-5.8,-13.3,29.29,SSE,158,6.0,9.2,69,0.00,,,0.00,0.00,VWS V14.01,2014-01-03 10:22:00,
2014-01-03 04:23:00,-5.6,-13.1,29.29,South,180,5.6,5.6,69,0.00,,,0.00,0.00,VWS V14.01,2014-01-03 10:23:00,
2014-01-03 04:24:00,-5.4,-13.0,29.29,SSE,158,6.0,10.3,69,0.00,,,0.00,0.00,VWS V14.01,2014-01-03 10:24:00,
2014-01-03 04:25:00,-5.3,-12.8,29.29,South,180,2.9,6.7,69,0.00,,,0.00,0.00,VWS V14.01,2014-01-03 10:25:00,
2014-01-03 04:26:00,-5.3,-12.8,29.29,SSW,202,4.9,4.9,69,0.00,,,0.00,0.00,VWS V14.01,2014-01-03 10:26:00,
2014-01-03 04:27:00,-5.1,-12.6,29.29,SSE,158,4.9,4.9,69,0.00,,,0.00,0.00,VWS V14.01,2014-01-03 10:27:00,
2014-01-03 04:28:00,-5.1,-12.6,29.29,SSE,158,4.0,4.0,69,0.00,,,0.00,0.00,VWS V14.01,2014-01-03 10:28:00,
2014-01-03 04:29:00,-5.1,-12.6,29.29,SE,135,3.4,4.0,69,0.00,,,0.00,0.00,VWS V14.01,2014-01-03 10:29:00,
2014-01-03 04:30:00,-5.1,-12.6,29.29,SSE,158,7.6,7.6,69,0.00,,,0.00,0.00,VWS V14.01,2014-01-03 10:30:00,
2014-01-03 04:31:00,-4.9,-12.4,29.29,SSE,158,5.6,7.6,69,0.00,,,0.00,0.00,VWS V14.01,2014-01-03 10:31:00,
2014-01-03 04:32:00,-4.9,-12.4,29.29,SSE,158,8.1,8.1,69,0.00,,,0.00,0.00,VWS V14.01,2014-01-03 10:32:00,
2014-01-03 04:33:00,-4.7,-12.3,29.23,South,180,4.0,4.9,69,0.00,,,0.00,0.00,VWS V14.01,2014-01-03 10:33:00,
2014-01-03 04:34:00,-4.7,-12.3,29.23,South,180,2.9,4.9,69,0.00,,,0.00,0.00,VWS V14.01,2014-01-03 10:34:00,
2014-01-03 04:35:00,-4.7,-12.3,29.23,South,180,3.8,5.4,69,0.00,,,0.00,0.00,VWS V14.01,2014-01-03 10:35:00,
2014-01-03 04:36:00,-4.7,-12.3,29.23,SSW,202,3.4,4.9,69,0.00,,,0.00,0.00,VWS V14.01,2014-01-03 10:36:00,
2014-01-03 04:37:00,-4.7,-12.3,29.23,SSW,202,6.3,6.3,69,0.00,,,0.00,0.00,VWS V14.01,2014-01-03 10:37:00,
2014-01-03 04:38:00,-4.5,-12.1,29.23,SE,135,5.4,10.3,69,0.00,,,0.00,0.00,VWS V14.01,2014-01-03 10:38:00,
2014-01-03 04:39:00,-4.4,-11.9,29.23,SSE,158,9.6,10.3,69,0.00,,,0.00,0.00,VWS V14.01,2014-01-03 10:39:00,
2014-01-03 04:40:00,-4.4,-11.9,29.23,SSE,158,3.4,9.6,69,0.00,,,0.00,0.00,VWS V14.01,2014-01-03 10:40:00,
2014-01-03 04:41:00,-4.4,-11.9,29.23,WSW,248,5.6,6.0,69,0.00,,,0.00,0.00,VWS V14.01,2014-01-03 10:41:00,
2014-01-03 04:42:00,-4.4,-11.9,29.23,SSW,202,6.5,8.1,69,0.00,,,0.00,0.00,VWS V14.01,2014-01-03 10:42:00,
2014-01-03 04:43:00,-4.2,-11.8,29.23,South,180,7.6,7.6,69,0.00,,,0.00,0.00,VWS V14.01,2014-01-03 10:43:00,
2014-01-03 04:44:00,-4.2,-11.8,29.23,South,180,4.0,7.6,69,0.00,,,0.00,0.00,VWS V14.01,2014-01-03 10:44:00,
2014-01-03 04:45:00,-4.2,-11.8,29.23,South,180,2.7,6.3,69,0.00,,,0.00,0.00,VWS V14.01,2014-01-03 10:45:00,
2014-01-03 04:46:00,-4.0,-11.6,29.23,SSE,158,5.4,10.7,69,0.00,,,0.00,0.00,VWS V14.01,2014-01-03 10:46:00,
2014-01-03 04:47:00,-3.8,-11.4,29.23,SSE,158,9.8,12.8,69,0.00,,,0.00,0.00,VWS V14.01,2014-01-03 10:47:00,
2014-01-03 04:48:00,-3.8,-11.4,29.26,South,180,9.8,9.8,69,0.00,,,0.00,0.00,VWS V14.01,2014-01-03 10:48:00,
2014-01-03 04:49:00,-3.8,-11.4,29.26,SSE,158,8.7,17.0,69,0.00,,,0.00,0.00,VWS V14.01,2014-01-03 10:49:00,
2014-01-03 04:50:00,-3.8,-11.4,29.26,SSW,202,6.5,8.7,69,0.00,,,0.00,0.00,VWS V14.01,2014-01-03 10:50:00,
2014-01-03 04:51:00,-3.8,-11.4,29.26,South,180,6.3,7.6,69,0.00,,,0.00,0.00,VWS V14.01,2014-01-03 10:51:00,
2014-01-03 04:52:00,-3.6,-11.2,29.26,SSE,158,10.1,10.1,69,0.00,,,0.00,0.00,VWS V14.01,2014-01-03 10:52:00,
2014-01-03 04:53:00,-3.6,-11.2,29.26,SSE,158,8.5,8.5,69,0.00,,,0.00,0.00,VWS V14.01,2014-01-03 10:53:00,
2014-01-03 04:54:00,-3.5,-11.1,29.26,SE,135,10.5,10.5,69,0.00,,,0.00,0.00,VWS V14.01,2014-01-03 10:54:00,
2014-01-03 04:55:00,-3.5,-11.1,29.26,South,180,10.5,12.3,69,0.00,,,0.00,0.00,VWS V14.01,2014-01-03 10:55:00,
2014-01-03 04:56:00,-3.5,-11.1,29.26,SSE,158,4.3,10.7,69,0.00,,,0.00,0.00,VWS V14.01,2014-01-03 10:56:00,
2014-01-03 04:57:00,-3.5,-11.1,29.26,SSE,158,11.0,11.0,69,0.00,,,0.00,0.00,VWS V14.01,2014-01-03 10:57:00,
2014-01-03 04:58:00,-3.5,-11.1,29.26,SSE,158,10.7,10.7,69,0.00,,,0.00,0.00,VWS V14.01,2014-01-03 10:58:00,
2014-01-03 04:59:00,-3.5,-11.1,29.26,SSE,158,6.3,10.7,69,0.00,,,0.00,0.00,VWS V14.01,2014-01-03 10:59:00,
2014-01-03 05:00:00,-3.3,-10.9,29.26,SSE,158,5.4,6.3,69,0.00,,,0.00,0.00,VWS V14.01,2014-01-03 11:00:00,
2014-01-03 05:01:00,-3.3,-10.9,29.26,SSE,158,5.4,5.4,69,0.00,,,0.00,0.00,VWS V14.01,2014-01-03 11:01:00,
2014-01-03 05:02:00,-3.1,-10.7,29.26,SSE,158,5.4,6.5,69,0.00,,,0.00,0.00,VWS V14.01,2014-01-03 11:02:00,
2014-01-03 05:03:00,-3.1,-10.7,29.26,SSE,158,6.3,8.5,69,0.00,,,0.00,0.00,VWS V14.01,2014-01-03 11:03:00,
2014-01-03 05:04:00,-3.1,-10.7,29.26,SSE,158,6.3,8.5,69,0.00,,,0.00,0.00,VWS V14.01,2014-01-03 11:04:00,
2014-01-03 05:05:00,-3.1,-10.7,29.23,South,180,3.6,6.3,69,0.00,,,0.00,0.00,VWS V14.01,2014-01-03 11:05:00,
2014-01-03 05:06:00,-3.1,-10.7,29.23,ESE,112,4.0,6.3,69,0.00,,,0.00,0.00,VWS V14.01,2014-01-03 11:06:00,
2014-01-03 05:07:00,-3.1,-10.7,29.23,SSE,158,4.0,7.6,69,0.00,,,0.00,0.00,VWS V14.01,2014-01-03 11:07:00,
2014-01-03 05:08:00,-2.9,-10.6,29.23,SSE,158,10.7,10.7,69,0.00,,,0.00,0.00,VWS V14.01,2014-01-03 11:08:00,
2014-01-03 05:09:00,-2.9,-10.6,29.23,South,180,7.6,10.7,69,0.00,,,0.00,0.00,VWS V14.01,2014-01-03 11:09:00,
2014-01-03 05:10:00,-2.9,-10.6,29.23,SSE,158,8.5,8.5,69,0.00,,,0.00,0.00,VWS V14.01,2014-01-03 11:10:00,
2014-01-03 05:11:00,-2.9,-10.6,29.23,South,180,3.1,8.5,69,0.00,,,0.00,0.00,VWS V14.01,2014-01-03 11:11:00,
2014-01-03 05:12:00,-2.9,-10.6,29.23,ESE,112,8.5,8.5,69,0.00,,,0.00,0.00,VWS V14.01,2014-01-03 11:12:00,
2014-01-03 05:13:00,-2.9,-10.6,29.23,SSE,158,11.9,11.9,69,0.00,,,0.00,0.00,VWS V14.01,2014-01-03 11:13:00,
2014-01-03 05:14:00,-2.9,-10.6,29.23,South,180,5.8,11.9,69,0.00,,,0.00,0.00,VWS V14.01,2014-01-03 11:14:00,
2014-01-03 05:15:00,-2.9,-10.6,29.23,SSE,158,3.8,5.8,69,0.00,,,0.00,0.00,VWS V14.01,2014-01-03 11:15:00,
2014-01-03 05:16:00,-2.9,-10.6,29.23,South,180,6.0,7.6,69,0.00,,,0.00,0.00,VWS V14.01,2014-01-03 11:16:00,
2014-01-03 05:17:00,-2.9,-10.6,29.23,SSE,158,6.0,9.8,69,0.00,,,0.00,0.00,VWS V14.01,2014-01-03 11:17:00,
2014-01-03 05:18:00,-2.9,-10.6,29.20,SSE,158,4.3,6.3,69,0.00,,,0.00,0.00,VWS V14.01,2014-01-03 11:18:00,
2014-01-03 05:19:00,-2.9,-10.6,29.20,SSE,158,7.4,9.4,69,0.00,,,0.00,0.00,VWS V14.01,2014-01-03 11:19:00,
2014-01-03 05:20:00,-2.9,-10.6,29.20,ESE,112,5.4,7.4,69,0.00,,,0.00,0.00,VWS V14.01,2014-01-03 11:20:00,
2014-01-03 05:21:00,-2.9,-10.6,29.20,SSE,158,8.1,8.1,69,0.00,,,0.00,0.00,VWS V14.01,2014-01-03 11:21:00,
2014-01-03 05:22:00,-2.7,-10.4,29.20,ESE,112,6.9,8.1,69,0.00,,,0.00,0.00,VWS V14.01,2014-01-03 11:22:00,
2014-01-03 05:23:00,-2.7,-10.4,29.20,ESE,112,6.5,6.5,69,0.00,,,0.00,0.00,VWS V14.01,2014-01-03 11:23:00,
2014-01-03 05:24:00,-2.6,-10.2,29.20,SSW,202,4.5,6.5,69,0.00,,,0.00,0.00,VWS V14.01,2014-01-03 11:24:00,
2014-01-03 05:25:00,-0.6,-8.3,29.17,SSE,158,3.8,6.5,69,0.00,,,0.00,0.00,VWS V14.01,2014-01-03 11:25:00,
2014-01-03 05:26:00,-2.6,-10.2,29.20,SSE,158,7.8,7.8,69,0.00,,,0.00,0.00,VWS V14.01,2014-01-03 11:26:00,
2014-01-03 05:27:00,-2.6,-10.2,29.20,SSE,158,5.4,9.6,69,0.00,,,0.00,0.00,VWS V14.01,2014-01-03 11:27:00,
2014-01-03 05:28:00,-2.6,-10.2,29.20,SSE,158,7.6,8.1,69,0.00,,,0.00,0.00,VWS V14.01,2014-01-03 11:28:00,
2014-01-03 05:29:00,0.0,-7.8,29.17,SSE,158,3.1,6.9,69,0.00,,,0.00,0.00,VWS V14.01,2014-01-03 11:29:00,
2014-01-03 05:30:00,-2.6,-10.2,29.20,SSE,158,3.6,7.6,69,0.00,,,0.00,0.00,VWS V14.01,2014-01-03 11:30:00,
2014-01-03 05:31:00,-2.6,-10.2,29.20,SSE,158,6.3,7.4,69,0.00,,,0.00,0.00,VWS V14.01,2014-01-03 11:31:00,
2014-01-03 05:32:00,-2.6,-10.2,29.20,North,0,3.4,7.8,69,0.00,,,0.00,0.00,VWS V14.01,2014-01-03 11:32:00,
2014-01-03 05:33:00,-2.6,-10.2,29.17,SSE,158,2.5,5.4,69,0.00,,,0.00,0.00,VWS V14.01,2014-01-03 11:33:00,
2014-01-03 05:34:00,-2.6,-10.2,29.17,SSE,158,10.3,10.3,69,0.00,,,0.00,0.00,VWS V14.01,2014-01-03 11:34:00,
2014-01-03 05:35:00,-2.6,-10.2,29.17,SSE,158,5.8,10.3,69,0.00,,,0.00,0.00,VWS V14.01,2014-01-03 11:35:00,
2014-01-03 05:36:00,-2.6,-10.2,29.17,SE,135,5.4,12.1,69,0.00,,,0.00,0.00,VWS V14.01,2014-01-03 11:36:00,
2014-01-03 05:37:00,-2.6,-10.2,29.17,SE,135,7.6,8.1,69,0.00,,,0.00,0.00,VWS V14.01,2014-01-03 11:37:00,
2014-01-03 05:38:00,-2.6,-10.2,29.17,SE,135,4.9,7.6,69,0.00,,,0.00,0.00,VWS V14.01,2014-01-03 11:38:00,
2014-01-03 05:39:00,-2.4,-10.0,29.17,South,180,6.3,6.3,69,0.00,,,0.00,0.00,VWS V14.01,2014-01-03 11:39:00,
2014-01-03 05:40:00,-2.4,-10.0,29.17,SSE,158,4.3,6.3,69,0.00,,,0.00,0.00,VWS V14.01,2014-01-03 11:40:00,
2014-01-03 05:41:00,-2.4,-10.0,29.17,SSE,158,8.7,8.7,69,0.00,,,0.00,0.00,VWS V14.01,2014-01-03 11:41:00,
2014-01-03 05:42:00,-2.4,-10.0,29.17,SSE,158,8.7,8.7,69,0.00,,,0.00,0.00,VWS V14.01,2014-01-03 11:42:00,
2014-01-03 05:43:00,-2.4,-10.0,29.17,SSW,202,3.4,3.4,69,0.00,,,0.00,0.00,VWS V14.01,2014-01-03 11:43:00,
2014-01-03 05:44:00,-2.4,-10.0,29.17,SSE,158,6.0,6.5,69,0.00,,,0.00,0.00,VWS V14.01,2014-01-03 11:44:00,
2014-01-03 05:45:00,-2.2,-9.9,29.17,SSE,158,8.5,8.5,69,0.00,,,0.00,0.00,VWS V14.01,2014-01-03 11:45:00,
2014-01-03 05:46:00,-2.2,-9.9,29.17,South,180,5.4,8.5,69,0.00,,,0.00,0.00,VWS V14.01,2014-01-03 11:46:00,
2014-01-03 05:47:00,-2.2,-9.9,29.17,WSW,248,6.5,6.5,69,0.00,,,0.00,0.00,VWS V14.01,2014-01-03 11:47:00,
2014-01-03 05:48:00,-2.2,-9.9,29.20,SSE,158,6.5,6.5,69,0.00,,,0.00,0.00,VWS V14.01,2014-01-03 11:48:00,
2014-01-03 05:49:00,-2.0,-9.7,29.20,SSE,158,6.5,6.5,69,0.00,,,0.00,0.00,VWS V14.01,2014-01-03 11:49:00,
2014-01-03 05:50:00,-2.0,-9.7,29.20,ENE,68,3.4,6.5,69,0.00,,,0.00,0.00,VWS V14.01,2014-01-03 11:50:00,
2014-01-03 05:51:00,-2.0,-9.7,29.20,South,180,7.4,7.4,69,0.00,,,0.00,0.00,VWS V14.01,2014-01-03 11:51:00,
2014-01-03 05:52:00,-1.8,-9.5,29.20,South,180,3.8,7.4,69,0.00,,,0.00,0.00,VWS V14.01,2014-01-03 11:52:00,
2014-01-03 05:53:00,-1.8,-9.5,29.20,ESE,112,5.4,5.4,69,0.00,,,0.00,0.00,VWS V14.01,2014-01-03 11:53:00,
2014-01-03 05:54:00,-1.8,-9.5,29.20,SSE,158,6.0,6.5,69,0.00,,,0.00,0.00,VWS V14.01,2014-01-03 11:54:00,
2014-01-03 05:55:00,-1.8,-9.5,29.20,South,180,6.7,6.7,69,0.00,,,0.00,0.00,VWS V14.01,2014-01-03 11:55:00,
2014-01-03 05:56:00,-1.7,-9.3,29.20,WSW,248,3.6,6.7,69,0.00,,,0.00,0.00,VWS V14.01,2014-01-03 11:56:00,
2014-01-03 05:57:00,-1.7,-9.3,29.20,SSE,158,2.9,5.8,69,0.00,,,0.00,0.00,VWS V14.01,2014-01-03 11:57:00,
2014-01-03 05:58:00,-1.7,-9.3,29.20,SSE,158,4.3,6.5,69,0.00,,,0.00,0.00,VWS V14.01,2014-01-03 11:58:00,
2014-01-03 05:59:00,-1.5,-9.2,29.20,SSE,158,7.8,7.8,69,0.00,,,0.00,0.00,VWS V14.01,2014-01-03 11:59:00,
2014-01-03 06:00:00,-1.5,-9.2,29.20,SSW,202,3.1,7.8,69,0.00,,,0.00,0.00,VWS V14.01,2014-01-03 12:00:00,
2014-01-03 06:01:00,-1.5,-9.2,29.20,SSE,158,2.0,3.4,69,0.00,,,0.00,0.00,VWS V14.01,2014-01-03 12:01:00,
2014-01-03 06:02:00,-1.5,-9.2,29.20,SSW,202,7.8,7.8,69,0.00,,,0.00,0.00,VWS V14.01,2014-01-03 12:02:00,
2014-01-03 06:03:00,-1.5,-9.2,29.20,SSW,202,7.8,7.8,69,0.00,,,0.00,0.00,VWS V14.01,2014-01-03 12:03:00,
2014-01-03 06:04:00,-1.5,-9.2,29.20,SE,135,2.7,7.8,69,0.00,,,0.00,0.00,VWS V14.01,2014-01-03 12:04:00,
2014-01-03 06:05:00,-1.5,-9.2,29.20,South,180,2.7,2.7,69,0.00,,,0.00,0.00,VWS V14.01,2014-01-03 12:05:00,
2014-01-03 06:06:00,-1.5,-9.2,29.20,SSW,202,5.8,5.8,69,0.00,,,0.00,0.00,VWS V14.01,2014-01-03 12:06:00,
2014-01-03 06:07:00,-1.5,-9.2,29.20,SSE,158,5.4,5.8,69,0.00,,,0.00,0.00,VWS V14.01,2014-01-03 12:07:00,
2014-01-03 06:08:00,-1.5,-9.2,29.20,SSW,202,7.4,8.5,69,0.00,,,0.00,0.00,VWS V14.01,2014-01-03 12:08:00,
2014-01-03 06:09:00,-1.5,-9.2,29.20,SSE,158,11.0,11.0,69,0.00,,,0.00,0.00,VWS V14.01,2014-01-03 12:09:00,
2014-01-03 06:10:00,-1.5,-9.2,29.20,SSW,202,5.6,11.0,69,0.00,,,0.00,0.00,VWS V14.01,2014-01-03 12:10:00,
2014-01-03 06:11:00,-1.5,-9.2,29.20,SSE,158,4.9,5.6,69,0.00,,,0.00,0.00,VWS V14.01,2014-01-03 12:11:00,
2014-01-03 06:12:00,3.2,-4.7,29.15,SSE,158,10.7,12.5,69,0.00,,,0.00,0.00,VWS V14.01,2014-01-03 12:12:00,
2014-01-03 06:13:00,-1.5,-9.2,29.20,SE,135,7.8,7.8,69,0.00,,,0.00,0.00,VWS V14.01,2014-01-03 12:13:00,
2014-01-03 06:14:00,-1.5,-9.2,29.20,ESE,112,7.2,7.8,69,0.00,,,0.00,0.00,VWS V14.01,2014-01-03 12:14:00,
2014-01-03 06:15:00,-1.5,-9.2,29.20,SSE,158,6.3,7.2,69,0.00,,,0.00,0.00,VWS V14.01,2014-01-03 12:15:00,
2014-01-03 06:16:00,-1.3,-9.0,29.20,SSE,158,6.3,10.1,69,0.00,,,0.00,0.00,VWS V14.01,2014-01-03 12:16:00,
2014-01-03 06:17:00,-1.3,-9.0,29.20,SSE,158,6.3,6.3,69,0.00,,,0.00,0.00,VWS V14.01,2014-01-03 12:17:00,
2014-01-03 06:18:00,-1.3,-9.0,29.17,SE,135,3.4,6.3,69,0.00,,,0.00,0.00,VWS V14.01,2014-01-03 12:18:00,
2014-01-03 06:19:00,-1.1,-8.8,29.17,SSE,158,7.4,7.4,69,0.00,,,0.00,0.00,VWS V14.01,2014-01-03 12:19:00,
2014-01-03 06:20:00,-1.1,-8.8,29.17,SSE,158,3.1,7.4,69,0.00,,,0.00,0.00,VWS V14.01,2014-01-03 12:20:00,
2014-01-03 06:21:00,-0.9,-8.6,29.17,SSE,158,8.5,8.5,69,0.00,,,0.00,0.00,VWS V14.01,2014-01-03 12:21:00,
2014-01-03 06:22:00,-0.9,-8.6,29.17,SSE,158,5.4,6.0,69,0.00,,,0.00,0.00,VWS V14.01,2014-01-03 12:22:00,
2014-01-03 06:23:00,-0.9,-8.6,29.17,SSE,158,5.4,6.0,69,0.00,,,0.00,0.00,VWS V14.01,2014-01-03 12:23:00,
2014-01-03 06:24:00,-0.6,-8.3,29.17,SSE,158,5.4,6.3,69,0.00,,,0.00,0.00,VWS V14.01,2014-01-03 12:24:00,
2014-01-03 06:25:00,-0.6,-8.3,29.17,SSE,158,3.8,6.5,69,0.00,,,0.00,0.00,VWS V14.01,2014-01-03 12:25:00,
2014-01-03 06:26:00,-0.4,-8.1,29.17,SSE,158,4.7,6.0,69,0.00,,,0.00,0.00,VWS V14.01,2014-01-03 12:26:00,
2014-01-03 06:27:00,0.0,-7.8,29.17,SSE,158,5.4,6.3,69,0.00,,,0.00,0.00,VWS V14.01,2014-01-03 12:27:00,
2014-01-03 06:28:00,0.0,-7.8,29.17,SSE,158,5.4,6.3,69,0.00,,,0.00,0.00,VWS V14.01,2014-01-03 12:28:00,
2014-01-03 06:29:00,0.0,-7.8,29.17,SSE,158,3.1,6.9,69,0.00,,,0.00,0.00,VWS V14.01,2014-01-03 12:29:00,
2014-01-03 06:30:00,0.1,-7.6,29.17,South,180,8.5,10.7,69,0.00,,,0.00,0.00,VWS V14.01,2014-01-03 12:30:00,
2014-01-03 06:31:00,0.5,-7.3,29.17,South,180,8.5,8.5,69,0.00,,,0.00,0.00,VWS V14.01,2014-01-03 12:31:00,
2014-01-03 06:32:00,1.2,-6.6,29.17,South,180,12.8,12.8,69,0.00,,,0.00,0.00,VWS V14.01,2014-01-03 12:32:00,
2014-01-03 06:33:00,3.7,-4.1,29.11,SSE,158,11.0,11.0,69,0.00,,,0.00,0.00,VWS V14.01,2014-01-03 12:33:00,
2014-01-03 06:34:00,1.2,-6.6,29.17,SE,135,7.6,12.8,69,0.00,,,0.00,0.00,VWS V14.01,2014-01-03 12:34:00,
2014-01-03 06:35:00,1.4,-6.4,29.15,ESE,112,8.5,15.2,69,0.00,,,0.00,0.00,VWS V14.01,2014-01-03 12:35:00,
2014-01-03 06:36:00,1.6,-6.2,29.15,SSE,158,8.1,8.5,69,0.00,,,0.00,0.00,VWS V14.01,2014-01-03 12:36:00,
2014-01-03 06:37:00,1.8,-6.1,29.14,SSE,158,6.9,11.4,69,0.00,,,0.00,0.00,VWS V14.01,2014-01-03 12:37:00,
2014-01-03 06:38:00,1.8,-6.1,29.15,SSE,158,5.4,11.4,69,0.00,,,0.00,0.00,VWS V14.01,2014-01-03 12:38:00,
2014-01-03 06:39:00,1.9,-5.9,29.15,SE,135,9.8,15.9,69,0.00,,,0.00,0.00,VWS V14.01,2014-01-03 12:39:00,
2014-01-03 06:40:00,1.9,-5.9,29.15,SSE,158,5.6,9.8,69,0.00,,,0.00,0.00,VWS V14.01,2014-01-03 12:40:00,
2014-01-03 06:41:00,1.9,-5.9,29.15,SSE,158,5.6,5.6,69,0.00,,,0.00,0.00,VWS V14.01,2014-01-03 12:41:00,
2014-01-03 06:42:00,1.9,-5.9,29.14,South,180,6.5,12.5,69,0.00,,,0.00,0.00,VWS V14.01,2014-01-03 12:42:00,
2014-01-03 06:43:00,1.9,-5.9,29.15,South,180,6.5,12.5,69,0.00,,,0.00,0.00,VWS V14.01,2014-01-03 12:43:00,
2014-01-03 06:44:00,1.9,-5.9,29.15,South,180,7.8,13.0,69,0.00,,,0.00,0.00,VWS V14.01,2014-01-03 12:44:00,
2014-01-03 06:45:00,2.1,-5.7,29.15,SSE,158,7.6,7.8,69,0.00,,,0.00,0.00,VWS V14.01,2014-01-03 12:45:00,
2014-01-03 06:46:00,2.1,-5.7,29.15,South,180,10.3,12.8,69,0.00,,,0.00,0.00,VWS V14.01,2014-01-03 12:46:00,
2014-01-03 06:47:00,2.3,-5.5,29.14,South,180,9.2,13.0,69,0.00,,,0.00,0.00,VWS V14.01,2014-01-03 12:47:00,
2014-01-03 06:48:00,2.3,-5.5,29.15,South,180,8.1,13.0,69,0.00,,,0.00,0.00,VWS V14.01,2014-01-03 12:48:00,
2014-01-03 06:49:00,2.5,-5.3,29.15,SE,135,12.3,12.3,69,0.00,,,0.00,0.00,VWS V14.01,2014-01-03 12:49:00,
2014-01-03 06:50:00,2.5,-5.3,29.15,SE,135,4.3,12.3,69,0.00,,,0.00,0.00,VWS V14.01,2014-01-03 12:50:00,
2014-01-03 06:51:00,2.5,-5.3,29.15,SSE,158,6.3,7.6,69,0.00,,,0.00,0.00,VWS V14.01,2014-01-03 12:51:00,
2014-01-03 06:52:00,2.7,-5.2,29.14,SSE,158,9.4,9.4,69,0.00,,,0.00,0.00,VWS V14.01,2014-01-03 12:52:00,
2014-01-03 06:53:00,2.7,-5.2,29.15,SSE,158,9.4,9.4,69,0.00,,,0.00,0.00,VWS V14.01,2014-01-03 12:53:00,
2014-01-03 06:54:00,2.8,-5.0,29.15,SSE,158,12.1,19.9,69,0.00,,,0.00,0.00,VWS V14.01,2014-01-03 12:54:00,
2014-01-03 06:55:00,2.8,-5.0,29.15,South,180,8.7,12.1,69,0.00,,,0.00,0.00,VWS V14.01,2014-01-03 12:55:00,
2014-01-03 06:56:00,2.8,-5.0,29.15,SSE,158,5.4,8.7,69,0.00,,,0.00,0.00,VWS V14.01,2014-01-03 12:56:00,
2014-01-03 06:57:00,2.8,-5.0,29.14,SSE,158,7.6,10.5,69,0.00,,,0.00,0.00,VWS V14.01,2014-01-03 12:57:00,
2014-01-03 06:58:00,2.8,-5.0,29.15,SSW,202,10.7,10.7,69,0.00,,,0.00,0.00,VWS V14.01,2014-01-03 12:58:00,
2014-01-03 06:59:00,3.0,-4.8,29.15,SE,135,8.7,10.7,69,0.00,,,0.00,0.00,VWS V14.01,2014-01-03 12:59:00,
2014-01-03 07:00:00,3.0,-4.8,29.15,South,180,13.9,13.9,69,0.00,,,0.00,0.00,VWS V14.01,2014-01-03 13:00:00,
2014-01-03 07:01:00,3.0,-4.8,29.15,SSE,158,6.3,13.9,69,0.00,,,0.00,0.00,VWS V14.01,2014-01-03 13:01:00,
2014-01-03 07:02:00,3.0,-4.8,29.14,SE,135,7.8,8.7,69,0.00,,,0.00,0.00,VWS V14.01,2014-01-03 13:02:00,
2014-01-03 07:03:00,3.0,-4.8,29.15,South,180,4.0,8.7,69,0.00,,,0.00,0.00,VWS V14.01,2014-01-03 13:03:00,
2014-01-03 07:04:00,4.8,-3.1,29.09,South,180,15.4,17.0,69,0.00,,,0.00,0.00,VWS V14.01,2014-01-03 13:04:00,
2014-01-03 07:05:00,3.2,-4.7,29.15,ESE,112,6.3,12.3,69,0.00,,,0.00,0.00,VWS V14.01,2014-01-03 13:05:00,
2014-01-03 07:06:00,3.0,-4.8,29.15,South,180,6.5,12.8,69,0.00,,,0.00,0.00,VWS V14.01,2014-01-03 13:06:00,
2014-01-03 07:07:00,3.2,-4.7,29.14,South,180,22.6,22.6,69,0.00,,,0.00,0.00,VWS V14.01,2014-01-03 13:07:00,
2014-01-03 07:08:00,3.2,-4.7,29.15,South,180,22.6,22.6,69,0.00,,,0.00,0.00,VWS V14.01,2014-01-03 13:08:00,
2014-01-03 07:09:00,3.2,-4.7,29.15,SSE,158,10.1,22.6,69,0.00,,,0.00,0.00,VWS V14.01,2014-01-03 13:09:00,
2014-01-03 07:10:00,3.2,-4.7,29.15,SSE,158,12.5,12.5,69,0.00,,,0.00,0.00,VWS V14.01,2014-01-03 13:10:00,
2014-01-03 07:11:00,3.2,-4.7,29.15,SSE,158,6.0,12.8,69,0.00,,,0.00,0.00,VWS V14.01,2014-01-03 13:11:00,
2014-01-03 07:12:00,3.2,-4.7,29.14,SSW,202,10.1,11.2,69,0.00,,,0.00,0.00,VWS V14.01,2014-01-03 13:12:00,
2014-01-03 07:13:00,3.2,-4.7,29.15,SSE,158,12.5,12.5,69,0.00,,,0.00,0.00,VWS V14.01,2014-01-03 13:13:00,
2014-01-03 07:14:00,3.2,-4.7,29.15,SSE,158,8.7,12.5,69,0.00,,,0.00,0.00,VWS V14.01,2014-01-03 13:14:00,
2014-01-03 07:15:00,3.2,-4.7,29.15,South,180,10.5,17.0,69,0.00,,,0.00,0.00,VWS V14.01,2014-01-03 13:15:00,
2014-01-03 07:16:00,3.2,-4.7,29.15,SSE,158,12.1,12.1,69,0.00,,,0.00,0.00,VWS V14.01,2014-01-03 13:16:00,
2014-01-03 07:17:00,3.2,-4.7,29.14,SSW,202,15.2,15.2,69,0.00,,,0.00,0.00,VWS V14.01,2014-01-03 13:17:00,
2014-01-03 07:18:00,3.2,-4.7,29.11,SSE,158,12.8,15.2,69,0.00,,,0.00,0.00,VWS V14.01,2014-01-03 13:18:00,
2014-01-03 07:19:00,3.2,-4.7,29.11,SSE,158,10.3,15.2,69,0.00,,,0.00,0.00,VWS V14.01,2014-01-03 13:19:00,
2014-01-03 07:20:00,3.4,-4.5,29.11,SSE,158,11.9,11.9,69,0.00,,,0.00,0.00,VWS V14.01,2014-01-03 13:20:00,
2014-01-03 07:21:00,3.4,-4.5,29.11,South,180,11.0,11.9,69,0.00,,,0.00,0.00,VWS V14.01,2014-01-03 13:21:00,
2014-01-03 07:22:00,3.4,-4.5,29.12,South,180,10.3,13.4,69,0.00,,,0.00,0.00,VWS V14.01,2014-01-03 13:22:00,
2014-01-03 07:23:00,3.4,-4.5,29.11,SSE,158,16.1,16.1,69,0.00,,,0.00,0.00,VWS V14.01,2014-01-03 13:23:00,
2014-01-03 07:24:00,3.4,-4.5,29.11,SSE,158,9.6,16.1,69,0.00,,,0.00,0.00,VWS V14.01,2014-01-03 13:24:00,
2014-01-03 07:25:00,3.6,-4.3,29.11,South,180,10.3,12.8,69,0.00,,,0.00,0.00,VWS V14.01,2014-01-03 13:25:00,
2014-01-03 07:26:00,3.6,-4.3,29.11,SSE,158,15.2,15.2,69,0.00,,,0.00,0.00,VWS V14.01,2014-01-03 13:26:00,
2014-01-03 07:27:00,3.7,-4.1,29.12,ESE,112,11.0,11.0,69,0.00,,,0.00,0.00,VWS V14.01,2014-01-03 13:27:00,
2014-01-03 07:28:00,3.7,-4.1,29.11,SSE,158,6.3,11.0,69,0.00,,,0.00,0.00,VWS V14.01,2014-01-03 13:28:00,
2014-01-03 07:29:00,3.7,-4.1,29.11,South,180,10.1,10.1,69,0.00,,,0.00,0.00,VWS V14.01,2014-01-03 13:29:00,
2014-01-03 07:30:00,3.7,-4.1,29.11,SSE,158,3.8,10.1,69,0.00,,,0.00,0.00,VWS V14.01,2014-01-03 13:30:00,
2014-01-03 07:31:00,3.7,-4.1,29.11,South,180,6.3,7.6,69,0.00,,,0.00,0.00,VWS V14.01,2014-01-03 13:31:00,
2014-01-03 07:32:00,3.7,-4.1,29.12,SSE,158,11.0,11.4,69,0.00,,,0.00,0.00,VWS V14.01,2014-01-03 13:32:00,
2014-01-03 07:33:00,3.7,-4.1,29.11,SSE,158,11.0,11.0,69,0.00,,,0.00,0.00,VWS V14.01,2014-01-03 13:33:00,
2014-01-03 07:34:00,3.9,-4.0,29.11,SSE,158,5.4,11.0,69,0.00,,,0.00,0.00,VWS V14.01,2014-01-03 13:34:00,
2014-01-03 07:35:00,3.9,-4.0,29.11,South,180,8.7,10.5,69,0.00,,,0.00,0.00,VWS V14.01,2014-01-03 13:35:00,
2014-01-03 07:36:00,3.9,-4.0,29.11,SSE,158,8.7,9.8,69,0.00,,,0.00,0.00,VWS V14.01,2014-01-03 13:36:00,
2014-01-03 07:37:00,4.1,-3.8,29.12,SSW,202,7.8,7.8,69,0.00,,,0.00,0.00,VWS V14.01,2014-01-03 13:37:00,
2014-01-03 07:38:00,4.1,-3.8,29.11,South,180,10.7,10.7,69,0.00,,,0.00,0.00,VWS V14.01,2014-01-03 13:38:00,
2014-01-03 07:39:00,4.1,-3.8,29.11,SSE,158,10.3,13.4,69,0.00,,,0.00,0.00,VWS V14.01,2014-01-03 13:39:00,
2014-01-03 07:40:00,4.1,-3.8,29.11,ENE,68,7.8,10.7,69,0.00,,,0.00,0.00,VWS V14.01,2014-01-03 13:40:00,
2014-01-03 07:41:00,4.1,-3.8,29.11,SSE,158,6.3,11.9,69,0.00,,,0.00,0.00,VWS V14.01,2014-01-03 13:41:00,
2014-01-03 07:42:00,4.1,-3.8,29.12,SSW,202,6.0,10.7,69,0.00,,,0.00,0.00,VWS V14.01,2014-01-03 13:42:00,
2014-01-03 07:43:00,4.1,-3.8,29.11,SSE,158,11.0,11.0,69,0.00,,,0.00,0.00,VWS V14.01,2014-01-03 13:43:00,
2014-01-03 07:44:00,4.1,-3.8,29.11,SSE,158,10.1,11.0,69,0.00,,,0.00,0.00,VWS V14.01,2014-01-03 13:44:00,
2014-01-03 07:45:00,4.1,-3.8,29.11,SSE,158,12.8,12.8,69,0.00,,,0.00,0.00,VWS V14.01,2014-01-03 13:45:00,
2014-01-03 07:46:00,4.1,-3.8,29.11,SSE,158,12.1,12.8,69,0.00,,,0.00,0.00,VWS V14.01,2014-01-03 13:46:00,
2014-01-03 07:47:00,4.1,-3.8,29.12,SSW,202,6.3,6.3,69,0.00,,,0.00,0.00,VWS V14.01,2014-01-03 13:47:00,
2014-01-03 07:48:00,4.1,-3.8,29.11,South,180,9.6,9.6,69,0.00,,,0.00,0.00,VWS V14.01,2014-01-03 13:48:00,
2014-01-03 07:49:00,4.3,-3.6,29.09,SSE,158,6.7,11.0,69,0.00,,,0.00,0.00,VWS V14.01,2014-01-03 13:49:00,
2014-01-03 07:50:00,4.3,-3.6,29.09,South,180,12.3,12.3,69,0.00,,,0.00,0.00,VWS V14.01,2014-01-03 13:50:00,
2014-01-03 07:51:00,4.3,-3.6,29.09,SSE,158,9.8,12.3,69,0.00,,,0.00,0.00,VWS V14.01,2014-01-03 13:51:00,
2014-01-03 07:52:00,4.5,-3.5,29.09,South,180,11.0,15.9,69,0.00,,,0.00,0.00,VWS V14.01,2014-01-03 13:52:00,
2014-01-03 07:53:00,4.5,-3.5,29.09,SW,225,9.6,15.9,69,0.00,,,0.00,0.00,VWS V14.01,2014-01-03 13:53:00,
2014-01-03 07:54:00,4.5,-3.5,29.09,SSW,202,19.9,19.9,69,0.00,,,0.00,0.00,VWS V14.01,2014-01-03 13:54:00,
2014-01-03 07:55:00,4.5,-3.5,29.09,SSE,158,7.4,19.9,69,0.00,,,0.00,0.00,VWS V14.01,2014-01-03 13:55:00,
2014-01-03 07:56:00,4.5,-3.5,29.09,South,180,12.5,12.5,69,0.00,,,0.00,0.00,VWS V14.01,2014-01-03 13:56:00,
2014-01-03 07:57:00,4.5,-3.5,29.09,SSE,158,10.5,13.4,69,0.00,,,0.00,0.00,VWS V14.01,2014-01-03 13:57:00,
2014-01-03 07:58:00,4.5,-3.5,29.09,SSE,158,10.5,13.4,69,0.00,,,0.00,0.00,VWS V14.01,2014-01-03 13:58:00,
2014-01-03 07:59:00,4.5,-3.5,29.09,SSW,202,10.1,10.5,69,0.00,,,0.00,0.00,VWS V14.01,2014-01-03 13:59:00,
2014-01-03 08:00:00,4.6,-3.3,29.09,SSE,158,8.5,10.1,69,0.00,,,0.00,0.00,VWS V14.01,2014-01-03 14:00:00,
2014-01-03 08:01:00,4.6,-3.3,29.09,SSE,158,8.5,8.5,69,0.00,,,0.00,0.00,VWS V14.01,2014-01-03 14:01:00,
2014-01-03 08:02:00,4.6,-3.3,29.09,South,180,8.5,8.5,69,0.00,,,0.00,0.00,VWS V14.01,2014-01-03 14:02:00,
2014-01-03 08:03:00,4.8,-3.1,29.09,South,180,8.5,8.5,69,0.00,,,0.00,0.00,VWS V14.01,2014-01-03 14:03:00,
2014-01-03 08:04:00,4.8,-3.1,29.09,South,180,15.4,17.0,69,0.00,,,0.00,0.00,VWS V14.01,2014-01-03 14:04:00,
2014-01-03 08:05:00,4.8,-3.1,29.09,South,180,15.4,15.4,69,0.00,,,0.00,0.00,VWS V14.01,2014-01-03 14:05:00,
2014-01-03 08:06:00,4.8,-3.1,29.09,South,180,15.4,15.4,69,0.00,,,0.00,0.00,VWS V14.01,2014-01-03 14:06:00,
2014-01-03 08:07:00,4.8,-3.1,29.09,SSE,158,13.9,13.9,69,0.00,,,0.00,0.00,VWS V14.01,2014-01-03 14:07:00,
2014-01-03 08:08:00,4.8,-3.1,29.09,SSE,158,13.9,13.9,69,0.00,,,0.00,0.00,VWS V14.01,2014-01-03 14:08:00,
2014-01-03 08:09:00,4.8,-3.1,29.09,SSE,158,13.9,13.9,69,0.00,,,0.00,0.00,VWS V14.01,2014-01-03 14:09:00,
2014-01-03 08:10:00,5.0,-2.9,29.09,SSE,158,12.1,13.9,69,0.00,,,0.00,0.00,VWS V14.01,2014-01-03 14:10:00,
2014-01-03 08:11:00,5.0,-2.9,29.09,South,180,7.6,12.1,69,0.00,,,0.00,0.00,VWS V14.01,2014-01-03 14:11:00,
2014-01-03 08:12:00,5.0,-2.9,29.09,South,180,7.6,7.6,69,0.00,,,0.00,0.00,VWS V14.01,2014-01-03 14:12:00,
2014-01-03 08:13:00,5.0,-2.9,29.09,South,180,7.6,7.6,69,0.00,,,0.00,0.00,VWS V14.01,2014-01-03 14:13:00,
2014-01-03 08:14:00,5.0,-2.9,29.09,South,180,7.6,7.6,69,0.00,,,0.00,0.00,VWS V14.01,2014-01-03 14:14:00,
2014-01-03 08:15:00,5.0,-2.9,29.09,South,180,7.6,7.6,69,0.00,,,0.00,0.00,VWS V14.01,2014-01-03 14:15:00,
2014-01-03 08:16:00,5.0,-2.9,29.09,South,180,7.6,7.6,69,0.00,,,0.00,0.00,VWS V14.01,2014-01-03 14:16:00,
2014-01-03 08:17:00,5.0,-2.9,29.09,SSE,158,6.3,7.6,69,0.00,,,0.00,0.00,VWS V14.01,2014-01-03 14:17:00,
2014-01-03 08:18:00,5.0,-2.9,29.03,SSE,158,6.3,7.6,69,0.00,,,0.00,0.00,VWS V14.01,2014-01-03 14:18:00,
2014-01-03 08:19:00,5.2,-2.8,29.03,SSE,158,6.3,6.3,69,0.00,,,0.00,0.00,VWS V14.01,2014-01-03 14:19:00,
2014-01-03 08:20:00,5.2,-2.8,29.03,SSE,158,6.3,6.3,69,0.00,,,0.00,0.00,VWS V14.01,2014-01-03 14:20:00,
2014-01-03 08:21:00,5.2,-2.8,29.03,SSE,158,6.3,6.3,69,0.00,,,0.00,0.00,VWS V14.01,2014-01-03 14:21:00,
2014-01-03 08:22:00,5.4,-2.6,29.03,SSE,158,6.3,6.3,69,0.00,,,0.00,0.00,VWS V14.01,2014-01-03 14:22:00,
2014-01-03 08:23:00,5.4,-2.6,29.03,SSE,158,6.3,6.3,69,0.00,,,0.00,0.00,VWS V14.01,2014-01-03 14:23:00,
2014-01-03 08:24:00,5.4,-2.6,29.03,SSE,158,6.3,6.3,69,0.00,,,0.00,0.00,VWS V14.01,2014-01-03 14:24:00,
2014-01-03 08:25:00,5.4,-2.6,29.03,SSE,158,6.3,6.3,69,0.00,,,0.00,0.00,VWS V14.01,2014-01-03 14:25:00,
2014-01-03 08:26:00,5.5,-2.4,29.03,SSE,158,15.9,15.9,69,0.00,,,0.00,0.00,VWS V14.01,2014-01-03 14:26:00,
2014-01-03 08:27:00,5.5,-2.4,29.03,SSW,202,13.0,13.0,69,0.00,,,0.00,0.00,VWS V14.01,2014-01-03 14:27:00,
2014-01-03 08:28:00,5.5,-2.4,29.03,SSW,202,13.0,13.0,69,0.00,,,0.00,0.00,VWS V14.01,2014-01-03 14:28:00,
2014-01-03 08:29:00,5.5,-2.4,29.03,South,180,13.0,13.0,69,0.00,,,0.00,0.00,VWS V14.01,2014-01-03 14:29:00,
2014-01-03 08:30:00,5.7,-2.2,29.03,South,180,13.0,13.0,69,0.00,,,0.00,0.00,VWS V14.01,2014-01-03 14:30:00,
2014-01-03 08:31:00,5.7,-2.2,29.03,South,180,13.0,13.0,69,0.00,,,0.00,0.00,VWS V14.01,2014-01-03 14:31:00,
2014-01-03 08:32:00,5.9,-2.1,29.03,South,180,13.0,13.0,69,0.00,,,0.00,0.00,VWS V14.01,2014-01-03 14:32:00,
2014-01-03 08:33:00,5.9,-2.1,29.03,South,180,13.0,13.0,69,0.00,,,0.00,0.00,VWS V14.01,2014-01-03 14:33:00,
2014-01-03 08:34:00,5.9,-2.1,29.03,SSE,158,17.0,17.0,69,0.00,,,0.00,0.00,VWS V14.01,2014-01-03 14:34:00,
2014-01-03 08:35:00,5.9,-2.1,29.03,SSW,202,13.2,17.0,69,0.00,,,0.00,0.00,VWS V14.01,2014-01-03 14:35:00,
2014-01-03 08:36:00,6.1,-1.9,29.03,SSW,202,13.2,13.2,69,0.00,,,0.00,0.00,VWS V14.01,2014-01-03 14:36:00,
2014-01-03 08:37:00,6.1,-1.9,29.03,SSW,202,10.7,10.7,69,0.00,,,0.00,0.00,VWS V14.01,2014-01-03 14:37:00,
2014-01-03 08:38:00,6.1,-1.9,29.03,SSW,202,10.7,10.7,69,0.00,,,0.00,0.00,VWS V14.01,2014-01-03 14:38:00,
2014-01-03 08:39:00,6.1,-1.9,29.03,SSW,202,10.7,10.7,69,0.00,,,0.00,0.00,VWS V14.01,2014-01-03 14:39:00,
2014-01-03 08:40:00,6.3,-1.7,29.03,SSW,202,10.7,10.7,69,0.00,,,0.00,0.00,VWS V14.01,2014-01-03 14:40:00,
2014-01-03 08:41:00,6.3,-1.7,29.03,SSW,202,10.7,10.7,69,0.00,,,0.00,0.00,VWS V14.01,2014-01-03 14:41:00,
2014-01-03 08:42:00,6.3,-1.7,29.03,SSW,202,10.7,10.7,69,0.00,,,0.00,0.00,VWS V14.01,2014-01-03 14:42:00,
2014-01-03 08:43:00,6.3,-1.7,29.03,SSW,202,10.7,10.7,69,0.00,,,0.00,0.00,VWS V14.01,2014-01-03 14:43:00,
2014-01-03 08:44:00,6.4,-1.5,29.03,SSW,202,10.7,10.7,69,0.00,,,0.00,0.00,VWS V14.01,2014-01-03 14:44:00,
2014-01-03 08:45:00,8.8,0.7,28.97,SSE,158,16.8,16.8,69,0.00,,,0.00,0.00,VWS V14.01,2014-01-03 14:45:00,
2014-01-03 08:46:00,6.4,-1.5,29.03,SSW,202,10.7,10.7,69,0.00,,,0.00,0.00,VWS V14.01,2014-01-03 14:46:00,
2014-01-03 08:47:00,6.6,-1.4,29.03,SSW,202,10.7,10.7,69,0.00,,,0.00,0.00,VWS V14.01,2014-01-03 14:47:00,
2014-01-03 08:48:00,6.6,-1.4,29.03,SSW,202,10.7,10.7,69,0.00,,,0.00,0.00,VWS V14.01,2014-01-03 14:48:00,
2014-01-03 08:49:00,6.6,-1.4,29.03,SE,135,8.5,10.7,69,0.00,,,0.00,0.00,VWS V14.01,2014-01-03 14:49:00,
2014-01-03 08:50:00,6.6,-1.4,29.03,SE,135,8.5,8.5,69,0.00,,,0.00,0.00,VWS V14.01,2014-01-03 14:50:00,
2014-01-03 08:51:00,6.6,-1.4,29.03,SE,135,8.5,8.5,69,0.00,,,0.00,0.00,VWS V14.01,2014-01-03 14:51:00,
2014-01-03 08:52:00,6.8,-1.2,29.03,SSE,158,11.0,11.0,69,0.00,,,0.00,0.00,VWS V14.01,2014-01-03 14:52:00,
2014-01-03 08:53:00,6.8,-1.2,29.03,SSW,202,10.7,11.0,69,0.00,,,0.00,0.00,VWS V14.01,2014-01-03 14:53:00,
2014-01-03 08:54:00,9.1,1.0,28.97,South,180,5.6,9.0,69,0.00,,,0.00,0.00,VWS V14.01,2014-01-03 14:54:00,
2014-01-03 08:55:00,7.0,-1.0,29.03,SSE,158,15.2,15.2,69,0.00,,,0.00,0.00,VWS V14.01,2014-01-03 14:55:00,
2014-01-03 08:56:00,7.0,-1.0,29.03,South,180,10.5,15.2,69,0.00,,,0.00,0.00,VWS V14.01,2014-01-03 14:56:00,
2014-01-03 08:57:00,7.0,-1.0,29.03,South,180,8.5,8.5,69,0.00,,,0.00,0.00,VWS V14.01,2014-01-03 14:57:00,
2014-01-03 08:58:00,7.2,-0.9,29.03,South,180,8.5,8.5,69,0.00,,,0.00,0.00,VWS V14.01,2014-01-03 14:58:00,
2014-01-03 08:59:00,7.2,-0.9,29.03,SSE,158,8.5,10.5,69,0.00,,,0.00,0.00,VWS V14.01,2014-01-03 14:59:00,
2014-01-03 09:00:00,7.2,-0.9,29.03,SSE,158,8.5,8.5,69,0.00,,,0.00,0.00,VWS V14.01,2014-01-03 15:00:00,
2014-01-03 09:01:00,7.2,-0.9,29.03,SSE,158,11.9,12.8,69,0.00,,,0.00,0.00,VWS V14.01,2014-01-03 15:01:00,
2014-01-03 09:02:00,7.3,-0.7,29.03,SSE,158,25.7,25.7,69,0.00,,,0.00,0.00,VWS V14.01,2014-01-03 15:02:00,
2014-01-03 09:03:00,7.3,-0.7,29.00,SSE,158,25.7,25.7,69,0.00,,,0.00,0.00,VWS V14.01,2014-01-03 15:03:00,
2014-01-03 09:04:00,7.5,-0.5,29.00,SSW,202,14.1,25.7,69,0.00,,,0.00,0.00,VWS V14.01,2014-01-03 15:04:00,
2014-01-03 09:05:00,7.5,-0.5,29.00,SSW,202,10.5,14.1,69,0.00,,,0.00,0.00,VWS V14.01,2014-01-03 15:05:00,
2014-01-03 09:06:00,7.5,-0.5,29.00,South,180,17.0,19.7,69,0.00,,,0.00,0.00,VWS V14.01,2014-01-03 15:06:00,
2014-01-03 09:07:00,7.5,-0.5,29.00,SSE,158,10.3,23.0,69,0.00,,,0.00,0.00,VWS V14.01,2014-01-03 15:07:00,
2014-01-03 09:08:00,7.5,-0.5,29.00,SSE,158,15.4,23.0,69,0.00,,,0.00,0.00,VWS V14.01,2014-01-03 15:08:00,
2014-01-03 09:09:00,7.5,-0.5,29.00,SSW,202,13.2,15.4,69,0.00,,,0.00,0.00,VWS V14.01,2014-01-03 15:09:00,
2014-01-03 09:10:00,7.5,-0.5,29.00,SSW,202,17.5,17.5,69,0.00,,,0.00,0.00,VWS V14.01,2014-01-03 15:10:00,
2014-01-03 09:11:00,7.7,-0.3,29.00,South,180,19.7,19.7,69,0.00,,,0.00,0.00,VWS V14.01,2014-01-03 15:11:00,
2014-01-03 09:12:00,7.7,-0.3,29.00,SSE,158,13.0,13.0,69,0.00,,,0.00,0.00,VWS V14.01,2014-01-03 15:12:00,
2014-01-03 09:13:00,7.7,-0.3,29.00,SSE,158,10.5,13.0,69,0.00,,,0.00,0.00,VWS V14.01,2014-01-03 15:13:00,
2014-01-03 09:14:00,7.9,-0.2,29.00,SSE,158,10.5,10.5,69,0.00,,,0.00,0.00,VWS V14.01,2014-01-03 15:14:00,
2014-01-03 09:15:00,7.9,-0.2,29.00,SSW,202,14.5,14.5,69,0.00,,,0.00,0.00,VWS V14.01,2014-01-03 15:15:00,
2014-01-03 09:16:00,7.9,-0.2,29.00,SSW,202,13.6,14.5,69,0.00,,,0.00,0.00,VWS V14.01,2014-01-03 15:16:00,
2014-01-03 09:17:00,8.1,0.0,29.00,SSW,202,13.6,13.6,69,0.00,,,0.00,0.00,VWS V14.01,2014-01-03 15:17:00,
2014-01-03 09:18:00,8.1,0.0,29.00,SSE,158,7.6,13.6,69,0.00,,,0.00,0.00,VWS V14.01,2014-01-03 15:18:00,
2014-01-03 09:19:00,8.1,0.0,29.00,SSE,158,7.6,7.6,69,0.00,,,0.00,0.00,VWS V14.01,2014-01-03 15:19:00,
2014-01-03 09:20:00,8.1,0.0,29.00,SSE,158,7.6,7.6,69,0.00,,,0.00,0.00,VWS V14.01,2014-01-03 15:20:00,
2014-01-03 09:21:00,8.1,0.0,29.00,SSE,158,7.6,7.6,69,0.00,,,0.00,0.00,VWS V14.01,2014-01-03 15:21:00,
2014-01-03 09:22:00,8.1,0.0,29.00,SSE,158,11.0,11.2,69,0.00,,,0.00,0.00,VWS V14.01,2014-01-03 15:22:00,
2014-01-03 09:23:00,8.1,0.0,29.00,SSE,158,11.0,11.2,69,0.00,,,0.00,0.00,VWS V14.01,2014-01-03 15:23:00,
2014-01-03 09:24:00,8.2,0.2,29.00,SSE,158,11.0,11.0,69,0.00,,,0.00,0.00,VWS V14.01,2014-01-03 15:24:00,
2014-01-03 09:25:00,8.2,0.2,29.00,SSE,158,13.2,15.4,69,0.00,,,0.00,0.00,VWS V14.01,2014-01-03 15:25:00,
2014-01-03 09:26:00,8.1,0.0,29.00,SSE,158,13.2,13.2,69,0.00,,,0.00,0.00,VWS V14.01,2014-01-03 15:26:00,
2014-01-03 09:27:00,8.1,0.0,29.00,SSE,158,13.2,13.2,69,0.00,,,0.00,0.00,VWS V14.01,2014-01-03 15:27:00,
2014-01-03 09:28:00,8.1,0.0,29.00,SSW,202,12.3,13.2,69,0.00,,,0.00,0.00,VWS V14.01,2014-01-03 15:28:00,
2014-01-03 09:29:00,8.1,0.0,29.00,SSE,158,9.8,12.3,69,0.00,,,0.00,0.00,VWS V14.01,2014-01-03 15:29:00,
2014-01-03 09:30:00,8.2,0.2,29.00,SSE,158,10.3,11.0,69,0.00,,,0.00,0.00,VWS V14.01,2014-01-03 15:30:00,
2014-01-03 09:31:00,10.6,2.4,28.94,SSE,158,10.1,10.1,69,0.00,,,0.00,0.00,VWS V14.01,2014-01-03 15:31:00,
2014-01-03 09:32:00,8.4,0.4,29.00,SSE,158,6.0,6.0,69,0.00,,,0.00,0.00,VWS V14.01,2014-01-03 15:32:00,
2014-01-03 09:33:00,8.4,0.4,28.97,SSE,158,8.5,8.5,69,0.00,,,0.00,0.00,VWS V14.01,2014-01-03 15:33:00,
2014-01-03 09:34:00,8.4,0.4,28.97,SSE,158,12.8,12.8,69,0.00,,,0.00,0.00,VWS V14.01,2014-01-03 15:34:00,
2014-01-03 09:35:00,8.4,0.4,28.97,South,180,8.5,12.8,69,0.00,,,0.00,0.00,VWS V14.01,2014-01-03 15:35:00,
2014-01-03 09:36:00,8.6,0.5,28.97,South,180,8.5,8.5,69,0.00,,,0.00,0.00,VWS V14.01,2014-01-03 15:36:00,
2014-01-03 09:37:00,8.6,0.5,28.97,SSE,158,13.0,13.0,69,0.00,,,0.00,0.00,VWS V14.01,2014-01-03 15:37:00,
2014-01-03 09:38:00,8.6,0.5,28.97,SSE,158,13.0,13.0,69,0.00,,,0.00,0.00,VWS V14.01,2014-01-03 15:38:00,
2014-01-03 09:39:00,8.6,0.5,28.97,SSE,158,5.6,13.0,69,0.00,,,0.00,0.00,VWS V14.01,2014-01-03 15:39:00,
2014-01-03 09:40:00,8.8,0.7,28.97,SSE,158,6.7,6.7,69,0.00,,,0.00,0.00,VWS V14.01,2014-01-03 15:40:00,
2014-01-03 09:41:00,8.8,0.7,28.97,SSE,158,8.5,13.0,69,0.00,,,0.00,0.00,VWS V14.01,2014-01-03 15:41:00,
2014-01-03 09:42:00,8.6,0.5,28.97,SSW,202,12.8,12.8,69,0.00,,,0.00,0.00,VWS V14.01,2014-01-03 15:42:00,
2014-01-03 09:43:00,8.6,0.5,28.97,SSW,202,12.8,12.8,69,0.00,,,0.00,0.00,VWS V14.01,2014-01-03 15:43:00,
2014-01-03 09:44:00,8.6,0.5,28.97,SSE,158,16.8,16.8,69,0.00,,,0.00,0.00,VWS V14.01,2014-01-03 15:44:00,
2014-01-03 09:45:00,8.8,0.7,28.97,SSE,158,16.8,16.8,69,0.00,,,0.00,0.00,VWS V14.01,2014-01-03 15:45:00,
2014-01-03 09:46:00,8.8,0.7,28.97,SSE,158,16.1,16.8,69,0.00,,,0.00,0.00,VWS V14.01,2014-01-03 15:46:00,
2014-01-03 09:47:00,8.8,0.7,28.97,SSE,158,15.9,15.9,69,0.00,,,0.00,0.00,VWS V14.01,2014-01-03 15:47:00,
2014-01-03 09:48:00,8.8,0.7,28.97,South,180,8.1,15.9,69,0.00,,,0.00,0.00,VWS V14.01,2014-01-03 15:48:00,
2014-01-03 09:49:00,8.8,0.7,28.97,South,180,12.1,19.2,69,0.00,,,0.00,0.00,VWS V14.01,2014-01-03 15:49:00,
2014-01-03 09:50:00,8.8,0.7,28.97,SSE,158,9.2,12.1,69,0.00,,,0.00,0.00,VWS V14.01,2014-01-03 15:50:00,
2014-01-03 09:51:00,8.8,0.7,28.97,SSW,202,17.9,17.9,69,0.00,,,0.00,0.00,VWS V14.01,2014-01-03 15:51:00,
2014-01-03 09:52:00,8.8,0.7,28.97,South,180,9.0,11.0,69,0.00,,,0.00,0.00,VWS V14.01,2014-01-03 15:52:00,
2014-01-03 09:53:00,9.0,0.9,28.97,South,180,9.0,11.0,69,0.00,,,0.00,0.00,VWS V14.01,2014-01-03 15:53:00,
2014-01-03 09:54:00,9.1,1.0,28.97,South,180,5.6,9.0,69,0.00,,,0.00,0.00,VWS V14.01,2014-01-03 15:54:00,
2014-01-03 09:55:00,9.1,1.0,28.97,SSW,202,12.3,14.1,69,0.00,,,0.00,0.00,VWS V14.01,2014-01-03 15:55:00,
2014-01-03 09:56:00,9.3,1.2,28.97,SSW,202,10.5,12.3,69,0.00,,,0.00,0.00,VWS V14.01,2014-01-03 15:56:00,
2014-01-03 09:57:00,9.3,1.2,28.97,SSW,202,5.6,5.6,69,0.00,,,0.00,0.00,VWS V14.01,2014-01-03 15:57:00,
2014-01-03 09:58:00,9.3,1.2,28.97,South,180,6.5,12.1,69,0.00,,,0.00,0.00,VWS V14.01,2014-01-03 15:58:00,
2014-01-03 09:59:00,9.3,1.2,28.97,SSW,202,9.8,9.8,69,0.00,,,0.00,0.00,VWS V14.01,2014-01-03 15:59:00,
2014-01-03 10:00:00,9.5,1.4,28.97,SSW,202,9.8,9.8,69,0.00,,,0.00,0.00,VWS V14.01,2014-01-03 16:00:00,
2014-01-03 10:01:00,9.5,1.4,28.97,SSE,158,9.4,9.8,69,0.00,,,0.00,0.00,VWS V14.01,2014-01-03 16:01:00,
2014-01-03 10:02:00,9.9,1.7,28.97,SSW,202,6.3,6.3,69,0.00,,,0.00,0.00,VWS V14.01,2014-01-03 16:02:00,
2014-01-03 10:03:00,9.9,1.7,28.97,SSW,202,6.3,6.3,69,0.00,,,0.00,0.00,VWS V14.01,2014-01-03 16:03:00,
2014-01-03 10:04:00,9.7,1.6,28.97,SSW,202,6.3,6.3,69,0.00,,,0.00,0.00,VWS V14.01,2014-01-03 16:04:00,
2014-01-03 10:05:00,9.7,1.6,28.97,SSW,202,6.3,6.3,69,0.00,,,0.00,0.00,VWS V14.01,2014-01-03 16:05:00,
2014-01-03 10:06:00,9.9,1.7,28.97,SSW,202,12.1,12.1,69,0.00,,,0.00,0.00,VWS V14.01,2014-01-03 16:06:00,
2014-01-03 10:07:00,9.9,1.7,28.97,SSE,158,11.9,12.1,69,0.00,,,0.00,0.00,VWS V14.01,2014-01-03 16:07:00,
2014-01-03 10:08:00,9.9,1.7,28.97,SSW,202,7.8,11.9,69,0.00,,,0.00,0.00,VWS V14.01,2014-01-03 16:08:00,
2014-01-03 10:09:00,10.0,1.9,28.97,SSE,158,8.7,11.0,69,0.00,,,0.00,0.00,VWS V14.01,2014-01-03 16:09:00,
2014-01-03 10:10:00,10.0,1.9,28.97,SSE,158,8.7,8.7,69,0.00,,,0.00,0.00,VWS V14.01,2014-01-03 16:10:00,
2014-01-03 10:11:00,10.0,1.9,28.97,SSE,158,14.3,14.3,69,0.00,,,0.00,0.00,VWS V14.01,2014-01-03 16:11:00,
2014-01-03 10:12:00,10.0,1.9,28.97,SSW,202,13.6,13.6,69,0.00,,,0.00,0.00,VWS V14.01,2014-01-03 16:12:00,
2014-01-03 10:13:00,10.0,1.9,28.97,SSW,202,12.3,13.6,69,0.00,,,0.00,0.00,VWS V14.01,2014-01-03 16:13:00,
2014-01-03 10:14:00,10.0,1.9,28.97,SSE,158,11.0,12.3,69,0.00,,,0.00,0.00,VWS V14.01,2014-01-03 16:14:00,
2014-01-03 10:15:00,10.0,1.9,28.97,South,180,10.7,11.0,69,0.00,,,0.00,0.00,VWS V14.01,2014-01-03 16:15:00,
2014-01-03 10:16:00,10.0,1.9,28.97,SSW,202,7.8,10.7,69,0.00,,,0.00,0.00,VWS V14.01,2014-01-03 16:16:00,
2014-01-03 10:17:00,10.0,1.9,28.97,South,180,9.8,12.1,69,0.00,,,0.00,0.00,VWS V14.01,2014-01-03 16:17:00,
2014-01-03 10:18:00,10.0,1.9,28.94,SSE,158,11.0,12.1,69,0.00,,,0.00,0.00,VWS V14.01,2014-01-03 16:18:00,
2014-01-03 10:19:00,10.0,1.9,28.94,SSE,158,10.3,11.0,69,0.00,,,0.00,0.00,VWS V14.01,2014-01-03 16:19:00,
2014-01-03 10:20:00,10.0,1.9,28.94,SSW,202,12.8,12.8,69,0.00,,,0.00,0.00,VWS V14.01,2014-01-03 16:20:00,
2014-01-03 10:21:00,10.2,2.1,28.94,SSW,202,5.8,12.8,69,0.00,,,0.00,0.00,VWS V14.01,2014-01-03 16:21:00,
2014-01-03 10:22:00,10.2,2.1,28.94,SSW,202,5.8,5.8,69,0.00,,,0.00,0.00,VWS V14.01,2014-01-03 16:22:00,
2014-01-03 10:23:00,10.2,2.1,28.94,SSW,202,5.8,5.8,69,0.00,,,0.00,0.00,VWS V14.01,2014-01-03 16:23:00,
2014-01-03 10:24:00,10.2,2.1,28.94,SE,135,7.6,15.2,69,0.00,,,0.00,0.00,VWS V14.01,2014-01-03 16:24:00,
2014-01-03 10:25:00,10.4,2.3,28.94,SW,225,10.5,10.5,69,0.00,,,0.00,0.00,VWS V14.01,2014-01-03 16:25:00,
2014-01-03 10:26:00,10.4,2.3,28.94,South,180,11.0,17.0,69,0.00,,,0.00,0.00,VWS V14.01,2014-01-03 16:26:00,
2014-01-03 10:27:00,10.6,2.4,28.94,SSE,158,17.7,17.7,69,0.00,,,0.00,0.00,VWS V14.01,2014-01-03 16:27:00,
2014-01-03 10:28:00,10.4,2.3,28.94,SSE,158,8.1,17.7,69,0.00,,,0.00,0.00,VWS V14.01,2014-01-03 16:28:00,
2014-01-03 10:29:00,10.4,2.3,28.94,SSE,158,7.2,22.4,69,0.00,,,0.00,0.00,VWS V14.01,2014-01-03 16:29:00,
2014-01-03 10:30:00,10.6,2.4,28.94,SSE,158,10.1,10.1,69,0.00,,,0.00,0.00,VWS V14.01,2014-01-03 16:30:00,
2014-01-03 10:31:00,10.6,2.4,28.94,SSE,158,10.1,10.1,69,0.00,,,0.00,0.00,VWS V14.01,2014-01-03 16:31:00,
2014-01-03 10:32:00,10.6,2.4,28.94,ESE,112,12.3,12.3,69,0.00,,,0.00,0.00,VWS V14.01,2014-01-03 16:32:00,
2014-01-03 10:33:00,10.6,2.4,28.91,SSE,158,7.4,22.6,69,0.00,,,0.00,0.00,VWS V14.01,2014-01-03 16:33:00,
2014-01-03 10:34:00,10.8,2.6,28.91,SSW,202,7.6,9.6,69,0.00,,,0.00,0.00,VWS V14.01,2014-01-03 16:34:00,
2014-01-03 10:35:00,10.8,2.6,28.91,SSW,202,6.9,10.1,69,0.00,,,0.00,0.00,VWS V14.01,2014-01-03 16:35:00,
2014-01-03 10:36:00,10.8,2.6,28.91,SSE,158,9.8,9.8,69,0.00,,,0.00,0.00,VWS V14.01,2014-01-03 16:36:00,
2014-01-03 10:37:00,10.8,2.6,28.91,SW,225,5.4,9.8,69,0.00,,,0.00,0.00,VWS V14.01,2014-01-03 16:37:00,
2014-01-03 10:38:00,10.8,2.6,28.91,SW,225,5.4,5.4,69,0.00,,,0.00,0.00,VWS V14.01,2014-01-03 16:38:00,
2014-01-03 10:39:00,10.8,2.6,28.91,SSE,158,9.6,9.6,69,0.00,,,0.00,0.00,VWS V14.01,2014-01-03 16:39:00,
2014-01-03 10:40:00,11.1,3.0,28.91,South,180,6.5,17.5,69,0.00,,,0.00,0.00,VWS V14.01,2014-01-03 16:40:00,
2014-01-03 10:41:00,11.3,3.1,28.91,SSE,158,12.8,13.4,69,0.00,,,0.00,0.00,VWS V14.01,2014-01-03 16:41:00,
2014-01-03 10:42:00,11.3,3.1,28.91,SSE,158,12.1,12.1,69,0.00,,,0.00,0.00,VWS V14.01,2014-01-03 16:42:00,
2014-01-03 10:43:00,11.3,3.1,28.91,SSW,202,13.2,13.2,69,0.00,,,0.00,0.00,VWS V14.01,2014-01-03 16:43:00,
2014-01-03 10:44:00,11.5,3.3,28.91,SSW,202,13.2,13.2,69,0.00,,,0.00,0.00,VWS V14.01,2014-01-03 16:44:00,
2014-01-03 10:45:00,11.5,3.3,28.91,South,180,6.3,13.2,69,0.00,,,0.00,0.00,VWS V14.01,2014-01-03 16:45:00,
2014-01-03 10:46:00,11.7,3.5,28.91,SW,225,5.6,10.1,69,0.00,,,0.00,0.00,VWS V14.01,2014-01-03 16:46:00,
2014-01-03 10:47:00,11.8,3.6,28.91,South,180,6.0,6.3,69,0.00,,,0.00,0.00,VWS V14.01,2014-01-03 16:47:00,
2014-01-03 10:48:00,12.0,3.8,28.88,SE,135,6.0,7.8,69,0.00,,,0.00,0.00,VWS V14.01,2014-01-03 16:48:00,
2014-01-03 10:49:00,12.4,4.2,28.88,SSE,158,7.8,7.8,69,0.00,,,0.00,0.00,VWS V14.01,2014-01-03 16:49:00,
2014-01-03 10:50:00,16.0,4.9,28.85,SSE,158,11.0,11.0,61,0.00,,,0.00,0.00,VWS V14.01,2014-01-03 16:50:00,
2014-01-03 10:51:00,12.4,4.2,28.88,SSW,202,7.6,7.8,69,0.00,,,0.00,0.00,VWS V14.01,2014-01-03 16:51:00,
2014-01-03 10:52:00,12.7,4.5,28.88,SSW,202,12.3,12.3,69,0.00,,,0.00,0.00,VWS V14.01,2014-01-03 16:52:00,
2014-01-03 10:53:00,12.9,4.7,28.88,SSE,158,7.8,12.3,69,0.00,,,0.00,0.00,VWS V14.01,2014-01-03 16:53:00,
2014-01-03 10:54:00,12.9,4.7,28.88,ESE,112,11.0,11.0,69,0.00,,,0.00,0.00,VWS V14.01,2014-01-03 16:54:00,
2014-01-03 10:55:00,16.0,4.9,28.85,SSE,158,10.3,10.7,61,0.00,,,0.00,0.00,VWS V14.01,2014-01-03 16:55:00,
2014-01-03 10:56:00,13.3,5.0,28.88,SE,135,4.0,13.4,69,0.00,,,0.00,0.00,VWS V14.01,2014-01-03 16:56:00,
2014-01-03 10:57:00,12.9,4.7,28.88,South,180,16.1,19.9,69,0.00,,,0.00,0.00,VWS V14.01,2014-01-03 16:57:00,
2014-01-03 10:58:00,16.7,5.6,28.85,SSE,158,10.3,10.3,61,0.00,,,0.00,0.00,VWS V14.01,2014-01-03 16:58:00,
2014-01-03 10:59:00,12.9,4.7,28.88,WSW,248,10.3,16.1,69,0.00,,,0.00,0.00,VWS V14.01,2014-01-03 16:59:00,
2014-01-03 11:00:00,12.9,4.7,28.88,SSE,158,12.1,12.1,69,0.00,,,0.00,0.00,VWS V14.01,2014-01-03 17:00:00,
2014-01-03 11:01:00,12.9,4.7,28.88,SSW,202,11.4,12.1,69,0.00,,,0.00,0.00,VWS V14.01,2014-01-03 17:01:00,
2014-01-03 11:02:00,12.9,4.7,28.88,SSW,202,5.6,7.6,69,0.00,,,0.00,0.00,VWS V14.01,2014-01-03 17:02:00,
2014-01-03 11:03:00,13.1,4.9,28.91,SSW,202,19.7,19.7,69,0.00,,,0.00,0.00,VWS V14.01,2014-01-03 17:03:00,
2014-01-03 11:04:00,12.7,4.5,28.91,SSE,158,17.0,19.7,69,0.00,,,0.00,0.00,VWS V14.01,2014-01-03 17:04:00,
2014-01-03 11:05:00,12.7,4.5,28.91,SSE,158,15.2,17.0,69,0.00,,,0.00,0.00,VWS V14.01,2014-01-03 17:05:00,
2014-01-03 11:06:00,12.7,4.5,28.91,SSE,158,15.2,15.2,69,0.00,,,0.00,0.00,VWS V14.01,2014-01-03 17:06:00,
2014-01-03 11:07:00,12.7,4.5,28.91,SSW,202,11.0,11.0,69,0.00,,,0.00,0.00,VWS V14.01,2014-01-03 17:07:00,
2014-01-03 11:08:00,17.2,6.5,28.85,SSW,202,10.7,10.7,62,0.00,,,0.00,0.00,VWS V14.01,2014-01-03 17:08:00,
2014-01-03 11:09:00,12.7,4.5,28.91,SSE,158,14.8,14.8,69,0.00,,,0.00,0.00,VWS V14.01,2014-01-03 17:09:00,
2014-01-03 11:10:00,12.6,4.3,28.91,South,180,11.4,19.9,69,0.00,,,0.00,0.00,VWS V14.01,2014-01-03 17:10:00,
2014-01-03 11:11:00,12.6,4.3,28.91,SSE,158,4.9,11.4,69,0.00,,,0.00,0.00,VWS V14.01,2014-01-03 17:11:00,
2014-01-03 11:12:00,12.7,4.5,28.91,SE,135,8.1,15.2,69,0.00,,,0.00,0.00,VWS V14.01,2014-01-03 17:12:00,
2014-01-03 11:13:00,12.9,4.7,28.91,South,180,9.6,15.2,69,0.00,,,0.00,0.00,VWS V14.01,2014-01-03 17:13:00,
2014-01-03 11:14:00,13.1,4.9,28.91,SSE,158,9.8,9.8,69,0.00,,,0.00,0.00,VWS V14.01,2014-01-03 17:14:00,
2014-01-03 11:15:00,13.1,4.9,28.91,SSE,158,5.6,9.8,69,0.00,,,0.00,0.00,VWS V14.01,2014-01-03 17:15:00,
2014-01-03 11:16:00,13.1,4.9,28.91,SSE,158,7.4,13.0,69,0.00,,,0.00,0.00,VWS V14.01,2014-01-03 17:16:00,
2014-01-03 11:17:00,13.1,4.8,28.91,South,180,10.7,15.4,69,0.00,,,0.00,0.00,VWS V14.01,2014-01-03 17:17:00,
2014-01-03 11:18:00,12.9,4.7,28.88,South,180,7.6,10.7,69,0.00,,,0.00,0.00,VWS V14.01,2014-01-03 17:18:00,
2014-01-03 11:19:00,13.1,4.9,28.88,SE,135,5.6,9.6,69,0.00,,,0.00,0.00,VWS V14.01,2014-01-03 17:19:00,
2014-01-03 11:20:00,13.3,5.0,28.88,SSE,158,4.3,5.6,69,0.00,,,0.00,0.00,VWS V14.01,2014-01-03 17:20:00,
2014-01-03 11:21:00,13.5,5.2,28.88,SSW,202,7.8,9.6,69,0.00,,,0.00,0.00,VWS V14.01,2014-01-03 17:21:00,
2014-01-03 11:22:00,13.3,5.0,28.88,SSW,202,12.5,12.5,69,0.00,,,0.00,0.00,VWS V14.01,2014-01-03 17:22:00,
2014-01-03 11:23:00,13.3,5.0,28.88,SSE,158,11.9,12.5,69,0.00,,,0.00,0.00,VWS V14.01,2014-01-03 17:23:00,
2014-01-03 11:24:00,13.3,5.0,28.88,SSE,158,8.7,11.9,69,0.00,,,0.00,0.00,VWS V14.01,2014-01-03 17:24:00,
2014-01-03 11:25:00,13.3,5.0,28.88,SSE,158,9.8,9.8,69,0.00,,,0.00,0.00,VWS V14.01,2014-01-03 17:25:00,
2014-01-03 11:26:00,13.8,5.6,28.88,SE,135,13.2,16.8,69,0.00,,,0.00,0.00,VWS V14.01,2014-01-03 17:26:00,
2014-01-03 11:27:00,13.8,5.6,28.88,South,180,12.8,12.8,69,0.00,,,0.00,0.00,VWS V14.01,2014-01-03 17:27:00,
2014-01-03 11:28:00,14.2,2.5,28.88,South,180,6.3,12.8,59,0.00,,,0.00,0.00,VWS V14.01,2014-01-03 17:28:00,
2014-01-03 11:29:00,14.4,2.7,28.88,SSE,158,12.5,12.5,59,0.00,,,0.00,0.00,VWS V14.01,2014-01-03 17:29:00,
2014-01-03 11:30:00,14.4,2.7,28.88,SSW,202,8.1,12.5,59,0.00,,,0.00,0.00,VWS V14.01,2014-01-03 17:30:00,
2014-01-03 11:31:00,14.4,2.7,28.88,SSW,202,10.3,12.1,59,0.00,,,0.00,0.00,VWS V14.01,2014-01-03 17:31:00,
2014-01-03 11:32:00,14.4,2.7,28.88,SE,135,9.8,10.3,59,0.00,,,0.00,0.00,VWS V14.01,2014-01-03 17:32:00,
2014-01-03 11:33:00,14.4,2.7,28.88,SSE,158,6.5,10.1,59,0.00,,,0.00,0.00,VWS V14.01,2014-01-03 17:33:00,
2014-01-03 11:34:00,14.5,2.8,28.88,SSE,158,6.5,6.5,59,0.00,,,0.00,0.00,VWS V14.01,2014-01-03 17:34:00,
2014-01-03 11:35:00,14.9,3.2,28.88,SSW,202,6.0,10.7,59,0.00,,,0.00,0.00,VWS V14.01,2014-01-03 17:35:00,
2014-01-03 11:36:00,14.9,3.5,28.88,SSE,158,5.4,7.6,60,0.00,,,0.00,0.00,VWS V14.01,2014-01-03 17:36:00,
2014-01-03 11:37:00,15.1,3.7,28.88,SSW,202,11.4,11.4,60,0.00,,,0.00,0.00,VWS V14.01,2014-01-03 17:37:00,
2014-01-03 11:38:00,15.1,3.7,28.88,South,180,9.4,9.4,60,0.00,,,0.00,0.00,VWS V14.01,2014-01-03 17:38:00,
2014-01-03 11:39:00,18.3,8.2,28.76,SSW,202,12.8,12.8,64,0.00,,,0.00,0.00,VWS V14.01,2014-01-03 17:39:00,
2014-01-03 11:40:00,15.3,3.9,28.88,SSW,202,10.1,10.1,60,0.00,,,0.00,0.00,VWS V14.01,2014-01-03 17:40:00,
2014-01-03 11:41:00,15.1,3.7,28.88,SE,135,10.7,14.8,60,0.00,,,0.00,0.00,VWS V14.01,2014-01-03 17:41:00,
2014-01-03 11:42:00,15.1,3.7,28.88,SSE,158,3.6,6.5,60,0.00,,,0.00,0.00,VWS V14.01,2014-01-03 17:42:00,
2014-01-03 11:43:00,15.1,3.7,28.88,South,180,9.4,9.8,60,0.00,,,0.00,0.00,VWS V14.01,2014-01-03 17:43:00,
2014-01-03 11:44:00,15.3,3.9,28.88,SSE,158,5.6,11.9,60,0.00,,,0.00,0.00,VWS V14.01,2014-01-03 17:44:00,
2014-01-03 11:45:00,15.3,3.9,28.88,SSE,158,15.4,15.4,60,0.00,,,0.00,0.00,VWS V14.01,2014-01-03 17:45:00,
2014-01-03 11:46:00,15.3,3.9,28.88,SSE,158,7.6,15.4,60,0.00,,,0.00,0.00,VWS V14.01,2014-01-03 17:46:00,
2014-01-03 11:47:00,15.4,4.1,28.88,SSW,202,7.6,7.6,60,0.00,,,0.00,0.00,VWS V14.01,2014-01-03 17:47:00,
2014-01-03 11:48:00,15.4,4.1,28.85,SE,135,10.7,12.5,60,0.00,,,0.00,0.00,VWS V14.01,2014-01-03 17:48:00,
2014-01-03 11:49:00,15.6,4.6,28.85,SSW,202,10.5,12.1,61,0.00,,,0.00,0.00,VWS V14.01,2014-01-03 17:49:00,
2014-01-03 11:50:00,16.0,4.9,28.85,SSE,158,11.0,11.0,61,0.00,,,0.00,0.00,VWS V14.01,2014-01-03 17:50:00,
2014-01-03 11:51:00,16.0,4.9,28.85,South,180,10.3,11.0,61,0.00,,,0.00,0.00,VWS V14.01,2014-01-03 17:51:00,
2014-01-03 11:52:00,16.0,4.9,28.85,SSE,158,14.8,14.8,61,0.00,,,0.00,0.00,VWS V14.01,2014-01-03 17:52:00,
2014-01-03 11:53:00,16.0,4.9,28.85,SSE,158,9.4,14.3,61,0.00,,,0.00,0.00,VWS V14.01,2014-01-03 17:53:00,
2014-01-03 11:54:00,16.0,4.9,28.85,SSE,158,10.3,13.2,61,0.00,,,0.00,0.00,VWS V14.01,2014-01-03 17:54:00,
2014-01-03 11:55:00,16.0,4.9,28.85,SSE,158,10.3,10.7,61,0.00,,,0.00,0.00,VWS V14.01,2014-01-03 17:55:00,
2014-01-03 11:56:00,16.5,5.4,28.85,ENE,68,7.2,10.3,61,0.00,,,0.00,0.00,VWS V14.01,2014-01-03 17:56:00,
2014-01-03 11:57:00,16.7,5.6,28.85,ENE,68,7.2,10.3,61,0.00,,,0.00,0.00,VWS V14.01,2014-01-03 17:57:00,
2014-01-03 11:58:00,16.7,5.6,28.85,SSE,158,10.3,10.3,61,0.00,,,0.00,0.00,VWS V14.01,2014-01-03 17:58:00,
2014-01-03 11:59:00,16.7,5.6,28.85,South,180,9.4,10.5,61,0.00,,,0.00,0.00,VWS V14.01,2014-01-03 17:59:00,
2014-01-03 12:00:00,16.7,6.0,28.85,SSE,158,8.7,9.4,62,0.00,,,0.00,0.00,VWS V14.01,2014-01-03 18:00:00,
2014-01-03 12:01:00,16.7,6.0,28.85,SSE,158,11.2,11.2,62,0.00,,,0.00,0.00,VWS V14.01,2014-01-03 18:01:00,
2014-01-03 12:02:00,16.7,6.0,28.85,SSE,158,11.2,11.2,62,0.00,,,0.00,0.00,VWS V14.01,2014-01-03 18:02:00,
2014-01-03 12:03:00,16.7,6.0,28.85,SSW,202,10.1,11.2,62,0.00,,,0.00,0.00,VWS V14.01,2014-01-03 18:03:00,
2014-01-03 12:04:00,16.9,6.1,28.85,SSE,158,1.6,10.7,62,0.00,,,0.00,0.00,VWS V14.01,2014-01-03 18:04:00,
2014-01-03 12:05:00,17.2,6.5,28.85,South,180,4.0,10.1,62,0.00,,,0.00,0.00,VWS V14.01,2014-01-03 18:05:00,
2014-01-03 12:06:00,17.2,6.5,28.85,SSW,202,5.6,5.6,62,0.00,,,0.00,0.00,VWS V14.01,2014-01-03 18:06:00,
2014-01-03 12:07:00,17.2,6.5,28.85,SSW,202,10.7,10.7,62,0.00,,,0.00,0.00,VWS V14.01,2014-01-03 18:07:00,
2014-01-03 12:08:00,17.2,6.5,28.85,SSW,202,10.7,10.7,62,0.00,,,0.00,0.00,VWS V14.01,2014-01-03 18:08:00,
2014-01-03 12:09:00,17.4,6.6,28.85,SSE,158,5.4,13.0,62,0.00,,,0.00,0.00,VWS V14.01,2014-01-03 18:09:00,
2014-01-03 12:10:00,17.8,7.0,28.85,SSW,202,9.4,9.4,62,0.00,,,0.00,0.00,VWS V14.01,2014-01-03 18:10:00,
2014-01-03 12:11:00,17.8,7.0,28.85,SSE,158,11.4,11.4,62,0.00,,,0.00,0.00,VWS V14.01,2014-01-03 18:11:00,
2014-01-03 12:12:00,17.8,7.0,28.85,South,180,5.8,11.4,62,0.00,,,0.00,0.00,VWS V14.01,2014-01-03 18:12:00,
2014-01-03 12:13:00,17.8,7.0,28.85,SSE,158,15.2,15.2,62,0.00,,,0.00,0.00,VWS V14.01,2014-01-03 18:13:00,
2014-01-03 12:14:00,18.1,7.3,28.85,SSE,158,6.3,15.2,62,0.00,,,0.00,0.00,VWS V14.01,2014-01-03 18:14:00,
2014-01-03 12:15:00,18.3,7.5,28.85,SE,135,4.9,6.3,62,0.00,,,0.00,0.00,VWS V14.01,2014-01-03 18:15:00,
2014-01-03 12:16:00,18.3,7.5,28.85,SSE,158,17.0,17.0,62,0.00,,,0.00,0.00,VWS V14.01,2014-01-03 18:16:00,
2014-01-03 12:17:00,18.3,7.5,28.85,SSE,158,17.0,17.0,62,0.00,,,0.00,0.00,VWS V14.01,2014-01-03 18:17:00,
2014-01-03 12:18:00,18.3,7.5,28.82,SSE,158,7.8,17.0,62,0.00,,,0.00,0.00,VWS V14.01,2014-01-03 18:18:00,
2014-01-03 12:19:00,18.3,7.5,28.82,South,180,13.0,13.0,62,0.00,,,0.00,0.00,VWS V14.01,2014-01-03 18:19:00,
2014-01-03 12:20:00,18.1,7.3,28.82,South,180,10.3,13.0,62,0.00,,,0.00,0.00,VWS V14.01,2014-01-03 18:20:00,
2014-01-03 12:21:00,18.3,7.8,28.82,SSE,158,10.1,12.5,63,0.00,,,0.00,0.00,VWS V14.01,2014-01-03 18:21:00,
2014-01-03 12:22:00,18.3,7.8,28.82,SSE,158,10.1,12.5,63,0.00,,,0.00,0.00,VWS V14.01,2014-01-03 18:22:00,
2014-01-03 12:23:00,18.5,8.0,28.82,SSE,158,5.6,10.1,63,0.00,,,0.00,0.00,VWS V14.01,2014-01-03 18:23:00,
2014-01-03 12:24:00,18.7,8.2,28.82,SSE,158,3.6,7.6,63,0.00,,,0.00,0.00,VWS V14.01,2014-01-03 18:24:00,
2014-01-03 12:25:00,18.7,8.2,28.82,SSE,158,8.1,11.0,63,0.00,,,0.00,0.00,VWS V14.01,2014-01-03 18:25:00,
2014-01-03 12:26:00,18.5,8.0,28.82,South,180,10.7,10.7,63,0.00,,,0.00,0.00,VWS V14.01,2014-01-03 18:26:00,
2014-01-03 12:27:00,18.5,8.0,28.82,South,180,10.7,10.7,63,0.00,,,0.00,0.00,VWS V14.01,2014-01-03 18:27:00,
2014-01-03 12:28:00,18.3,7.8,28.82,SSE,158,11.4,12.3,63,0.00,,,0.00,0.00,VWS V14.01,2014-01-03 18:28:00,
2014-01-03 12:29:00,18.3,7.8,28.82,South,180,8.7,12.3,63,0.00,,,0.00,0.00,VWS V14.01,2014-01-03 18:29:00,
2014-01-03 12:30:00,18.3,7.8,28.82,South,180,8.1,8.7,63,0.00,,,0.00,0.00,VWS V14.01,2014-01-03 18:30:00,
2014-01-03 12:31:00,18.3,8.2,28.82,South,180,9.6,9.6,64,0.00,,,0.00,0.00,VWS V14.01,2014-01-03 18:31:00,
2014-01-03 12:32:00,18.3,8.2,28.82,South,180,9.6,9.6,64,0.00,,,0.00,0.00,VWS V14.01,2014-01-03 18:32:00,
2014-01-03 12:33:00,18.3,8.2,28.76,SSW,202,10.3,13.2,64,0.00,,,0.00,0.00,VWS V14.01,2014-01-03 18:33:00,
2014-01-03 12:34:00,18.3,8.2,28.76,South,180,6.5,15.2,64,0.00,,,0.00,0.00,VWS V14.01,2014-01-03 18:34:00,
2014-01-03 12:35:00,18.3,8.2,28.76,SSW,202,5.4,12.3,64,0.00,,,0.00,0.00,VWS V14.01,2014-01-03 18:35:00,
2014-01-03 12:36:00,18.3,8.2,28.76,SSW,202,6.0,6.0,64,0.00,,,0.00,0.00,VWS V14.01,2014-01-03 18:36:00,
2014-01-03 12:37:00,18.3,8.2,28.76,SSW,202,6.0,6.0,64,0.00,,,0.00,0.00,VWS V14.01,2014-01-03 18:37:00,
2014-01-03 12:38:00,18.3,8.2,28.76,SSW,202,12.8,13.0,64,0.00,,,0.00,0.00,VWS V14.01,2014-01-03 18:38:00,
2014-01-03 12:39:00,18.3,8.2,28.76,SSW,202,12.8,12.8,64,0.00,,,0.00,0.00,VWS V14.01,2014-01-03 18:39:00,
2014-01-03 12:40:00,18.3,8.2,28.76,SW,225,9.6,12.8,64,0.00,,,0.00,0.00,VWS V14.01,2014-01-03 18:40:00,
2014-01-03 12:41:00,18.3,8.2,28.76,SSW,202,8.1,8.1,64,0.00,,,0.00,0.00,VWS V14.01,2014-01-03 18:41:00,
2014-01-03 12:42:00,18.3,8.2,28.76,South,180,8.5,8.5,64,0.00,,,0.00,0.00,VWS V14.01,2014-01-03 18:42:00,
2014-01-03 12:43:00,18.3,8.2,28.76,South,180,13.9,13.9,64,0.00,,,0.00,0.00,VWS V14.01,2014-01-03 18:43:00,
2014-01-03 12:44:00,18.3,8.2,28.76,SSE,158,8.5,13.9,64,0.00,,,0.00,0.00,VWS V14.01,2014-01-03 18:44:00,
2014-01-03 12:45:00,18.3,8.2,28.76,SSW,202,7.4,8.5,64,0.00,,,0.00,0.00,VWS V14.01,2014-01-03 18:45:00,
2014-01-03 12:46:00,18.5,8.4,28.76,SSW,202,5.6,10.3,64,0.00,,,0.00,0.00,VWS V14.01,2014-01-03 18:46:00,
2014-01-03 12:47:00,18.5,8.4,28.76,SSW,202,5.6,10.3,64,0.00,,,0.00,0.00,VWS V14.01,2014-01-03 18:47:00,
2014-01-03 12:48:00,18.7,8.5,28.79,SSW,202,6.0,6.9,64,0.00,,,0.00,0.00,VWS V14.01,2014-01-03 18:48:00,
2014-01-03 12:49:00,18.7,8.5,28.79,SSW,202,10.1,10.1,64,0.00,,,0.00,0.00,VWS V14.01,2014-01-03 18:49:00,
2014-01-03 12:50:00,18.9,8.7,28.79,SSE,158,7.2,10.1,64,0.00,,,0.00,0.00,VWS V14.01,2014-01-03 18:50:00,
2014-01-03 12:51:00,19.2,9.1,28.79,SSE,158,5.4,6.5,64,0.00,,,0.00,0.00,VWS V14.01,2014-01-03 18:51:00,
2014-01-03 12:52:00,19.2,9.1,28.79,SSE,158,5.4,6.5,64,0.00,,,0.00,0.00,VWS V14.01,2014-01-03 18:52:00,
2014-01-03 12:53:00,19.0,8.9,28.79,SSE,158,5.4,5.4,64,0.00,,,0.00,0.00,VWS V14.01,2014-01-03 18:53:00,
2014-01-03 12:54:00,19.0,8.9,28.79,South,180,6.3,9.8,64,0.00,,,0.00,0.00,VWS V14.01,2014-01-03 18:54:00,
2014-01-03 12:55:00,19.0,8.9,28.79,SSE,158,6.0,8.7,64,0.00,,,0.00,0.00,VWS V14.01,2014-01-03 18:55:00,
2014-01-03 12:56:00,18.9,9.1,28.79,SSW,202,10.1,12.8,65,0.00,,,0.00,0.00,VWS V14.01,2014-01-03 18:56:00,
2014-01-03 12:57:00,18.9,9.1,28.79,SSE,158,9.8,12.8,65,0.00,,,0.00,0.00,VWS V14.01,2014-01-03 18:57:00,
2014-01-03 12:58:00,18.7,8.9,28.79,SSW,202,6.5,12.5,65,0.00,,,0.00,0.00,VWS V14.01,2014-01-03 18:58:00,
2014-01-03 12:59:00,18.7,8.9,28.79,SSE,158,10.1,12.8,65,0.00,,,0.00,0.00,VWS V14.01,2014-01-03 18:59:00,
2014-01-03 13:00:00,18.7,9.2,28.79,SSW,202,7.8,10.1,66,0.00,,,0.00,0.00,VWS V14.01,2014-01-03 19:00:00,
2014-01-03 13:01:00,18.7,9.2,28.79,SSW,202,10.1,10.1,66,0.00,,,0.00,0.00,VWS V14.01,2014-01-03 19:01:00,
2014-01-03 13:02:00,18.7,9.2,28.79,SSW,202,10.1,10.1,66,0.00,,,0.00,0.00,VWS V14.01,2014-01-03 19:02:00,
2014-01-03 13:03:00,19.0,9.6,28.76,SSW,202,10.1,10.1,66,0.00,,,0.00,0.00,VWS V14.01,2014-01-03 19:03:00,
2014-01-03 13:04:00,19.0,9.6,28.76,SSW,202,10.3,10.3,66,0.00,,,0.00,0.00,VWS V14.01,2014-01-03 19:04:00,
2014-01-03 13:05:00,19.0,9.6,28.76,SSE,158,7.8,10.3,66,0.00,,,0.00,0.00,VWS V14.01,2014-01-03 19:05:00,
2014-01-03 13:06:00,18.7,8.9,28.76,SSW,202,8.7,8.7,65,0.00,,,0.00,0.00,VWS V14.01,2014-01-03 19:06:00,
2014-01-03 13:07:00,18.7,8.9,28.76,South,180,17.2,17.2,65,0.00,,,0.00,0.00,VWS V14.01,2014-01-03 19:07:00,
2014-01-03 13:08:00,18.9,9.1,28.76,SSE,158,9.0,17.2,65,0.00,,,0.00,0.00,VWS V14.01,2014-01-03 19:08:00,
2014-01-03 13:09:00,19.2,9.4,28.76,SSE,158,9.0,9.0,65,0.00,,,0.00,0.00,VWS V14.01,2014-01-03 19:09:00,
2014-01-03 13:10:00,19.4,9.6,28.76,South,180,7.4,9.0,65,0.00,,,0.00,0.00,VWS V14.01,2014-01-03 19:10:00,
2014-01-03 13:11:00,19.8,9.6,28.76,South,180,8.5,8.5,64,0.00,,,0.00,0.00,VWS V14.01,2014-01-03 19:11:00,
2014-01-03 13:12:00,19.8,9.6,28.76,South,180,8.5,8.5,64,0.00,,,0.00,0.00,VWS V14.01,2014-01-03 19:12:00,
2014-01-03 13:13:00,19.8,9.6,28.76,South,180,8.5,8.5,64,0.00,,,0.00,0.00,VWS V14.01,2014-01-03 19:13:00,
2014-01-03 13:14:00,19.6,9.4,28.76,South,180,8.5,8.5,64,0.00,,,0.00,0.00,VWS V14.01,2014-01-03 19:14:00,
2014-01-03 13:15:00,19.6,9.4,28.76,South,180,8.5,8.5,64,0.00,,,0.00,0.00,VWS V14.01,2014-01-03 19:15:00,
2014-01-03 13:16:00,19.6,9.4,28.76,South,180,8.5,8.5,64,0.00,,,0.00,0.00,VWS V14.01,2014-01-03 19:16:00,
2014-01-03 13:17:00,19.6,9.4,28.76,South,180,8.5,8.5,64,0.00,,,0.00,0.00,VWS V14.01,2014-01-03 19:17:00,
2014-01-03 13:18:00,19.4,9.2,28.73,South,180,8.5,8.5,64,0.00,,,0.00,0.00,VWS V14.01,2014-01-03 19:18:00,
2014-01-03 13:19:00,19.4,9.2,28.73,South,180,8.5,8.5,64,0.00,,,0.00,0.00,VWS V14.01,2014-01-03 19:19:00,
2014-01-03 13:20:00,19.4,9.6,28.73,South,180,8.5,8.5,65,0.00,,,0.00,0.00,VWS V14.01,2014-01-03 19:20:00,
2014-01-03 13:21:00,19.2,9.4,28.73,SSW,202,13.2,15.4,65,0.00,,,0.00,0.00,VWS V14.01,2014-01-03 19:21:00,
2014-01-03 13:22:00,19.2,9.4,28.73,South,180,12.8,15.4,65,0.00,,,0.00,0.00,VWS V14.01,2014-01-03 19:22:00,
2014-01-03 13:23:00,19.2,9.4,28.73,South,180,12.1,12.8,65,0.00,,,0.00,0.00,VWS V14.01,2014-01-03 19:23:00,
2014-01-03 13:24:00,19.2,9.4,28.73,South,180,12.5,12.5,65,0.00,,,0.00,0.00,VWS V14.01,2014-01-03 19:24:00,
2014-01-03 13:25:00,19.2,9.4,28.73,South,180,8.5,12.5,65,0.00,,,0.00,0.00,VWS V14.01,2014-01-03 19:25:00,
2014-01-03 13:26:00,19.0,9.6,28.73,SSW,202,13.0,17.9,66,0.00,,,0.00,0.00,VWS V14.01,2014-01-03 19:26:00,
2014-01-03 13:27:00,19.0,9.6,28.73,SSW,202,13.0,17.9,66,0.00,,,0.00,0.00,VWS V14.01,2014-01-03 19:27:00,
2014-01-03 13:28:00,19.2,9.7,28.73,SSW,202,13.0,13.0,66,0.00,,,0.00,0.00,VWS V14.01,2014-01-03 19:28:00,
2014-01-03 13:29:00,19.2,9.7,28.73,South,180,14.1,14.1,66,0.00,,,0.00,0.00,VWS V14.01,2014-01-03 19:29:00,
2014-01-03 13:30:00,19.2,9.7,28.73,South,180,14.1,14.1,66,0.00,,,0.00,0.00,VWS V14.01,2014-01-03 19:30:00,
2014-01-03 13:31:00,19.2,9.7,28.73,SSW,202,12.8,14.1,66,0.00,,,0.00,0.00,VWS V14.01,2014-01-03 19:31:00,
2014-01-03 13:32:00,19.2,9.7,28.73,SSW,202,12.8,14.1,66,0.00,,,0.00,0.00,VWS V14.01,2014-01-03 19:32:00,
2014-01-03 13:33:00,19.2,10.1,28.70,SSW,202,12.8,12.8,67,0.00,,,0.00,0.00,VWS V14.01,2014-01-03 19:33:00,
2014-01-03 13:34:00,19.2,10.1,28.70,SSW,202,12.8,12.8,67,0.00,,,0.00,0.00,VWS V14.01,2014-01-03 19:34:00,
2014-01-03 13:35:00,19.4,10.2,28.70,SSW,202,12.8,12.8,67,0.00,,,0.00,0.00,VWS V14.01,2014-01-03 19:35:00,
2014-01-03 13:36:00,19.6,10.4,28.70,SSW,202,12.8,12.8,67,0.00,,,0.00,0.00,VWS V14.01,2014-01-03 19:36:00,
2014-01-03 13:37:00,19.4,10.6,28.70,SSW,202,12.8,12.8,68,0.00,,,0.00,0.00,VWS V14.01,2014-01-03 19:37:00,
2014-01-03 13:38:00,19.6,10.4,28.70,SSW,202,12.8,12.8,67,0.00,,,0.00,0.00,VWS V14.01,2014-01-03 19:38:00,
2014-01-03 13:39:00,19.4,10.6,28.70,SSW,202,12.8,12.8,68,0.00,,,0.00,0.00,VWS V14.01,2014-01-03 19:39:00,
2014-01-03 13:40:00,19.6,10.4,28.70,SSW,202,12.8,12.8,67,0.00,,,0.00,0.00,VWS V14.01,2014-01-03 19:40:00,
2014-01-03 13:41:00,19.6,10.8,28.70,SSW,202,12.8,12.8,68,0.00,,,0.00,0.00,VWS V14.01,2014-01-03 19:41:00,
2014-01-03 13:42:00,19.6,10.8,28.70,SSW,202,12.8,12.8,68,0.00,,,0.00,0.00,VWS V14.01,2014-01-03 19:42:00,
2014-01-03 13:43:00,19.8,10.9,28.70,SSW,202,12.8,12.8,68,0.00,,,0.00,0.00,VWS V14.01,2014-01-03 19:43:00,
2014-01-03 13:44:00,19.6,10.8,28.70,SSW,202,12.8,12.8,68,0.00,,,0.00,0.00,VWS V14.01,2014-01-03 19:44:00,
2014-01-03 13:45:00,19.6,10.8,28.70,SSW,202,12.8,12.8,68,0.00,,,0.00,0.00,VWS V14.01,2014-01-03 19:45:00,
2014-01-03 13:46:00,19.4,10.9,28.70,SSW,202,12.8,12.8,69,0.00,,,0.00,0.00,VWS V14.01,2014-01-03 19:46:00,
2014-01-03 13:47:00,19.4,10.9,28.70,SSW,202,12.8,12.8,69,0.00,,,0.00,0.00,VWS V14.01,2014-01-03 19:47:00,
2014-01-03 13:48:00,19.4,10.9,28.70,SSW,202,12.8,12.8,69,0.00,,,0.00,0.00,VWS V14.01,2014-01-03 19:48:00,
2014-01-03 13:49:00,19.4,10.9,28.76,SSW,202,12.8,12.8,69,0.00,,,0.00,0.00,VWS V14.01,2014-01-03 19:49:00,
2014-01-03 13:50:00,19.4,10.9,28.76,SSW,202,12.8,12.8,69,0.00,,,0.00,0.00,VWS V14.01,2014-01-03 19:50:00,
2014-01-03 13:51:00,19.4,10.9,28.76,SSW,202,12.8,12.8,69,0.00,,,0.00,0.00,VWS V14.01,2014-01-03 19:51:00,
2014-01-03 13:52:00,19.4,10.9,28.76,SSW,202,12.8,12.8,69,0.00,,,0.00,0.00,VWS V14.01,2014-01-03 19:52:00,
2014-01-03 13:53:00,19.4,10.9,28.76,SSW,202,12.8,12.8,69,0.00,,,0.00,0.00,VWS V14.01,2014-01-03 19:53:00,
2014-01-03 13:54:00,19.6,11.1,28.76,SSW,202,12.8,12.8,69,0.00,,,0.00,0.00,VWS V14.01,2014-01-03 19:54:00,
2014-01-03 13:55:00,19.6,11.1,28.76,SSW,202,12.8,12.8,69,0.00,,,0.00,0.00,VWS V14.01,2014-01-03 19:55:00,
2014-01-03 13:56:00,19.6,11.1,28.76,SSW,202,12.8,12.8,69,0.00,,,0.00,0.00,VWS V14.01,2014-01-03 19:56:00,
2014-01-03 13:57:00,19.6,11.1,28.76,SSW,202,12.8,12.8,69,0.00,,,0.00,0.00,VWS V14.01,2014-01-03 19:57:00,
2014-01-03 13:58:00,19.6,10.8,28.76,SSW,202,12.8,12.8,68,0.00,,,0.00,0.00,VWS V14.01,2014-01-03 19:58:00,
2014-01-03 13:59:00,19.8,10.9,28.76,SSW,202,12.8,12.8,68,0.00,,,0.00,0.00,VWS V14.01,2014-01-03 19:59:00,
2014-01-03 14:00:00,19.6,10.8,28.76,SSW,202,12.8,12.8,68,0.00,,,0.00,0.00,VWS V14.01,2014-01-03 20:00:00,
2014-01-03 14:01:00,19.9,10.8,28.76,SSW,202,12.8,12.8,67,0.00,,,0.00,0.00,VWS V14.01,2014-01-03 20:01:00,
2014-01-03 14:02:00,19.9,10.8,28.76,SSW,202,12.8,12.8,67,0.00,,,0.00,0.00,VWS V14.01,2014-01-03 20:02:00,
2014-01-03 14:03:00,19.9,10.8,28.76,SSW,202,12.8,12.8,67,0.00,,,0.00,0.00,VWS V14.01,2014-01-03 20:03:00,
2014-01-03 14:04:00,19.9,10.4,28.76,SSW,202,10.3,12.8,66,0.00,,,0.00,0.00,VWS V14.01,2014-01-03 20:04:00,
2014-01-03 14:05:00,20.1,10.6,28.76,SSE,158,10.5,10.5,66,0.00,,,0.00,0.00,VWS V14.01,2014-01-03 20:05:00,
2014-01-03 14:06:00,20.1,10.3,28.76,SSW,202,6.3,10.5,65,0.00,,,0.00,0.00,VWS V14.01,2014-01-03 20:06:00,
2014-01-03 14:07:00,20.1,10.3,28.76,South,180,17.0,17.0,65,0.00,,,0.00,0.00,VWS V14.01,2014-01-03 20:07:00,
2014-01-03 14:08:00,20.3,10.4,28.76,South,180,17.0,17.0,65,0.00,,,0.00,0.00,VWS V14.01,2014-01-03 20:08:00,
2014-01-03 14:09:00,20.1,10.3,28.76,SSW,202,8.7,17.0,65,0.00,,,0.00,0.00,VWS V14.01,2014-01-03 20:09:00,
2014-01-03 14:10:00,20.3,10.4,28.76,SSW,202,8.1,8.7,65,0.00,,,0.00,0.00,VWS V14.01,2014-01-03 20:10:00,
2014-01-03 14:11:00,20.3,10.4,28.76,SSE,158,10.7,13.2,65,0.00,,,0.00,0.00,VWS V14.01,2014-01-03 20:11:00,
2014-01-03 14:12:00,20.3,10.4,28.76,SSW,202,10.3,13.2,65,0.00,,,0.00,0.00,VWS V14.01,2014-01-03 20:12:00,
2014-01-03 14:13:00,20.3,10.4,28.76,SSW,202,10.3,10.3,65,0.00,,,0.00,0.00,VWS V14.01,2014-01-03 20:13:00,
2014-01-03 14:14:00,20.3,10.8,28.76,SSW,202,8.1,10.3,66,0.00,,,0.00,0.00,VWS V14.01,2014-01-03 20:14:00,
2014-01-03 14:15:00,20.3,10.8,28.76,SSW,202,8.1,8.1,66,0.00,,,0.00,0.00,VWS V14.01,2014-01-03 20:15:00,
2014-01-03 14:16:00,20.3,10.8,28.76,South,180,16.3,16.3,66,0.00,,,0.00,0.00,VWS V14.01,2014-01-03 20:16:00,
2014-01-03 14:17:00,20.3,10.8,28.76,South,180,16.3,16.3,66,0.00,,,0.00,0.00,VWS V14.01,2014-01-03 20:17:00,
2014-01-03 14:18:00,20.3,10.8,28.70,South,180,16.3,16.3,66,0.00,,,0.00,0.00,VWS V14.01,2014-01-03 20:18:00,
2014-01-03 14:19:00,20.5,10.9,28.70,South,180,16.3,16.3,66,0.00,,,0.00,0.00,VWS V14.01,2014-01-03 20:19:00,
2014-01-03 14:20:00,20.5,10.9,28.70,South,180,16.3,16.3,66,0.00,,,0.00,0.00,VWS V14.01,2014-01-03 20:20:00,
2014-01-03 14:21:00,20.5,10.9,28.70,South,180,16.3,16.3,66,0.00,,,0.00,0.00,VWS V14.01,2014-01-03 20:21:00,
2014-01-03 14:22:00,20.5,10.9,28.70,South,180,16.3,16.3,66,0.00,,,0.00,0.00,VWS V14.01,2014-01-03 20:22:00,
2014-01-03 14:23:00,20.5,10.9,28.70,South,180,16.3,16.3,66,0.00,,,0.00,0.00,VWS V14.01,2014-01-03 20:23:00,
2014-01-03 14:24:00,20.3,10.8,28.70,South,180,16.3,16.3,66,0.00,,,0.00,0.00,VWS V14.01,2014-01-03 20:24:00,
2014-01-03 14:25:00,20.3,10.8,28.70,South,180,16.3,16.3,66,0.00,,,0.00,0.00,VWS V14.01,2014-01-03 20:25:00,
2014-01-03 14:26:00,20.1,10.6,28.70,South,180,16.3,16.3,66,0.00,,,0.00,0.00,VWS V14.01,2014-01-03 20:26:00,
2014-01-03 14:27:00,20.1,10.6,28.70,South,180,16.3,16.3,66,0.00,,,0.00,0.00,VWS V14.01,2014-01-03 20:27:00,
2014-01-03 14:28:00,20.3,11.1,28.70,South,180,16.3,16.3,67,0.00,,,0.00,0.00,VWS V14.01,2014-01-03 20:28:00,
2014-01-03 14:29:00,20.3,11.1,28.70,SSE,158,11.9,16.3,67,0.00,,,0.00,0.00,VWS V14.01,2014-01-03 20:29:00,
2014-01-03 14:30:00,20.3,11.1,28.70,SSE,158,11.9,11.9,67,0.00,,,0.00,0.00,VWS V14.01,2014-01-03 20:30:00,
2014-01-03 14:31:00,20.3,11.1,28.70,SSE,158,11.9,11.9,67,0.00,,,0.00,0.00,VWS V14.01,2014-01-03 20:31:00,
2014-01-03 14:32:00,20.3,11.1,28.70,SSE,158,11.9,11.9,67,0.00,,,0.00,0.00,VWS V14.01,2014-01-03 20:32:00,
2014-01-03 14:33:00,20.3,10.8,28.67,SSW,202,11.0,11.9,66,0.00,,,0.00,0.00,VWS V14.01,2014-01-03 20:33:00,
2014-01-03 14:34:00,20.3,10.8,28.67,SSW,202,11.0,11.0,66,0.00,,,0.00,0.00,VWS V14.01,2014-01-03 20:34:00,
2014-01-03 14:35:00,20.1,10.6,28.67,SSW,202,11.0,11.0,66,0.00,,,0.00,0.00,VWS V14.01,2014-01-03 20:35:00,
2014-01-03 14:36:00,20.3,10.8,28.67,SSW,202,11.0,11.0,66,0.00,,,0.00,0.00,VWS V14.01,2014-01-03 20:36:00,
2014-01-03 14:37:00,20.3,10.8,28.67,SSW,202,11.0,11.0,66,0.00,,,0.00,0.00,VWS V14.01,2014-01-03 20:37:00,
2014-01-03 14:38:00,20.1,10.6,28.67,SSW,202,11.0,11.0,66,0.00,,,0.00,0.00,VWS V14.01,2014-01-03 20:38:00,
2014-01-03 14:39:00,20.3,10.8,28.67,South,180,6.0,11.0,66,0.00,,,0.00,0.00,VWS V14.01,2014-01-03 20:39:00,
2014-01-03 14:40:00,20.5,10.9,28.67,SSE,158,11.0,11.0,66,0.00,,,0.00,0.00,VWS V14.01,2014-01-03 20:40:00,
2014-01-03 14:41:00,20.5,10.6,28.67,SSE,158,11.0,11.0,65,0.00,,,0.00,0.00,VWS V14.01,2014-01-03 20:41:00,
2014-01-03 14:42:00,20.5,10.6,28.67,SSE,158,11.0,11.0,65,0.00,,,0.00,0.00,VWS V14.01,2014-01-03 20:42:00,
2014-01-03 14:43:00,20.5,10.6,28.67,SSE,158,11.0,11.0,65,0.00,,,0.00,0.00,VWS V14.01,2014-01-03 20:43:00,
2014-01-03 14:44:00,20.7,10.8,28.67,SSW,202,10.7,11.0,65,0.00,,,0.00,0.00,VWS V14.01,2014-01-03 20:44:00,
2014-01-03 14:45:00,20.7,10.8,28.67,SE,135,12.5,12.5,65,0.00,,,0.00,0.00,VWS V14.01,2014-01-03 20:45:00,
2014-01-03 14:46:00,20.8,10.9,28.67,SE,135,12.5,12.5,65,0.00,,,0.00,0.00,VWS V14.01,2014-01-03 20:46:00,
2014-01-03 14:47:00,20.8,10.9,28.67,SE,135,12.5,12.5,65,0.00,,,0.00,0.00,VWS V14.01,2014-01-03 20:47:00,
2014-01-03 14:48:00,20.8,10.6,28.64,SE,135,12.5,12.5,64,0.00,,,0.00,0.00,VWS V14.01,2014-01-03 20:48:00,
2014-01-03 14:49:00,20.8,10.6,28.64,South,180,17.7,17.7,64,0.00,,,0.00,0.00,VWS V14.01,2014-01-03 20:49:00,
2014-01-03 14:50:00,20.7,10.4,28.64,SSE,158,13.0,17.7,64,0.00,,,0.00,0.00,VWS V14.01,2014-01-03 20:50:00,
2014-01-03 14:51:00,20.5,10.6,28.64,SSE,158,13.0,13.0,65,0.00,,,0.00,0.00,VWS V14.01,2014-01-03 20:51:00,
2014-01-03 14:52:00,20.5,10.6,28.64,SSE,158,13.0,13.0,65,0.00,,,0.00,0.00,VWS V14.01,2014-01-03 20:52:00,
2014-01-03 14:53:00,20.3,10.4,28.64,South,180,12.5,13.6,65,0.00,,,0.00,0.00,VWS V14.01,2014-01-03 20:53:00,
2014-01-03 14:54:00,20.3,10.4,28.64,SSW,202,13.2,15.7,65,0.00,,,0.00,0.00,VWS V14.01,2014-01-03 20:54:00,
2014-01-03 14:55:00,20.1,10.3,28.64,South,180,17.0,17.0,65,0.00,,,0.00,0.00,VWS V14.01,2014-01-03 20:55:00,
2014-01-03 14:56:00,20.1,10.3,28.64,SSW,202,15.4,15.4,65,0.00,,,0.00,0.00,VWS V14.01,2014-01-03 20:56:00,
2014-01-03 14:57:00,20.1,10.3,28.64,SSE,158,9.8,15.4,65,0.00,,,0.00,0.00,VWS V14.01,2014-01-03 20:57:00,
2014-01-03 14:58:00,20.3,10.4,28.64,SSW,202,12.1,12.1,65,0.00,,,0.00,0.00,VWS V14.01,2014-01-03 20:58:00,
2014-01-03 14:59:00,20.3,10.8,28.64,South,180,8.1,12.1,66,0.00,,,0.00,0.00,VWS V14.01,2014-01-03 20:59:00,
2014-01-03 15:00:00,20.3,10.4,28.64,SSE,158,13.9,13.9,65,0.00,,,0.00,0.00,VWS V14.01,2014-01-03 21:00:00,
2014-01-03 15:01:00,20.3,10.4,28.64,SSE,158,12.5,12.5,65,0.00,,,0.00,0.00,VWS V14.01,2014-01-03 21:01:00,
2014-01-03 15:02:00,20.3,10.4,28.64,SSE,158,6.9,12.5,65,0.00,,,0.00,0.00,VWS V14.01,2014-01-03 21:02:00,
2014-01-03 15:03:00,20.3,10.4,28.67,ESE,112,6.0,7.8,65,0.00,,,0.00,0.00,VWS V14.01,2014-01-03 21:03:00,
2014-01-03 15:04:00,20.3,10.8,28.67,SSE,158,8.5,8.5,66,0.00,,,0.00,0.00,VWS V14.01,2014-01-03 21:04:00,
2014-01-03 15:05:00,20.3,10.4,28.67,South,180,16.3,16.3,65,0.00,,,0.00,0.00,VWS V14.01,2014-01-03 21:05:00,
2014-01-03 15:06:00,20.3,10.8,28.67,SSW,202,10.5,10.5,66,0.00,,,0.00,0.00,VWS V14.01,2014-01-03 21:06:00,
2014-01-03 15:07:00,20.3,10.8,28.67,SE,135,5.6,10.5,66,0.00,,,0.00,0.00,VWS V14.01,2014-01-03 21:07:00,
2014-01-03 15:08:00,20.3,10.8,28.67,SSE,158,13.6,13.6,66,0.00,,,0.00,0.00,VWS V14.01,2014-01-03 21:08:00,
2014-01-03 15:09:00,20.3,10.8,28.67,SSE,158,13.4,13.6,66,0.00,,,0.00,0.00,VWS V14.01,2014-01-03 21:09:00,
2014-01-03 15:10:00,20.3,10.8,28.67,SSE,158,10.1,13.4,66,0.00,,,0.00,0.00,VWS V14.01,2014-01-03 21:10:00,
2014-01-03 15:11:00,20.5,10.9,28.67,South,180,6.0,11.0,66,0.00,,,0.00,0.00,VWS V14.01,2014-01-03 21:11:00,
2014-01-03 15:12:00,20.5,10.9,28.67,SSE,158,10.5,14.5,66,0.00,,,0.00,0.00,VWS V14.01,2014-01-03 21:12:00,
2014-01-03 15:13:00,20.3,10.4,28.67,South,180,10.7,10.7,65,0.00,,,0.00,0.00,VWS V14.01,2014-01-03 21:13:00,
2014-01-03 15:14:00,20.5,10.9,28.67,SSE,158,10.1,10.7,66,0.00,,,0.00,0.00,VWS V14.01,2014-01-03 21:14:00,
2014-01-03 15:15:00,20.3,10.8,28.67,SSW,202,10.3,10.3,66,0.00,,,0.00,0.00,VWS V14.01,2014-01-03 21:15:00,
2014-01-03 15:16:00,20.5,10.9,28.67,SSE,158,9.0,12.8,66,0.00,,,0.00,0.00,VWS V14.01,2014-01-03 21:16:00,
2014-01-03 15:17:00,20.5,10.9,28.67,South,180,12.3,12.8,66,0.00,,,0.00,0.00,VWS V14.01,2014-01-03 21:17:00,
2014-01-03 15:18:00,20.5,10.9,28.67,SSW,202,4.9,12.3,66,0.00,,,0.00,0.00,VWS V14.01,2014-01-03 21:18:00,
2014-01-03 15:19:00,20.5,10.9,28.67,SSE,158,17.7,17.7,66,0.00,,,0.00,0.00,VWS V14.01,2014-01-03 21:19:00,
2014-01-03 15:20:00,20.5,10.9,28.67,SSW,202,12.1,17.7,66,0.00,,,0.00,0.00,VWS V14.01,2014-01-03 21:20:00,
2014-01-03 15:21:00,20.3,10.8,28.67,SE,135,12.1,12.1,66,0.00,,,0.00,0.00,VWS V14.01,2014-01-03 21:21:00,
2014-01-03 15:22:00,20.3,10.8,28.67,SSE,158,19.2,19.2,66,0.00,,,0.00,0.00,VWS V14.01,2014-01-03 21:22:00,
2014-01-03 15:23:00,20.8,12.6,28.67,SSE,158,5.4,5.4,70,0.00,,,0.00,0.00,VWS V14.01,2014-01-03 21:23:00,
2014-01-03 15:24:00,20.3,11.1,28.67,South,180,13.9,13.9,67,0.00,,,0.00,0.00,VWS V14.01,2014-01-03 21:24:00,
2014-01-03 15:25:00,21.0,12.8,28.67,SSW,202,10.7,10.7,70,0.00,,,0.00,0.00,VWS V14.01,2014-01-03 21:25:00,
2014-01-03 15:26:00,20.3,11.1,28.67,ESE,112,8.7,13.0,67,0.00,,,0.00,0.00,VWS V14.01,2014-01-03 21:26:00,
2014-01-03 15:27:00,20.3,11.1,28.67,SSE,158,12.1,13.0,67,0.00,,,0.00,0.00,VWS V14.01,2014-01-03 21:27:00,
2014-01-03 15:28:00,21.0,13.1,28.67,South,180,6.3,10.5,71,0.00,,,0.00,0.00,VWS V14.01,2014-01-03 21:28:00,
2014-01-03 15:29:00,20.3,11.1,28.67,SSW,202,10.7,13.0,67,0.00,,,0.00,0.00,VWS V14.01,2014-01-03 21:29:00,
2014-01-03 15:30:00,20.3,11.1,28.67,SSE,158,10.7,12.5,67,0.00,,,0.00,0.00,VWS V14.01,2014-01-03 21:30:00,
2014-01-03 15:31:00,20.3,11.1,28.67,SSE,158,11.0,13.0,67,0.00,,,0.00,0.00,VWS V14.01,2014-01-03 21:31:00,
2014-01-03 15:32:00,20.3,11.1,28.67,SSW,202,10.5,13.0,67,0.00,,,0.00,0.00,VWS V14.01,2014-01-03 21:32:00,
2014-01-03 15:33:00,20.3,11.1,28.67,SSE,158,13.2,13.2,67,0.00,,,0.00,0.00,VWS V14.01,2014-01-03 21:33:00,
2014-01-03 15:34:00,20.3,11.1,28.67,ESE,112,7.2,13.2,67,0.00,,,0.00,0.00,VWS V14.01,2014-01-03 21:34:00,
2014-01-03 15:35:00,20.3,11.1,28.67,SSE,158,8.7,10.1,67,0.00,,,0.00,0.00,VWS V14.01,2014-01-03 21:35:00,
2014-01-03 15:36:00,20.3,11.1,28.67,South,180,11.0,11.0,67,0.00,,,0.00,0.00,VWS V14.01,2014-01-03 21:36:00,
2014-01-03 15:37:00,20.3,11.1,28.67,SSE,158,6.5,11.0,67,0.00,,,0.00,0.00,VWS V14.01,2014-01-03 21:37:00,
2014-01-03 15:38:00,20.5,11.3,28.67,South,180,11.0,11.0,67,0.00,,,0.00,0.00,VWS V14.01,2014-01-03 21:38:00,
2014-01-03 15:39:00,20.3,11.1,28.67,SSE,158,7.8,11.0,67,0.00,,,0.00,0.00,VWS V14.01,2014-01-03 21:39:00,
2014-01-03 15:40:00,21.2,13.6,28.64,SSW,202,4.7,7.6,72,0.00,,,0.00,0.00,VWS V14.01,2014-01-03 21:40:00,
2014-01-03 15:41:00,20.5,11.6,28.67,SSW,202,5.6,5.6,68,0.00,,,0.00,0.00,VWS V14.01,2014-01-03 21:41:00,
2014-01-03 15:42:00,20.5,11.6,28.67,SSW,202,8.1,8.1,68,0.00,,,0.00,0.00,VWS V14.01,2014-01-03 21:42:00,
2014-01-03 15:43:00,20.5,11.6,28.67,South,180,5.8,8.1,68,0.00,,,0.00,0.00,VWS V14.01,2014-01-03 21:43:00,
2014-01-03 15:44:00,20.5,11.6,28.67,SSE,158,4.9,8.5,68,0.00,,,0.00,0.00,VWS V14.01,2014-01-03 21:44:00,
2014-01-03 15:45:00,20.7,11.8,28.67,SSW,202,3.6,8.7,68,0.00,,,0.00,0.00,VWS V14.01,2014-01-03 21:45:00,
2014-01-03 15:46:00,20.7,11.8,28.67,SSE,158,8.5,8.5,68,0.00,,,0.00,0.00,VWS V14.01,2014-01-03 21:46:00,
2014-01-03 15:47:00,20.7,11.8,28.67,SSE,158,8.5,8.5,68,0.00,,,0.00,0.00,VWS V14.01,2014-01-03 21:47:00,
2014-01-03 15:48:00,20.7,11.8,28.67,ESE,112,6.5,10.1,68,0.00,,,0.00,0.00,VWS V14.01,2014-01-03 21:48:00,
2014-01-03 15:49:00,20.7,11.8,28.67,South,180,11.0,16.1,68,0.00,,,0.00,0.00,VWS V14.01,2014-01-03 21:49:00,
2014-01-03 15:50:00,20.7,11.8,28.67,SSW,202,10.7,14.5,68,0.00,,,0.00,0.00,VWS V14.01,2014-01-03 21:50:00,
2014-01-03 15:51:00,20.7,11.8,28.67,SSE,158,6.5,6.5,68,0.00,,,0.00,0.00,VWS V14.01,2014-01-03 21:51:00,
2014-01-03 15:52:00,20.7,11.8,28.67,SSE,158,13.9,17.7,68,0.00,,,0.00,0.00,VWS V14.01,2014-01-03 21:52:00,
2014-01-03 15:53:00,20.7,12.1,28.67,WSW,248,7.8,13.9,69,0.00,,,0.00,0.00,VWS V14.01,2014-01-03 21:53:00,
2014-01-03 15:54:00,20.7,12.1,28.67,South,180,13.0,13.0,69,0.00,,,0.00,0.00,VWS V14.01,2014-01-03 21:54:00,
2014-01-03 15:55:00,20.7,12.1,28.67,South,180,13.0,13.0,69,0.00,,,0.00,0.00,VWS V14.01,2014-01-03 21:55:00,
2014-01-03 15:56:00,20.7,12.1,28.67,East,90,9.6,16.3,69,0.00,,,0.00,0.00,VWS V14.01,2014-01-03 21:56:00,
2014-01-03 15:57:00,20.7,12.1,28.67,SSW,202,10.3,16.3,69,0.00,,,0.00,0.00,VWS V14.01,2014-01-03 21:57:00,
2014-01-03 15:58:00,20.7,12.1,28.67,South,180,8.1,10.3,69,0.00,,,0.00,0.00,VWS V14.01,2014-01-03 21:58:00,
2014-01-03 15:59:00,20.7,12.1,28.67,SSW,202,12.1,12.1,69,0.00,,,0.00,0.00,VWS V14.01,2014-01-03 21:59:00,
2014-01-03 16:00:00,20.7,12.1,28.67,SSW,202,10.5,15.2,69,0.00,,,0.00,0.00,VWS V14.01,2014-01-03 22:00:00,
2014-01-03 16:01:00,20.7,12.1,28.67,SSW,202,8.5,8.5,69,0.00,,,0.00,0.00,VWS V14.01,2014-01-03 22:01:00,
2014-01-03 16:02:00,20.8,12.3,28.67,SSW,202,6.5,8.5,69,0.00,,,0.00,0.00,VWS V14.01,2014-01-03 22:02:00,
2014-01-03 16:03:00,20.8,12.3,28.67,South,180,3.4,6.5,69,0.00,,,0.00,0.00,VWS V14.01,2014-01-03 22:03:00,
2014-01-03 16:04:00,20.8,12.3,28.67,South,180,3.4,3.4,69,0.00,,,0.00,0.00,VWS V14.01,2014-01-03 22:04:00,
2014-01-03 16:05:00,20.8,12.3,28.67,South,180,6.5,9.4,69,0.00,,,0.00,0.00,VWS V14.01,2014-01-03 22:05:00,
2014-01-03 16:06:00,20.8,12.3,28.67,SE,135,13.0,13.0,69,0.00,,,0.00,0.00,VWS V14.01,2014-01-03 22:06:00,
2014-01-03 16:07:00,21.2,14.5,28.61,SE,135,12.5,12.5,75,0.00,,,0.00,0.00,VWS V14.01,2014-01-03 22:07:00,
2014-01-03 16:08:00,20.8,12.3,28.67,SSE,158,7.6,13.0,69,0.00,,,0.00,0.00,VWS V14.01,2014-01-03 22:08:00,
2014-01-03 16:09:00,20.8,12.3,28.67,SSE,158,8.1,14.5,69,0.00,,,0.00,0.00,VWS V14.01,2014-01-03 22:09:00,
2014-01-03 16:10:00,20.8,12.3,28.67,South,180,10.5,13.0,69,0.00,,,0.00,0.00,VWS V14.01,2014-01-03 22:10:00,
2014-01-03 16:11:00,20.8,12.3,28.67,SSE,158,8.5,8.5,69,0.00,,,0.00,0.00,VWS V14.01,2014-01-03 22:11:00,
2014-01-03 16:12:00,20.8,12.3,28.67,SSE,158,6.3,8.7,69,0.00,,,0.00,0.00,VWS V14.01,2014-01-03 22:12:00,
2014-01-03 16:13:00,20.8,12.3,28.67,SSE,158,3.1,6.3,69,0.00,,,0.00,0.00,VWS V14.01,2014-01-03 22:13:00,
2014-01-03 16:14:00,20.8,12.3,28.67,SSE,158,7.4,7.4,69,0.00,,,0.00,0.00,VWS V14.01,2014-01-03 22:14:00,
2014-01-03 16:15:00,20.8,12.3,28.67,SSE,158,11.0,11.0,69,0.00,,,0.00,0.00,VWS V14.01,2014-01-03 22:15:00,
2014-01-03 16:16:00,20.8,12.3,28.67,SSE,158,8.7,11.0,69,0.00,,,0.00,0.00,VWS V14.01,2014-01-03 22:16:00,
2014-01-03 16:17:00,20.8,12.3,28.67,South,180,4.0,11.0,69,0.00,,,0.00,0.00,VWS V14.01,2014-01-03 22:17:00,
2014-01-03 16:18:00,20.8,12.6,28.67,South,180,8.1,9.8,70,0.00,,,0.00,0.00,VWS V14.01,2014-01-03 22:18:00,
2014-01-03 16:19:00,20.8,12.6,28.67,SSE,158,8.5,8.5,70,0.00,,,0.00,0.00,VWS V14.01,2014-01-03 22:19:00,
2014-01-03 16:20:00,20.8,12.6,28.67,SSE,158,12.5,12.5,70,0.00,,,0.00,0.00,VWS V14.01,2014-01-03 22:20:00,
2014-01-03 16:21:00,20.8,12.6,28.67,SSW,202,5.8,5.8,70,0.00,,,0.00,0.00,VWS V14.01,2014-01-03 22:21:00,
2014-01-03 16:22:00,20.8,12.6,28.67,SSE,158,4.0,5.8,70,0.00,,,0.00,0.00,VWS V14.01,2014-01-03 22:22:00,
2014-01-03 16:23:00,20.8,12.6,28.67,SSE,158,5.4,5.4,70,0.00,,,0.00,0.00,VWS V14.01,2014-01-03 22:23:00,
2014-01-03 16:24:00,20.8,12.6,28.67,SSE,158,5.4,5.4,70,0.00,,,0.00,0.00,VWS V14.01,2014-01-03 22:24:00,
2014-01-03 16:25:00,21.0,12.8,28.67,SSW,202,10.7,10.7,70,0.00,,,0.00,0.00,VWS V14.01,2014-01-03 22:25:00,
2014-01-03 16:26:00,21.0,12.8,28.67,ESE,112,6.3,9.8,70,0.00,,,0.00,0.00,VWS V14.01,2014-01-03 22:26:00,
2014-01-03 16:27:00,21.0,13.1,28.67,SSW,202,4.9,10.1,71,0.00,,,0.00,0.00,VWS V14.01,2014-01-03 22:27:00,
2014-01-03 16:28:00,21.0,13.1,28.67,South,180,6.3,10.5,71,0.00,,,0.00,0.00,VWS V14.01,2014-01-03 22:28:00,
2014-01-03 16:29:00,21.0,13.1,28.67,South,180,8.5,8.5,71,0.00,,,0.00,0.00,VWS V14.01,2014-01-03 22:29:00,
2014-01-03 16:30:00,21.0,13.1,28.67,South,180,4.0,8.7,71,0.00,,,0.00,0.00,VWS V14.01,2014-01-03 22:30:00,
2014-01-03 16:31:00,21.0,13.1,28.67,WSW,248,7.4,7.8,71,0.00,,,0.00,0.00,VWS V14.01,2014-01-03 22:31:00,
2014-01-03 16:32:00,21.0,13.1,28.67,SSE,158,4.3,7.8,71,0.00,,,0.00,0.00,VWS V14.01,2014-01-03 22:32:00,
2014-01-03 16:33:00,21.2,13.3,28.64,South,180,6.3,6.5,71,0.00,,,0.00,0.00,VWS V14.01,2014-01-03 22:33:00,
2014-01-03 16:34:00,21.2,13.3,28.64,SSW,202,8.5,8.5,71,0.00,,,0.00,0.00,VWS V14.01,2014-01-03 22:34:00,
2014-01-03 16:35:00,21.2,13.3,28.64,SSW,202,6.3,8.5,71,0.00,,,0.00,0.00,VWS V14.01,2014-01-03 22:35:00,
2014-01-03 16:36:00,21.2,13.6,28.64,ESE,112,6.3,6.3,72,0.00,,,0.00,0.00,VWS V14.01,2014-01-03 22:36:00,
2014-01-03 16:37:00,21.2,13.6,28.64,SSW,202,7.8,7.8,72,0.00,,,0.00,0.00,VWS V14.01,2014-01-03 22:37:00,
2014-01-03 16:38:00,21.9,15.2,28.61,SSE,158,8.5,8.5,75,0.00,,,0.00,0.00,VWS V14.01,2014-01-03 22:38:00,
2014-01-03 16:39:00,21.2,13.6,28.64,SSE,158,7.6,7.8,72,0.00,,,0.00,0.00,VWS V14.01,2014-01-03 22:39:00,
2014-01-03 16:40:00,21.2,13.6,28.64,SSW,202,4.7,7.6,72,0.00,,,0.00,0.00,VWS V14.01,2014-01-03 22:40:00,
2014-01-03 16:41:00,21.2,13.6,28.64,SSE,158,5.8,5.8,72,0.00,,,0.00,0.00,VWS V14.01,2014-01-03 22:41:00,
2014-01-03 16:42:00,21.2,13.6,28.64,SE,135,7.2,7.2,72,0.00,,,0.00,0.00,VWS V14.01,2014-01-03 22:42:00,
2014-01-03 16:43:00,21.2,13.6,28.64,NE,45,7.8,7.8,72,0.00,,,0.00,0.00,VWS V14.01,2014-01-03 22:43:00,
2014-01-03 16:44:00,21.2,13.6,28.64,SSE,158,6.5,7.8,72,0.00,,,0.00,0.00,VWS V14.01,2014-01-03 22:44:00,
2014-01-03 16:45:00,21.2,13.6,28.64,SSE,158,9.8,9.8,72,0.00,,,0.00,0.00,VWS V14.01,2014-01-03 22:45:00,
2014-01-03 16:46:00,21.2,13.6,28.64,SSE,158,3.6,9.8,72,0.00,,,0.00,0.00,VWS V14.01,2014-01-03 22:46:00,
2014-01-03 16:47:00,21.2,13.6,28.64,SSE,158,7.2,9.8,72,0.00,,,0.00,0.00,VWS V14.01,2014-01-03 22:47:00,
2014-01-03 16:48:00,21.2,13.6,28.64,SSE,158,6.3,7.2,72,0.00,,,0.00,0.00,VWS V14.01,2014-01-03 22:48:00,
2014-01-03 16:49:00,21.2,13.6,28.64,SSE,158,6.3,6.3,72,0.00,,,0.00,0.00,VWS V14.01,2014-01-03 22:49:00,
2014-01-03 16:50:00,21.2,13.6,28.64,East,90,12.3,12.3,72,0.00,,,0.00,0.00,VWS V14.01,2014-01-03 22:50:00,
2014-01-03 16:51:00,21.2,13.6,28.64,South,180,5.8,8.5,72,0.00,,,0.00,0.00,VWS V14.01,2014-01-03 22:51:00,
2014-01-03 16:52:00,21.2,13.6,28.64,South,180,8.5,8.5,72,0.00,,,0.00,0.00,VWS V14.01,2014-01-03 22:52:00,
2014-01-03 16:53:00,21.2,13.6,28.64,South,180,5.8,8.5,72,0.00,,,0.00,0.00,VWS V14.01,2014-01-03 22:53:00,
2014-01-03 16:54:00,21.2,13.9,28.64,South,180,7.6,7.6,73,0.00,,,0.00,0.00,VWS V14.01,2014-01-03 22:54:00,
2014-01-03 16:55:00,21.2,13.9,28.64,SW,225,9.2,9.2,73,0.00,,,0.00,0.00,VWS V14.01,2014-01-03 22:55:00,
2014-01-03 16:56:00,21.2,13.9,28.64,SSW,202,8.1,8.1,73,0.00,,,0.00,0.00,VWS V14.01,2014-01-03 22:56:00,
2014-01-03 16:57:00,21.2,13.9,28.64,SSW,202,12.5,12.5,73,0.00,,,0.00,0.00,VWS V14.01,2014-01-03 22:57:00,
2014-01-03 16:58:00,21.0,13.7,28.64,SSE,158,11.9,12.5,73,0.00,,,0.00,0.00,VWS V14.01,2014-01-03 22:58:00,
2014-01-03 16:59:00,21.2,14.2,28.64,SSE,158,5.4,11.9,74,0.00,,,0.00,0.00,VWS V14.01,2014-01-03 22:59:00,
2014-01-03 17:00:00,21.2,14.2,28.64,East,90,3.8,6.5,74,0.00,,,0.00,0.00,VWS V14.01,2014-01-03 23:00:00,
2014-01-03 17:01:00,21.2,14.2,28.64,SSW,202,6.0,7.2,74,0.00,,,0.00,0.00,VWS V14.01,2014-01-03 23:01:00,
2014-01-03 17:02:00,21.2,14.2,28.64,SSE,158,6.5,7.2,74,0.00,,,0.00,0.00,VWS V14.01,2014-01-03 23:02:00,
2014-01-03 17:03:00,21.2,14.2,28.61,SSW,202,5.4,8.1,74,0.00,,,0.00,0.00,VWS V14.01,2014-01-03 23:03:00,
2014-01-03 17:04:00,21.2,14.5,28.61,SSW,202,7.4,7.4,75,0.00,,,0.00,0.00,VWS V14.01,2014-01-03 23:04:00,
2014-01-03 17:05:00,21.2,14.5,28.61,SSE,158,8.7,8.7,75,0.00,,,0.00,0.00,VWS V14.01,2014-01-03 23:05:00,
2014-01-03 17:06:00,21.2,14.5,28.61,SE,135,12.5,12.5,75,0.00,,,0.00,0.00,VWS V14.01,2014-01-03 23:06:00,
2014-01-03 17:07:00,21.2,14.5,28.61,SE,135,12.5,12.5,75,0.00,,,0.00,0.00,VWS V14.01,2014-01-03 23:07:00,
2014-01-03 17:08:00,21.2,14.8,28.61,SSW,202,7.6,12.5,76,0.00,,,0.00,0.00,VWS V14.01,2014-01-03 23:08:00,
2014-01-03 17:09:00,21.2,14.8,28.61,SSE,158,6.3,7.6,76,0.00,,,0.00,0.00,VWS V14.01,2014-01-03 23:09:00,
2014-01-03 17:10:00,21.2,14.8,28.61,SSE,158,7.8,10.3,76,0.00,,,0.00,0.00,VWS V14.01,2014-01-03 23:10:00,
2014-01-03 17:11:00,21.2,14.8,28.61,SSE,158,8.1,11.9,76,0.00,,,0.00,0.00,VWS V14.01,2014-01-03 23:11:00,
2014-01-03 17:12:00,21.2,14.8,28.61,SSE,158,8.5,10.3,76,0.00,,,0.00,0.00,VWS V14.01,2014-01-03 23:12:00,
2014-01-03 17:13:00,21.2,14.8,28.61,SE,135,9.8,12.3,76,0.00,,,0.00,0.00,VWS V14.01,2014-01-03 23:13:00,
2014-01-03 17:14:00,22.3,15.3,28.61,SSE,158,4.0,6.5,74,0.00,,,0.00,0.00,VWS V14.01,2014-01-03 23:14:00,
2014-01-03 17:15:00,21.4,15.0,28.61,South,180,4.3,9.8,76,0.00,,,0.00,0.00,VWS V14.01,2014-01-03 23:15:00,
2014-01-03 17:16:00,21.4,15.0,28.61,SSE,158,5.4,7.8,76,0.00,,,0.00,0.00,VWS V14.01,2014-01-03 23:16:00,
2014-01-03 17:17:00,21.4,15.0,28.61,SSE,158,5.4,5.4,76,0.00,,,0.00,0.00,VWS V14.01,2014-01-03 23:17:00,
2014-01-03 17:18:00,21.4,15.0,28.61,South,180,11.9,11.9,76,0.00,,,0.00,0.00,VWS V14.01,2014-01-03 23:18:00,
2014-01-03 17:19:00,21.4,15.0,28.61,SSE,158,8.1,11.9,76,0.00,,,0.00,0.00,VWS V14.01,2014-01-03 23:19:00,
2014-01-03 17:20:00,22.3,15.3,28.61,SSE,158,4.0,4.0,74,0.00,,,0.00,0.00,VWS V14.01,2014-01-03 23:20:00,
2014-01-03 17:21:00,21.4,15.0,28.61,SSE,158,8.1,8.1,76,0.00,,,0.00,0.00,VWS V14.01,2014-01-03 23:21:00,
2014-01-03 17:22:00,21.4,15.0,28.61,SSE,158,8.1,8.1,76,0.00,,,0.00,0.00,VWS V14.01,2014-01-03 23:22:00,
2014-01-03 17:23:00,21.4,14.7,28.61,SSE,158,7.4,9.8,75,0.00,,,0.00,0.00,VWS V14.01,2014-01-03 23:23:00,
2014-01-03 17:24:00,22.5,15.1,28.61,South,180,4.0,11.0,73,0.00,,,0.00,0.00,VWS V14.01,2014-01-03 23:24:00,
2014-01-03 17:25:00,21.4,14.7,28.61,SSE,158,7.8,7.8,75,0.00,,,0.00,0.00,VWS V14.01,2014-01-03 23:25:00,
2014-01-03 17:26:00,21.4,14.7,28.61,SSW,202,15.2,20.6,75,0.00,,,0.00,0.00,VWS V14.01,2014-01-03 23:26:00,
2014-01-03 17:27:00,21.6,15.2,28.61,SSE,158,13.2,15.2,76,0.00,,,0.00,0.00,VWS V14.01,2014-01-03 23:27:00,
2014-01-03 17:28:00,21.6,14.9,28.61,SSW,202,11.0,13.2,75,0.00,,,0.00,0.00,VWS V14.01,2014-01-03 23:28:00,
2014-01-03 17:29:00,21.7,15.1,28.61,South,180,7.8,15.2,75,0.00,,,0.00,0.00,VWS V14.01,2014-01-03 23:29:00,
2014-01-03 17:30:00,21.7,15.1,28.61,South,180,11.0,11.0,75,0.00,,,0.00,0.00,VWS V14.01,2014-01-03 23:30:00,
2014-01-03 17:31:00,21.9,15.2,28.61,SSE,158,10.7,11.0,75,0.00,,,0.00,0.00,VWS V14.01,2014-01-03 23:31:00,
2014-01-03 17:32:00,21.9,15.2,28.61,South,180,4.3,12.3,75,0.00,,,0.00,0.00,VWS V14.01,2014-01-03 23:32:00,
2014-01-03 17:33:00,21.9,15.2,28.61,SSW,202,7.8,8.1,75,0.00,,,0.00,0.00,VWS V14.01,2014-01-03 23:33:00,
2014-01-03 17:34:00,21.9,15.2,28.61,SSE,158,7.4,7.8,75,0.00,,,0.00,0.00,VWS V14.01,2014-01-03 23:34:00,
2014-01-03 17:35:00,21.9,15.2,28.61,South,180,4.3,7.4,75,0.00,,,0.00,0.00,VWS V14.01,2014-01-03 23:35:00,
2014-01-03 17:36:00,21.9,15.2,28.61,SSE,158,5.6,5.6,75,0.00,,,0.00,0.00,VWS V14.01,2014-01-03 23:36:00,
2014-01-03 17:37:00,21.9,15.2,28.61,SSW,202,6.5,8.1,75,0.00,,,0.00,0.00,VWS V14.01,2014-01-03 23:37:00,
2014-01-03 17:38:00,21.9,15.2,28.61,SSE,158,8.5,8.5,75,0.00,,,0.00,0.00,VWS V14.01,2014-01-03 23:38:00,
2014-01-03 17:39:00,21.9,15.2,28.61,SSE,158,6.3,8.5,75,0.00,,,0.00,0.00,VWS V14.01,2014-01-03 23:39:00,
2014-01-03 17:40:00,21.9,14.9,28.61,South,180,10.5,16.8,74,0.00,,,0.00,0.00,VWS V14.01,2014-01-03 23:40:00,
2014-01-03 17:41:00,21.9,14.9,28.61,ESE,112,8.5,12.8,74,0.00,,,0.00,0.00,VWS V14.01,2014-01-03 23:41:00,
2014-01-03 17:42:00,21.9,14.9,28.61,ESE,112,8.7,10.5,74,0.00,,,0.00,0.00,VWS V14.01,2014-01-03 23:42:00,
2014-01-03 17:43:00,21.9,14.9,28.61,SSW,202,10.7,10.7,74,0.00,,,0.00,0.00,VWS V14.01,2014-01-03 23:43:00,
2014-01-03 17:44:00,21.9,14.9,28.61,SSE,158,6.9,10.7,74,0.00,,,0.00,0.00,VWS V14.01,2014-01-03 23:44:00,
2014-01-03 17:45:00,22.5,15.4,28.61,South,180,5.4,5.4,74,0.00,,,0.00,0.00,VWS V14.01,2014-01-03 23:45:00,
2014-01-03 17:46:00,21.9,14.9,28.61,South,180,7.2,7.4,74,0.00,,,0.00,0.00,VWS V14.01,2014-01-03 23:46:00,
2014-01-03 17:47:00,21.9,14.6,28.61,SSE,158,5.6,7.2,73,0.00,,,0.00,0.00,VWS V14.01,2014-01-03 23:47:00,
2014-01-03 17:48:00,21.9,14.6,28.61,SSE,158,12.3,12.3,73,0.00,,,0.00,0.00,VWS V14.01,2014-01-03 23:48:00,
2014-01-03 17:49:00,21.9,14.6,28.61,SSE,158,7.8,12.3,73,0.00,,,0.00,0.00,VWS V14.01,2014-01-03 23:49:00,
2014-01-03 17:50:00,21.9,14.6,28.61,SSE,158,10.7,13.2,73,0.00,,,0.00,0.00,VWS V14.01,2014-01-03 23:50:00,
2014-01-03 17:51:00,21.9,14.6,28.61,SSW,202,9.8,10.7,73,0.00,,,0.00,0.00,VWS V14.01,2014-01-03 23:51:00,
2014-01-03 17:52:00,21.9,14.6,28.61,SSW,202,9.8,10.7,73,0.00,,,0.00,0.00,VWS V14.01,2014-01-03 23:52:00,
2014-01-03 17:53:00,22.1,14.8,28.61,South,180,10.7,10.7,73,0.00,,,0.00,0.00,VWS V14.01,2014-01-03 23:53:00,
2014-01-03 17:54:00,22.1,14.8,28.61,SSE,158,7.4,12.5,73,0.00,,,0.00,0.00,VWS V14.01,2014-01-03 23:54:00,
2014-01-03 17:55:00,22.1,14.8,28.61,SSE,158,7.4,7.4,73,0.00,,,0.00,0.00,VWS V14.01,2014-01-03 23:55:00,
2014-01-03 17:56:00,22.1,14.8,28.61,South,180,5.6,7.4,73,0.00,,,0.00,0.00,VWS V14.01,2014-01-03 23:56:00,
2014-01-03 17:57:00,22.1,14.8,28.61,SSE,158,10.7,10.7,73,0.00,,,0.00,0.00,VWS V14.01,2014-01-03 23:57:00,
2014-01-03 17:58:00,22.1,14.8,28.61,SE,135,8.7,10.7,73,0.00,,,0.00,0.00,VWS V14.01,2014-01-03 23:58:00,
2014-01-03 17:59:00,22.1,14.8,28.61,SSE,158,7.8,10.1,73,0.00,,,0.00,0.00,VWS V14.01,2014-01-03 23:59:00,
2014-01-03 18:00:00,22.1,14.8,28.61,SSE,158,7.8,9.8,73,0.00,,,0.00,0.00,VWS V14.01,2014-01-04 00:00:00,
2014-01-03 18:01:00,22.1,14.8,28.61,SSE,158,15.4,15.4,73,0.00,,,0.00,0.00,VWS V14.01,2014-01-04 00:01:00,
2014-01-03 18:02:00,22.1,14.8,28.61,SSE,158,10.1,15.4,73,0.00,,,0.00,0.00,VWS V14.01,2014-01-04 00:02:00,
2014-01-03 18:03:00,22.3,14.9,28.61,SSW,202,5.4,10.1,73,0.00,,,0.00,0.00,VWS V14.01,2014-01-04 00:03:00,
2014-01-03 18:04:00,22.3,14.9,28.61,ESE,112,10.3,15.4,73,0.00,,,0.00,0.00,VWS V14.01,2014-01-04 00:04:00,
2014-01-03 18:05:00,22.3,15.0,28.61,SSE,158,8.5,11.2,73,0.00,,,0.00,0.00,VWS V14.01,2014-01-04 00:05:00,
2014-01-03 18:06:00,22.3,14.9,28.61,SSE,158,8.5,11.2,73,0.00,,,0.00,0.00,VWS V14.01,2014-01-04 00:06:00,
2014-01-03 18:07:00,22.3,14.9,28.61,SSW,202,7.4,9.8,73,0.00,,,0.00,0.00,VWS V14.01,2014-01-04 00:07:00,
2014-01-03 18:08:00,22.3,14.9,28.61,South,180,6.5,8.1,73,0.00,,,0.00,0.00,VWS V14.01,2014-01-04 00:08:00,
2014-01-03 18:09:00,22.3,14.9,28.61,SSE,158,8.5,9.8,73,0.00,,,0.00,0.00,VWS V14.01,2014-01-04 00:09:00,
2014-01-03 18:10:00,22.3,15.0,28.61,South,180,8.7,8.7,73,0.00,,,0.00,0.00,VWS V14.01,2014-01-04 00:10:00,
2014-01-03 18:11:00,22.3,14.9,28.61,SE,135,9.6,9.6,73,0.00,,,0.00,0.00,VWS V14.01,2014-01-04 00:11:00,
2014-01-03 18:12:00,22.3,14.9,28.61,South,180,6.0,9.6,73,0.00,,,0.00,0.00,VWS V14.01,2014-01-04 00:12:00,
2014-01-03 18:13:00,22.3,15.3,28.61,SSE,158,6.5,7.2,74,0.00,,,0.00,0.00,VWS V14.01,2014-01-04 00:13:00,
2014-01-03 18:14:00,22.3,15.3,28.61,SSE,158,4.0,6.5,74,0.00,,,0.00,0.00,VWS V14.01,2014-01-04 00:14:00,
2014-01-03 18:15:00,22.3,15.3,28.61,South,180,8.1,10.3,74,0.00,,,0.00,0.00,VWS V14.01,2014-01-04 00:15:00,
2014-01-03 18:16:00,22.3,15.3,28.61,South,180,8.1,10.3,74,0.00,,,0.00,0.00,VWS V14.01,2014-01-04 00:16:00,
2014-01-03 18:17:00,22.3,15.3,28.61,SSE,158,7.8,8.1,74,0.00,,,0.00,0.00,VWS V14.01,2014-01-04 00:17:00,
2014-01-03 18:18:00,22.3,15.3,28.61,SSE,158,5.4,5.4,74,0.00,,,0.00,0.00,VWS V14.01,2014-01-04 00:18:00,
2014-01-03 18:19:00,22.3,15.3,28.61,SSE,158,4.0,8.1,74,0.00,,,0.00,0.00,VWS V14.01,2014-01-04 00:19:00,
2014-01-03 18:20:00,22.3,15.3,28.61,SSE,158,4.0,4.0,74,0.00,,,0.00,0.00,VWS V14.01,2014-01-04 00:20:00,
2014-01-03 18:21:00,22.3,14.9,28.61,SSE,158,7.6,19.9,73,0.00,,,0.00,0.00,VWS V14.01,2014-01-04 00:21:00,
2014-01-03 18:22:00,22.5,15.1,28.61,SSE,158,10.7,10.7,73,0.00,,,0.00,0.00,VWS V14.01,2014-01-04 00:22:00,
2014-01-03 18:23:00,22.5,15.1,28.61,South,180,4.0,11.0,73,0.00,,,0.00,0.00,VWS V14.01,2014-01-04 00:23:00,
2014-01-03 18:24:00,22.5,15.1,28.61,South,180,4.0,11.0,73,0.00,,,0.00,0.00,VWS V14.01,2014-01-04 00:24:00,
2014-01-03 18:25:00,22.5,15.1,28.61,SSW,202,7.6,12.1,73,0.00,,,0.00,0.00,VWS V14.01,2014-01-04 00:25:00,
2014-01-03 18:26:00,22.5,15.1,28.61,SSE,158,9.6,9.6,73,0.00,,,0.00,0.00,VWS V14.01,2014-01-04 00:26:00,
2014-01-03 18:27:00,22.5,15.4,28.61,ESE,112,6.5,9.6,74,0.00,,,0.00,0.00,VWS V14.01,2014-01-04 00:27:00,
2014-01-03 18:28:00,22.5,15.4,28.61,ESE,112,6.5,9.6,74,0.00,,,0.00,0.00,VWS V14.01,2014-01-04 00:28:00,
2014-01-03 18:29:00,22.5,15.4,28.61,South,180,5.8,6.5,74,0.00,,,0.00,0.00,VWS V14.01,2014-01-04 00:29:00,
2014-01-03 18:30:00,22.5,15.4,28.61,SSW,202,8.7,10.3,74,0.00,,,0.00,0.00,VWS V14.01,2014-01-04 00:30:00,
2014-01-03 18:31:00,22.5,15.4,28.61,SSE,158,9.6,9.6,74,0.00,,,0.00,0.00,VWS V14.01,2014-01-04 00:31:00,
2014-01-03 18:32:00,22.5,15.4,28.61,SSE,158,6.3,9.6,74,0.00,,,0.00,0.00,VWS V14.01,2014-01-04 00:32:00,
2014-01-03 18:33:00,22.5,15.4,28.61,SSW,202,5.6,9.4,74,0.00,,,0.00,0.00,VWS V14.01,2014-01-04 00:33:00,
2014-01-03 18:34:00,22.5,15.4,28.61,South,180,6.3,9.6,74,0.00,,,0.00,0.00,VWS V14.01,2014-01-04 00:34:00,
2014-01-03 18:35:00,22.6,15.6,28.61,South,180,8.7,8.7,74,0.00,,,0.00,0.00,VWS V14.01,2014-01-04 00:35:00,
2014-01-03 18:36:00,22.6,15.6,28.61,SSE,158,5.4,8.7,74,0.00,,,0.00,0.00,VWS V14.01,2014-01-04 00:36:00,
2014-01-03 18:37:00,22.6,15.6,28.61,SSE,158,9.6,9.6,74,0.00,,,0.00,0.00,VWS V14.01,2014-01-04 00:37:00,
2014-01-03 18:38:00,22.6,15.6,28.61,SSW,202,6.0,6.3,74,0.00,,,0.00,0.00,VWS V14.01,2014-01-04 00:38:00,
2014-01-03 18:39:00,22.6,15.3,28.61,SSE,158,10.3,14.5,73,0.00,,,0.00,0.00,VWS V14.01,2014-01-04 00:39:00,
2014-01-03 18:40:00,22.6,15.3,28.61,SE,135,5.6,10.3,73,0.00,,,0.00,0.00,VWS V14.01,2014-01-04 00:40:00,
2014-01-03 18:41:00,22.6,15.3,28.61,SSW,202,8.5,8.5,73,0.00,,,0.00,0.00,VWS V14.01,2014-01-04 00:41:00,
2014-01-03 18:42:00,22.5,15.4,28.61,SSW,202,6.5,8.5,74,0.00,,,0.00,0.00,VWS V14.01,2014-01-04 00:42:00,
2014-01-03 18:43:00,22.5,15.4,28.61,SSE,158,8.5,8.5,74,0.00,,,0.00,0.00,VWS V14.01,2014-01-04 00:43:00,
2014-01-03 18:44:00,22.5,15.4,28.61,SSW,202,3.4,8.5,74,0.00,,,0.00,0.00,VWS V14.01,2014-01-04 00:44:00,
2014-01-03 18:45:00,22.5,15.4,28.61,South,180,5.4,5.4,74,0.00,,,0.00,0.00,VWS V14.01,2014-01-04 00:45:00,
2014-01-03 18:46:00,22.5,15.4,28.61,SSE,158,6.3,6.3,74,0.00,,,0.00,0.00,VWS V14.01,2014-01-04 00:46:00,
2014-01-03 18:47:00,22.5,15.4,28.61,SSW,202,8.7,10.7,74,0.00,,,0.00,0.00,VWS V14.01,2014-01-04 00:47:00,
2014-01-03 18:48:00,22.5,15.4,28.61,South,180,12.1,12.1,74,0.00,,,0.00,0.00,VWS V14.01,2014-01-04 00:48:00,
2014-01-03 18:49:00,22.5,15.4,28.61,South,180,12.8,12.8,74,0.00,,,0.00,0.00,VWS V14.01,2014-01-04 00:49:00,
2014-01-03 18:50:00,22.6,15.6,28.61,South,180,5.6,12.8,74,0.00,,,0.00,0.00,VWS V14.01,2014-01-04 00:50:00,
2014-01-03 18:51:00,22.6,15.6,28.61,SSE,158,6.0,6.0,74,0.00,,,0.00,0.00,VWS V14.01,2014-01-04 00:51:00,
2014-01-03 18:52:00,22.6,15.6,28.61,SSW,202,5.4,7.6,74,0.00,,,0.00,0.00,VWS V14.01,2014-01-04 00:52:00,
2014-01-03 18:53:00,22.6,15.6,28.61,SSW,202,6.7,10.5,74,0.00,,,0.00,0.00,VWS V14.01,2014-01-04 00:53:00,
2014-01-03 18:54:00,22.6,15.6,28.61,SSE,158,7.4,7.4,74,0.00,,,0.00,0.00,VWS V14.01,2014-01-04 00:54:00,
2014-01-03 18:55:00,22.6,15.6,28.61,East,90,7.8,8.1,74,0.00,,,0.00,0.00,VWS V14.01,2014-01-04 00:55:00,
2014-01-03 18:56:00,22.8,15.8,28.61,SW,225,7.8,11.0,74,0.00,,,0.00,0.00,VWS V14.01,2014-01-04 00:56:00,
2014-01-03 18:57:00,22.8,15.8,28.61,SSW,202,5.8,7.8,74,0.00,,,0.00,0.00,VWS V14.01,2014-01-04 00:57:00,
2014-01-03 18:58:00,22.8,15.8,28.61,South,180,10.1,10.1,74,0.00,,,0.00,0.00,VWS V14.01,2014-01-04 00:58:00,
2014-01-03 18:59:00,22.8,15.8,28.61,ESE,112,12.1,12.1,74,0.00,,,0.00,0.00,VWS V14.01,2014-01-04 00:59:00,
2014-01-03 19:00:00,22.8,15.8,28.61,SSE,158,4.9,12.1,74,0.00,,,0.00,0.00,VWS V14.01,2014-01-04 01:00:00,
2014-01-03 19:01:00,22.8,15.8,28.61,SSE,158,4.9,6.0,74,0.00,,,0.00,0.00,VWS V14.01,2014-01-04 01:01:00,
2014-01-03 19:02:00,22.8,15.8,28.61,SW,225,2.7,4.7,74,0.00,,,0.00,0.00,VWS V14.01,2014-01-04 01:02:00,
2014-01-03 19:03:00,22.8,15.8,28.61,SSW,202,4.5,4.7,74,0.00,,,0.00,0.00,VWS V14.01,2014-01-04 01:03:00,
2014-01-03 19:04:00,25.0,17.2,28.55,South,180,12.5,12.5,72,0.00,,,0.00,0.00,VWS V14.01,2014-01-04 01:04:00,
2014-01-03 19:05:00,22.8,15.8,28.61,South,180,7.4,7.4,74,0.00,,,0.00,0.00,VWS V14.01,2014-01-04 01:05:00,
2014-01-03 19:06:00,23.0,16.0,28.61,South,180,5.8,9.6,74,0.00,,,0.00,0.00,VWS V14.01,2014-01-04 01:06:00,
2014-01-03 19:07:00,23.0,16.0,28.61,SSW,202,6.5,12.1,74,0.00,,,0.00,0.00,VWS V14.01,2014-01-04 01:07:00,
2014-01-03 19:08:00,23.0,16.0,28.61,SSW,202,6.5,12.1,74,0.00,,,0.00,0.00,VWS V14.01,2014-01-04 01:08:00,
2014-01-03 19:09:00,23.2,16.1,28.61,SW,225,12.5,12.5,74,0.00,,,0.00,0.00,VWS V14.01,2014-01-04 01:09:00,
2014-01-03 19:10:00,23.2,15.8,28.61,SSE,158,7.8,12.5,73,0.00,,,0.00,0.00,VWS V14.01,2014-01-04 01:10:00,
2014-01-03 19:11:00,23.4,16.0,28.61,SSE,158,8.7,10.3,73,0.00,,,0.00,0.00,VWS V14.01,2014-01-04 01:11:00,
2014-01-03 19:12:00,23.4,16.0,28.61,SSE,158,6.5,12.1,73,0.00,,,0.00,0.00,VWS V14.01,2014-01-04 01:12:00,
2014-01-03 19:13:00,23.4,16.0,28.61,SSE,158,6.5,12.1,73,0.00,,,0.00,0.00,VWS V14.01,2014-01-04 01:13:00,
2014-01-03 19:14:00,23.4,16.0,28.61,SSW,202,7.4,7.4,73,0.00,,,0.00,0.00,VWS V14.01,2014-01-04 01:14:00,
2014-01-03 19:15:00,23.4,16.0,28.61,SSE,158,8.7,8.7,73,0.00,,,0.00,0.00,VWS V14.01,2014-01-04 01:15:00,
2014-01-03 19:16:00,23.4,16.0,28.61,SSE,158,7.4,9.0,73,0.00,,,0.00,0.00,VWS V14.01,2014-01-04 01:16:00,
2014-01-03 19:17:00,23.4,16.0,28.58,SE,135,13.0,13.0,73,0.00,,,0.00,0.00,VWS V14.01,2014-01-04 01:17:00,
2014-01-03 19:18:00,23.4,16.0,28.58,SE,135,13.0,13.0,73,0.00,,,0.00,0.00,VWS V14.01,2014-01-04 01:18:00,
2014-01-03 19:19:00,23.4,16.0,28.58,SSW,202,4.3,13.0,73,0.00,,,0.00,0.00,VWS V14.01,2014-01-04 01:19:00,
2014-01-03 19:20:00,23.4,16.0,28.58,SSW,202,4.0,4.9,73,0.00,,,0.00,0.00,VWS V14.01,2014-01-04 01:20:00,
2014-01-03 19:21:00,23.4,16.0,28.58,South,180,5.4,7.8,73,0.00,,,0.00,0.00,VWS V14.01,2014-01-04 01:21:00,
2014-01-03 19:22:00,23.5,16.2,28.58,SSE,158,9.8,10.7,73,0.00,,,0.00,0.00,VWS V14.01,2014-01-04 01:22:00,
2014-01-03 19:23:00,23.5,16.2,28.58,SSE,158,9.8,10.7,73,0.00,,,0.00,0.00,VWS V14.01,2014-01-04 01:23:00,
2014-01-03 19:24:00,25.7,17.9,28.55,South,180,10.3,12.5,72,0.00,,,0.00,0.00,VWS V14.01,2014-01-04 01:24:00,
2014-01-03 19:25:00,23.5,16.2,28.58,South,180,8.5,12.8,73,0.00,,,0.00,0.00,VWS V14.01,2014-01-04 01:25:00,
2014-01-03 19:26:00,23.5,16.2,28.58,South,180,8.1,8.5,73,0.00,,,0.00,0.00,VWS V14.01,2014-01-04 01:26:00,
2014-01-03 19:27:00,23.7,16.4,28.58,SSE,158,9.8,11.0,73,0.00,,,0.00,0.00,VWS V14.01,2014-01-04 01:27:00,
2014-01-03 19:28:00,23.7,16.4,28.58,South,180,6.9,11.0,73,0.00,,,0.00,0.00,VWS V14.01,2014-01-04 01:28:00,
2014-01-03 19:29:00,23.7,16.4,28.58,South,180,8.1,8.1,73,0.00,,,0.00,0.00,VWS V14.01,2014-01-04 01:29:00,
2014-01-03 19:30:00,23.7,16.4,28.58,East,90,6.0,11.4,73,0.00,,,0.00,0.00,VWS V14.01,2014-01-04 01:30:00,
2014-01-03 19:31:00,23.7,16.4,28.58,SE,135,9.6,9.6,73,0.00,,,0.00,0.00,VWS V14.01,2014-01-04 01:31:00,
2014-01-03 19:32:00,23.9,16.5,28.58,SE,135,3.6,9.6,73,0.00,,,0.00,0.00,VWS V14.01,2014-01-04 01:32:00,
2014-01-03 19:33:00,23.9,16.5,28.58,SSE,158,4.5,9.6,73,0.00,,,0.00,0.00,VWS V14.01,2014-01-04 01:33:00,
2014-01-03 19:34:00,23.9,16.5,28.58,SSW,202,7.6,7.6,73,0.00,,,0.00,0.00,VWS V14.01,2014-01-04 01:34:00,
2014-01-03 19:35:00,23.9,16.5,28.58,SSE,158,8.1,8.7,73,0.00,,,0.00,0.00,VWS V14.01,2014-01-04 01:35:00,
2014-01-03 19:36:00,23.9,16.5,28.58,SSE,158,11.2,11.2,73,0.00,,,0.00,0.00,VWS V14.01,2014-01-04 01:36:00,
2014-01-03 19:37:00,23.9,16.5,28.58,SSE,158,6.3,8.5,73,0.00,,,0.00,0.00,VWS V14.01,2014-01-04 01:37:00,
2014-01-03 19:38:00,23.9,16.5,28.58,SSW,202,3.4,8.5,73,0.00,,,0.00,0.00,VWS V14.01,2014-01-04 01:38:00,
2014-01-03 19:39:00,24.1,16.7,28.58,SSW,202,12.1,12.1,73,0.00,,,0.00,0.00,VWS V14.01,2014-01-04 01:39:00,
2014-01-03 19:40:00,24.1,16.7,28.58,South,180,10.3,12.1,73,0.00,,,0.00,0.00,VWS V14.01,2014-01-04 01:40:00,
2014-01-03 19:41:00,24.1,16.7,28.58,SSE,158,8.5,10.5,73,0.00,,,0.00,0.00,VWS V14.01,2014-01-04 01:41:00,
2014-01-03 19:42:00,24.3,16.9,28.58,SSE,158,7.6,9.8,73,0.00,,,0.00,0.00,VWS V14.01,2014-01-04 01:42:00,
2014-01-03 19:43:00,24.3,16.9,28.58,SSE,158,12.8,12.8,73,0.00,,,0.00,0.00,VWS V14.01,2014-01-04 01:43:00,
2014-01-03 19:44:00,24.4,17.0,28.58,WNW,292,12.5,12.8,73,0.00,,,0.00,0.00,VWS V14.01,2014-01-04 01:44:00,
2014-01-03 19:45:00,24.4,17.0,28.58,SSE,158,5.8,12.5,73,0.00,,,0.00,0.00,VWS V14.01,2014-01-04 01:45:00,
2014-01-03 19:46:00,24.4,17.0,28.58,SE,135,8.7,8.7,73,0.00,,,0.00,0.00,VWS V14.01,2014-01-04 01:46:00,
2014-01-03 19:47:00,24.4,17.0,28.55,South,180,10.7,10.7,73,0.00,,,0.00,0.00,VWS V14.01,2014-01-04 01:47:00,
2014-01-03 19:48:00,24.4,17.0,28.55,South,180,10.7,10.7,73,0.00,,,0.00,0.00,VWS V14.01,2014-01-04 01:48:00,
2014-01-03 19:49:00,24.4,17.0,28.55,SSW,202,10.3,12.3,73,0.00,,,0.00,0.00,VWS V14.01,2014-01-04 01:49:00,
2014-01-03 19:50:00,24.6,16.9,28.55,South,180,4.0,10.3,72,0.00,,,0.00,0.00,VWS V14.01,2014-01-04 01:50:00,
2014-01-03 19:51:00,24.6,16.9,28.55,SSW,202,7.6,8.5,72,0.00,,,0.00,0.00,VWS V14.01,2014-01-04 01:51:00,
2014-01-03 19:52:00,24.6,16.9,28.55,SSW,202,6.5,10.7,72,0.00,,,0.00,0.00,VWS V14.01,2014-01-04 01:52:00,
2014-01-03 19:53:00,24.6,16.9,28.55,SSW,202,5.6,10.7,72,0.00,,,0.00,0.00,VWS V14.01,2014-01-04 01:53:00,
2014-01-03 19:54:00,24.8,17.1,28.55,South,180,6.5,6.5,72,0.00,,,0.00,0.00,VWS V14.01,2014-01-04 01:54:00,
2014-01-03 19:55:00,24.8,17.1,28.55,SSW,202,9.8,9.8,72,0.00,,,0.00,0.00,VWS V14.01,2014-01-04 01:55:00,
2014-01-03 19:56:00,24.8,17.1,28.55,WSW,248,8.7,10.7,72,0.00,,,0.00,0.00,VWS V14.01,2014-01-04 01:56:00,
2014-01-03 19:57:00,24.8,17.1,28.55,South,180,12.5,12.5,72,0.00,,,0.00,0.00,VWS V14.01,2014-01-04 01:57:00,
2014-01-03 19:58:00,24.8,17.1,28.55,South,180,12.5,12.5,72,0.00,,,0.00,0.00,VWS V14.01,2014-01-04 01:58:00,
2014-01-03 19:59:00,24.8,17.1,28.55,South,180,12.5,12.5,72,0.00,,,0.00,0.00,VWS V14.01,2014-01-04 01:59:00,
2014-01-03 20:00:00,24.8,17.1,28.55,South,180,12.5,12.5,72,0.00,,,0.00,0.00,VWS V14.01,2014-01-04 02:00:00,
2014-01-03 20:01:00,25.0,17.2,28.55,South,180,12.5,12.5,72,0.00,,,0.00,0.00,VWS V14.01,2014-01-04 02:01:00,
2014-01-03 20:02:00,25.0,17.2,28.55,South,180,12.5,12.5,72,0.00,,,0.00,0.00,VWS V14.01,2014-01-04 02:02:00,
2014-01-03 20:03:00,25.0,17.2,28.55,South,180,12.5,12.5,72,0.00,,,0.00,0.00,VWS V14.01,2014-01-04 02:03:00,
2014-01-03 20:04:00,25.0,17.2,28.55,South,180,12.5,12.5,72,0.00,,,0.00,0.00,VWS V14.01,2014-01-04 02:04:00,
2014-01-03 20:05:00,25.2,17.4,28.55,South,180,12.5,12.5,72,0.00,,,0.00,0.00,VWS V14.01,2014-01-04 02:05:00,
2014-01-03 20:06:00,25.2,17.4,28.55,South,180,12.5,12.5,72,0.00,,,0.00,0.00,VWS V14.01,2014-01-04 02:06:00,
2014-01-03 20:07:00,25.2,17.4,28.55,South,180,12.5,12.5,72,0.00,,,0.00,0.00,VWS V14.01,2014-01-04 02:07:00,
2014-01-03 20:08:00,25.2,17.4,28.55,South,180,12.5,12.5,72,0.00,,,0.00,0.00,VWS V14.01,2014-01-04 02:08:00,
2014-01-03 20:09:00,25.2,17.4,28.55,South,180,12.5,12.5,72,0.00,,,0.00,0.00,VWS V14.01,2014-01-04 02:09:00,
2014-01-03 20:10:00,25.3,17.6,28.55,South,180,12.5,12.5,72,0.00,,,0.00,0.00,VWS V14.01,2014-01-04 02:10:00,
2014-01-03 20:11:00,25.3,17.6,28.55,South,180,12.5,12.5,72,0.00,,,0.00,0.00,VWS V14.01,2014-01-04 02:11:00,
2014-01-03 20:12:00,25.3,17.6,28.55,South,180,12.5,12.5,72,0.00,,,0.00,0.00,VWS V14.01,2014-01-04 02:12:00,
2014-01-03 20:13:00,25.3,17.6,28.55,South,180,12.5,12.5,72,0.00,,,0.00,0.00,VWS V14.01,2014-01-04 02:13:00,
2014-01-03 20:14:00,25.3,17.6,28.55,South,180,12.5,12.5,72,0.00,,,0.00,0.00,VWS V14.01,2014-01-04 02:14:00,
2014-01-03 20:15:00,25.3,17.6,28.55,SSE,158,6.0,12.5,72,0.00,,,0.00,0.00,VWS V14.01,2014-01-04 02:15:00,
2014-01-03 20:16:00,25.3,17.6,28.55,SSW,202,5.8,6.0,72,0.00,,,0.00,0.00,VWS V14.01,2014-01-04 02:16:00,
2014-01-03 20:17:00,25.3,17.6,28.55,SSW,202,11.0,11.0,72,0.00,,,0.00,0.00,VWS V14.01,2014-01-04 02:17:00,
2014-01-03 20:18:00,25.5,17.8,28.55,SSW,202,11.0,11.0,72,0.00,,,0.00,0.00,VWS V14.01,2014-01-04 02:18:00,
2014-01-03 20:19:00,25.5,17.8,28.55,WSW,248,13.2,13.2,72,0.00,,,0.00,0.00,VWS V14.01,2014-01-04 02:19:00,
2014-01-03 20:20:00,25.5,17.8,28.55,SW,225,10.5,13.2,72,0.00,,,0.00,0.00,VWS V14.01,2014-01-04 02:20:00,
2014-01-03 20:21:00,25.5,17.8,28.55,South,180,9.6,10.5,72,0.00,,,0.00,0.00,VWS V14.01,2014-01-04 02:21:00,
2014-01-03 20:22:00,25.5,17.8,28.55,South,180,6.5,7.8,72,0.00,,,0.00,0.00,VWS V14.01,2014-01-04 02:22:00,
2014-01-03 20:23:00,25.5,17.8,28.55,SSW,202,6.5,7.8,72,0.00,,,0.00,0.00,VWS V14.01,2014-01-04 02:23:00,
2014-01-03 20:24:00,25.7,17.9,28.55,South,180,10.3,12.5,72,0.00,,,0.00,0.00,VWS V14.01,2014-01-04 02:24:00,
2014-01-03 20:25:00,25.7,17.9,28.55,South,180,10.1,10.1,72,0.00,,,0.00,0.00,VWS V14.01,2014-01-04 02:25:00,
2014-01-03 20:26:00,25.7,17.9,28.55,SSW,202,13.4,13.4,72,0.00,,,0.00,0.00,VWS V14.01,2014-01-04 02:26:00,
2014-01-03 20:27:00,25.7,17.9,28.55,South,180,13.0,13.4,72,0.00,,,0.00,0.00,VWS V14.01,2014-01-04 02:27:00,
2014-01-03 20:28:00,25.7,17.9,28.55,WSW,248,8.7,13.0,72,0.00,,,0.00,0.00,VWS V14.01,2014-01-04 02:28:00,
2014-01-03 20:30:00,25.7,17.9,28.55,SSE,158,10.1,10.1,72,0.00,,,0.00,0.00,VWS V14.01,2014-01-04 02:30:00,
2014-01-03 20:31:00,25.9,18.1,28.55,SSW,202,12.8,12.8,72,0.00,,,0.00,0.00,VWS V14.01,2014-01-04 02:31:00,
2014-01-03 20:32:00,25.9,18.1,28.55,South,180,5.8,12.8,72,0.00,,,0.00,0.00,VWS V14.01,2014-01-04 02:32:00,
2014-01-03 20:33:00,25.9,18.1,28.55,South,180,6.3,6.3,72,0.00,,,0.00,0.00,VWS V14.01,2014-01-04 02:33:00,
2014-01-03 20:34:00,25.9,18.1,28.55,SW,225,5.8,6.3,72,0.00,,,0.00,0.00,VWS V14.01,2014-01-04 02:34:00,
2014-01-03 20:35:00,25.9,18.1,28.55,SW,225,6.5,6.5,72,0.00,,,0.00,0.00,VWS V14.01,2014-01-04 02:35:00,
2014-01-03 20:36:00,25.9,18.1,28.55,South,180,9.2,9.2,72,0.00,,,0.00,0.00,VWS V14.01,2014-01-04 02:36:00,
2014-01-03 20:37:00,26.1,18.3,28.55,SSE,158,6.3,9.2,72,0.00,,,0.00,0.00,VWS V14.01,2014-01-04 02:37:00,
2014-01-03 20:38:00,26.1,18.3,28.55,SSE,158,11.0,11.0,72,0.00,,,0.00,0.00,VWS V14.01,2014-01-04 02:38:00,
2014-01-03 20:40:00,26.1,18.3,28.55,SSW,202,12.8,12.8,72,0.00,,,0.00,0.00,VWS V14.01,2014-01-04 02:40:00,
2014-01-03 20:41:00,26.1,18.0,28.55,South,180,11.2,12.8,71,0.00,,,0.00,0.00,VWS V14.01,2014-01-04 02:41:00,
2014-01-03 21:52:00,26.1,18.0,28.55,SSW,202,9.6,11.2,71,0.00,,,0.00,0.00,VWS V14.01,2014-01-04 03:52:00,
2014-01-03 21:53:00,26.1,18.0,28.55,SSW,202,9.6,9.6,71,0.00,,,0.00,0.00,VWS V14.01,2014-01-04 03:53:00,
2014-01-03 21:54:00,27.5,20.9,28.52,SSE,158,8.1,10.7,76,0.00,,,0.00,0.00,VWS V14.01,2014-01-04 03:54:00,
2014-01-03 21:55:00,27.5,20.9,28.52,SSW,202,11.9,11.9,76,0.00,,,0.00,0.00,VWS V14.01,2014-01-04 03:55:00,
2014-01-03 21:56:00,27.7,21.1,28.52,South,180,10.5,11.9,76,0.00,,,0.00,0.00,VWS V14.01,2014-01-04 03:56:00,
2014-01-03 21:57:00,27.7,21.1,28.52,WSW,248,12.8,12.8,76,0.00,,,0.00,0.00,VWS V14.01,2014-01-04 03:57:00,
2014-01-03 21:58:00,27.7,21.1,28.52,SW,225,5.6,12.8,76,0.00,,,0.00,0.00,VWS V14.01,2014-01-04 03:58:00,
2014-01-03 21:59:00,27.7,21.1,28.52,South,180,6.3,7.6,76,0.00,,,0.00,0.00,VWS V14.01,2014-01-04 03:59:00,
2014-01-03 22:00:00,27.7,21.1,28.52,South,180,10.5,10.5,76,0.00,,,0.00,0.00,VWS V14.01,2014-01-04 04:00:00,
2014-01-03 22:01:00,27.7,21.1,28.52,SSW,202,9.2,10.5,76,0.00,,,0.00,0.00,VWS V14.01,2014-01-04 04:01:00,
2014-01-03 22:02:00,27.7,21.4,28.52,WSW,248,7.4,9.2,77,0.00,,,0.00,0.00,VWS V14.01,2014-01-04 04:02:00,
2014-01-03 22:03:00,27.7,21.4,28.52,SSE,158,8.1,10.5,77,0.00,,,0.00,0.00,VWS V14.01,2014-01-04 04:03:00,
2014-01-03 22:04:00,27.7,21.4,28.52,South,180,6.5,8.1,77,0.00,,,0.00,0.00,VWS V14.01,2014-01-04 04:04:00,
2014-01-03 22:05:00,27.7,21.7,28.52,SSW,202,9.8,9.8,78,0.00,,,0.00,0.00,VWS V14.01,2014-01-04 04:05:00,
2014-01-03 22:06:00,27.7,21.7,28.52,SW,225,14.5,14.5,78,0.00,,,0.00,0.00,VWS V14.01,2014-01-04 04:06:00,
2014-01-03 22:07:00,27.7,21.7,28.52,South,180,12.8,14.5,78,0.00,,,0.00,0.00,VWS V14.01,2014-01-04 04:07:00,
2014-01-03 22:08:00,27.7,21.7,28.52,SSW,202,8.5,12.8,78,0.00,,,0.00,0.00,VWS V14.01,2014-01-04 04:08:00,
2014-01-03 22:09:00,27.5,21.9,28.52,South,180,6.3,8.5,79,0.00,,,0.00,0.00,VWS V14.01,2014-01-04 04:09:00,
2014-01-03 22:10:00,27.5,21.9,28.52,SSW,202,9.8,15.2,79,0.00,,,0.00,0.00,VWS V14.01,2014-01-04 04:10:00,
2014-01-03 22:11:00,27.5,21.9,28.52,SSW,202,7.6,9.8,79,0.00,,,0.00,0.00,VWS V14.01,2014-01-04 04:11:00,
2014-01-03 22:12:00,27.5,22.1,28.52,SSW,202,12.8,12.8,80,0.00,,,0.00,0.00,VWS V14.01,2014-01-04 04:12:00,
2014-01-03 22:13:00,27.5,22.1,28.52,SSW,202,8.1,12.8,80,0.00,,,0.00,0.00,VWS V14.01,2014-01-04 04:13:00,
2014-01-03 22:14:00,27.5,22.1,28.52,SSW,202,11.0,12.1,80,0.00,,,0.00,0.00,VWS V14.01,2014-01-04 04:14:00,
2014-01-03 22:15:00,27.5,22.1,28.52,SSW,202,6.0,11.0,80,0.00,,,0.00,0.00,VWS V14.01,2014-01-04 04:15:00,
2014-01-03 22:16:00,27.5,22.1,28.52,SSW,202,7.4,9.8,80,0.00,,,0.00,0.00,VWS V14.01,2014-01-04 04:16:00,
2014-01-03 22:17:00,27.5,22.1,28.52,South,180,11.0,11.0,80,0.00,,,0.00,0.00,VWS V14.01,2014-01-04 04:17:00,
2014-01-03 22:18:00,27.5,22.1,28.52,SSE,158,6.0,11.0,80,0.00,,,0.00,0.00,VWS V14.01,2014-01-04 04:18:00,
2014-01-03 22:19:00,27.5,22.1,28.52,SSW,202,5.6,12.3,80,0.00,,,0.00,0.00,VWS V14.01,2014-01-04 04:19:00,
2014-01-03 22:20:00,27.3,22.3,28.52,South,180,10.3,10.3,81,0.00,,,0.00,0.00,VWS V14.01,2014-01-04 04:20:00,
2014-01-03 22:21:00,27.5,22.5,28.52,SSW,202,10.5,11.4,81,0.00,,,0.00,0.00,VWS V14.01,2014-01-04 04:21:00,
2014-01-03 22:22:00,27.3,22.3,28.52,SSW,202,6.5,10.7,81,0.00,,,0.00,0.00,VWS V14.01,2014-01-04 04:22:00,
2014-01-03 22:23:00,27.3,22.3,28.52,SSW,202,10.5,10.5,81,0.00,,,0.00,0.00,VWS V14.01,2014-01-04 04:23:00,
2014-01-03 22:24:00,27.3,22.3,28.52,SSW,202,10.3,10.5,81,0.00,,,0.00,0.00,VWS V14.01,2014-01-04 04:24:00,
2014-01-03 22:25:00,27.5,22.7,28.52,South,180,13.0,13.0,82,0.00,,,0.00,0.00,VWS V14.01,2014-01-04 04:25:00,
2014-01-03 22:26:00,27.5,22.7,28.52,SSW,202,6.5,13.0,82,0.00,,,0.00,0.00,VWS V14.01,2014-01-04 04:26:00,
2014-01-03 22:27:00,27.5,23.0,28.52,SSW,202,6.0,9.6,83,0.00,,,0.00,0.00,VWS V14.01,2014-01-04 04:27:00,
2014-01-03 22:28:00,27.5,23.0,28.52,SSW,202,11.0,11.0,83,0.00,,,0.00,0.00,VWS V14.01,2014-01-04 04:28:00,
2014-01-03 22:29:00,27.5,23.0,28.52,SSE,158,6.5,11.0,83,0.00,,,0.00,0.00,VWS V14.01,2014-01-04 04:29:00,
2014-01-03 22:30:00,27.5,23.0,28.52,South,180,9.6,9.6,83,0.00,,,0.00,0.00,VWS V14.01,2014-01-04 04:30:00,
2014-01-03 22:31:00,27.5,23.0,28.52,ESE,112,7.4,9.6,83,0.00,,,0.00,0.00,VWS V14.01,2014-01-04 04:31:00,
2014-01-03 22:32:00,27.5,23.0,28.52,South,180,11.2,11.9,83,0.00,,,0.00,0.00,VWS V14.01,2014-01-04 04:32:00,
2014-01-03 22:33:00,27.5,23.3,28.47,SSW,202,8.7,11.2,84,0.00,,,0.00,0.00,VWS V14.01,2014-01-04 04:33:00,
2014-01-03 22:34:00,27.5,23.3,28.47,SSW,202,8.5,10.7,84,0.00,,,0.00,0.00,VWS V14.01,2014-01-04 04:34:00,
2014-01-03 22:35:00,27.5,23.6,28.47,ESE,112,6.0,10.1,85,0.00,,,0.00,0.00,VWS V14.01,2014-01-04 04:35:00,
2014-01-03 22:36:00,27.5,23.6,28.47,SSE,158,6.7,6.7,85,0.00,,,0.00,0.00,VWS V14.01,2014-01-04 04:36:00,
2014-01-03 22:37:00,27.5,23.6,28.47,SSW,202,8.5,8.5,85,0.00,,,0.00,0.00,VWS V14.01,2014-01-04 04:37:00,
2014-01-03 22:38:00,27.5,23.6,28.47,SSW,202,9.8,11.9,85,0.00,,,0.00,0.00,VWS V14.01,2014-01-04 04:38:00,
2014-01-03 22:39:00,27.5,23.9,28.47,SSE,158,9.6,9.8,86,0.00,,,0.00,0.00,VWS V14.01,2014-01-04 04:39:00,
2014-01-03 22:40:00,27.5,23.9,28.47,SSW,202,8.5,9.6,86,0.00,,,0.00,0.00,VWS V14.01,2014-01-04 04:40:00,
2014-01-03 22:41:00,27.5,23.9,28.47,SSW,202,7.6,8.5,86,0.00,,,0.00,0.00,VWS V14.01,2014-01-04 04:41:00,
2014-01-03 22:42:00,27.7,24.0,28.47,SSW,202,7.8,9.8,86,0.00,,,0.00,0.00,VWS V14.01,2014-01-04 04:42:00,
2014-01-03 22:43:00,27.7,24.0,28.47,SSW,202,7.8,7.8,86,0.00,,,0.00,0.00,VWS V14.01,2014-01-04 04:43:00,
2014-01-03 22:44:00,27.7,24.0,28.47,SSE,158,10.7,10.7,86,0.00,,,0.00,0.00,VWS V14.01,2014-01-04 04:44:00,
2014-01-03 22:45:00,27.7,24.0,28.47,SSW,202,12.3,13.0,86,0.00,,,0.00,0.00,VWS V14.01,2014-01-04 04:45:00,
2014-01-03 22:46:00,27.7,24.0,28.47,SSW,202,7.8,12.3,86,0.00,,,0.00,0.00,VWS V14.01,2014-01-04 04:46:00,
2014-01-03 22:47:00,27.9,24.2,28.47,SSW,202,8.1,11.0,86,0.00,,,0.00,0.00,VWS V14.01,2014-01-04 04:47:00,
2014-01-03 22:48:00,27.9,24.2,28.50,SSE,158,8.7,8.7,86,0.00,,,0.00,0.00,VWS V14.01,2014-01-04 04:48:00,
2014-01-03 22:49:00,27.9,24.2,28.50,SSW,202,7.8,8.7,86,0.00,,,0.00,0.00,VWS V14.01,2014-01-04 04:49:00,
2014-01-03 22:50:00,27.9,24.2,28.50,South,180,6.7,10.1,86,0.00,,,0.00,0.00,VWS V14.01,2014-01-04 04:50:00,
2014-01-03 22:51:00,27.9,24.2,28.50,SSW,202,7.2,8.1,86,0.00,,,0.00,0.00,VWS V14.01,2014-01-04 04:51:00,
2014-01-03 22:52:00,26.1,18.0,28.55,South,180,11.2,12.8,71,0.00,,,0.00,0.00,VWS V14.01,2014-01-04 04:52:00,
2014-01-03 22:53:00,26.1,18.0,28.55,SSW,202,9.6,9.6,71,0.00,,,0.00,0.00,VWS V14.01,2014-01-04 04:53:00,
2014-01-03 22:54:00,27.5,20.9,28.52,SSE,158,8.1,10.7,76,0.00,,,0.00,0.00,VWS V14.01,2014-01-04 04:54:00,
2014-01-03 22:55:00,27.5,20.9,28.52,SSW,202,11.9,11.9,76,0.00,,,0.00,0.00,VWS V14.01,2014-01-04 04:55:00,
2014-01-03 22:56:00,27.7,21.1,28.52,South,180,10.5,11.9,76,0.00,,,0.00,0.00,VWS V14.01,2014-01-04 04:56:00,
2014-01-03 22:57:00,27.7,21.1,28.52,WSW,248,12.8,12.8,76,0.00,,,0.00,0.00,VWS V14.01,2014-01-04 04:57:00,
2014-01-03 22:58:00,27.7,21.1,28.52,SW,225,5.6,12.8,76,0.00,,,0.00,0.00,VWS V14.01,2014-01-04 04:58:00,
2014-01-03 22:59:00,27.7,21.1,28.52,South,180,6.3,7.6,76,0.00,,,0.00,0.00,VWS V14.01,2014-01-04 04:59:00,
2014-01-03 23:00:00,27.7,21.1,28.52,South,180,10.5,10.5,76,0.00,,,0.00,0.00,VWS V14.01,2014-01-04 05:00:00,
2014-01-03 23:01:00,27.7,21.1,28.52,SSW,202,9.2,10.5,76,0.00,,,0.00,0.00,VWS V14.01,2014-01-04 05:01:00,
2014-01-03 23:02:00,27.7,21.4,28.52,WSW,248,7.4,9.2,77,0.00,,,0.00,0.00,VWS V14.01,2014-01-04 05:02:00,
2014-01-03 23:03:00,27.7,21.4,28.52,SSE,158,8.1,10.5,77,0.00,,,0.00,0.00,VWS V14.01,2014-01-04 05:03:00,
2014-01-03 23:04:00,27.7,21.4,28.52,South,180,6.5,8.1,77,0.00,,,0.00,0.00,VWS V14.01,2014-01-04 05:04:00,
2014-01-03 23:05:00,27.7,21.7,28.52,SSW,202,9.8,9.8,78,0.00,,,0.00,0.00,VWS V14.01,2014-01-04 05:05:00,
2014-01-03 23:06:00,27.7,21.7,28.52,South,180,8.7,14.5,78,0.00,,,0.00,0.00,VWS V14.01,2014-01-04 05:06:00,
2014-01-03 23:07:00,27.7,21.7,28.52,South,180,12.8,14.5,78,0.00,,,0.00,0.00,VWS V14.01,2014-01-04 05:07:00,
2014-01-03 23:08:00,27.7,21.7,28.52,SSW,202,8.5,12.8,78,0.00,,,0.00,0.00,VWS V14.01,2014-01-04 05:08:00,
2014-01-03 23:09:00,27.5,21.9,28.52,South,180,6.3,8.5,79,0.00,,,0.00,0.00,VWS V14.01,2014-01-04 05:09:00,
2014-01-03 23:10:00,27.5,21.9,28.52,SSW,202,9.8,15.2,79,0.00,,,0.00,0.00,VWS V14.01,2014-01-04 05:10:00,
2014-01-03 23:11:00,27.5,21.9,28.52,SSW,202,11.2,11.2,79,0.00,,,0.00,0.00,VWS V14.01,2014-01-04 05:11:00,
2014-01-03 23:12:00,27.5,22.1,28.52,SSW,202,12.8,12.8,80,0.00,,,0.00,0.00,VWS V14.01,2014-01-04 05:12:00,
2014-01-03 23:13:00,27.5,22.1,28.52,SSW,202,8.1,12.8,80,0.00,,,0.00,0.00,VWS V14.01,2014-01-04 05:13:00,
2014-01-03 23:14:00,27.5,22.1,28.52,SSW,202,11.0,12.1,80,0.00,,,0.00,0.00,VWS V14.01,2014-01-04 05:14:00,
2014-01-03 23:15:00,27.5,22.1,28.52,SSW,202,6.0,11.0,80,0.00,,,0.00,0.00,VWS V14.01,2014-01-04 05:15:00,
2014-01-03 23:16:00,27.5,22.1,28.52,SSW,202,10.1,10.1,80,0.00,,,0.00,0.00,VWS V14.01,2014-01-04 05:16:00,
2014-01-03 23:17:00,27.5,22.1,28.52,South,180,11.0,11.0,80,0.00,,,0.00,0.00,VWS V14.01,2014-01-04 05:17:00,
2014-01-03 23:18:00,27.5,22.1,28.52,SSE,158,6.0,11.0,80,0.00,,,0.00,0.00,VWS V14.01,2014-01-04 05:18:00,
2014-01-03 23:19:00,27.5,22.1,28.52,SSW,202,5.6,12.3,80,0.00,,,0.00,0.00,VWS V14.01,2014-01-04 05:19:00,
2014-01-03 23:20:00,27.3,22.3,28.52,South,180,10.3,10.3,81,0.00,,,0.00,0.00,VWS V14.01,2014-01-04 05:20:00,
2014-01-03 23:21:00,27.3,22.3,28.52,SSE,158,7.8,10.7,81,0.00,,,0.00,0.00,VWS V14.01,2014-01-04 05:21:00,
2014-01-03 23:22:00,27.3,22.3,28.52,SSW,202,6.5,10.7,81,0.00,,,0.00,0.00,VWS V14.01,2014-01-04 05:22:00,
2014-01-03 23:23:00,27.3,22.3,28.52,SSW,202,10.5,10.5,81,0.00,,,0.00,0.00,VWS V14.01,2014-01-04 05:23:00,
2014-01-03 23:24:00,27.3,22.3,28.52,SSW,202,10.3,10.5,81,0.00,,,0.00,0.00,VWS V14.01,2014-01-04 05:24:00,
2014-01-03 23:25:00,27.5,22.7,28.52,South,180,13.0,13.0,82,0.00,,,0.00,0.00,VWS V14.01,2014-01-04 05:25:00,
2014-01-03 23:26:00,27.5,22.7,28.52,SSW,202,9.6,9.6,82,0.00,,,0.00,0.00,VWS V14.01,2014-01-04 05:26:00,
2014-01-03 23:27:00,27.5,23.0,28.52,SSW,202,6.0,9.6,83,0.00,,,0.00,0.00,VWS V14.01,2014-01-04 05:27:00,
2014-01-03 23:28:00,27.5,23.0,28.52,SSW,202,11.0,11.0,83,0.00,,,0.00,0.00,VWS V14.01,2014-01-04 05:28:00,
2014-01-03 23:29:00,27.5,23.0,28.52,SSE,158,6.5,11.0,83,0.00,,,0.00,0.00,VWS V14.01,2014-01-04 05:29:00,
2014-01-03 23:30:00,27.5,23.0,28.52,South,180,9.6,9.6,83,0.00,,,0.00,0.00,VWS V14.01,2014-01-04 05:30:00,
2014-01-03 23:31:00,27.5,23.0,28.52,SSE,158,7.6,11.9,83,0.00,,,0.00,0.00,VWS V14.01,2014-01-04 05:31:00,
2014-01-03 23:32:00,27.5,23.0,28.52,South,180,11.2,11.9,83,0.00,,,0.00,0.00,VWS V14.01,2014-01-04 05:32:00,
2014-01-03 23:33:00,27.5,23.3,28.47,SSW,202,8.7,11.2,84,0.00,,,0.00,0.00,VWS V14.01,2014-01-04 05:33:00,
2014-01-03 23:34:00,27.5,23.3,28.47,SSW,202,8.5,10.7,84,0.00,,,0.00,0.00,VWS V14.01,2014-01-04 05:34:00,
2014-01-03 23:35:00,27.5,23.6,28.47,ESE,112,6.0,10.1,85,0.00,,,0.00,0.00,VWS V14.01,2014-01-04 05:35:00,
2014-01-03 23:36:00,27.5,23.6,28.47,SSE,158,6.5,7.4,85,0.00,,,0.00,0.00,VWS V14.01,2014-01-04 05:36:00,
2014-01-03 23:37:00,27.5,23.6,28.47,SSW,202,8.5,8.5,85,0.00,,,0.00,0.00,VWS V14.01,2014-01-04 05:37:00,
2014-01-03 23:38:00,27.5,23.6,28.47,SSW,202,9.8,11.9,85,0.00,,,0.00,0.00,VWS V14.01,2014-01-04 05:38:00,
2014-01-03 23:39:00,27.5,23.9,28.47,SSE,158,9.6,9.8,86,0.00,,,0.00,0.00,VWS V14.01,2014-01-04 05:39:00,
2014-01-03 23:40:00,27.5,23.9,28.47,SSW,202,8.5,9.6,86,0.00,,,0.00,0.00,VWS V14.01,2014-01-04 05:40:00,
2014-01-03 23:41:00,27.7,24.0,28.47,SSW,202,6.0,9.8,86,0.00,,,0.00,0.00,VWS V14.01,2014-01-04 05:41:00,
2014-01-03 23:42:00,27.7,24.0,28.47,SSW,202,7.8,9.8,86,0.00,,,0.00,0.00,VWS V14.01,2014-01-04 05:42:00,
2014-01-03 23:43:00,27.7,24.0,28.47,SSW,202,7.8,7.8,86,0.00,,,0.00,0.00,VWS V14.01,2014-01-04 05:43:00,
2014-01-03 23:44:00,27.7,24.0,28.47,SSE,158,10.7,10.7,86,0.00,,,0.00,0.00,VWS V14.01,2014-01-04 05:44:00,
2014-01-03 23:45:00,27.7,24.0,28.47,SSW,202,12.3,13.0,86,0.00,,,0.00,0.00,VWS V14.01,2014-01-04 05:45:00,
2014-01-03 23:46:00,27.9,24.2,28.47,SSW,202,11.0,11.0,86,0.00,,,0.00,0.00,VWS V14.01,2014-01-04 05:46:00,
2014-01-03 23:47:00,27.9,24.2,28.47,SSW,202,8.1,11.0,86,0.00,,,0.00,0.00,VWS V14.01,2014-01-04 05:47:00,
2014-01-03 23:48:00,27.9,24.2,28.50,SSE,158,8.7,8.7,86,0.00,,,0.00,0.00,VWS V14.01,2014-01-04 05:48:00,
2014-01-03 23:49:00,27.9,24.2,28.50,SSW,202,7.8,8.7,86,0.00,,,0.00,0.00,VWS V14.01,2014-01-04 05:49:00,
2014-01-03 23:50:00,27.9,24.2,28.50,South,180,6.7,10.1,86,0.00,,,0.00,0.00,VWS V14.01,2014-01-04 05:50:00,
2014-01-03 23:51:00,27.9,24.2,28.50,SSW,202,10.1,10.1,86,0.00,,,0.00,0.00,VWS V14.01,2014-01-04 05:51:00,
2014-01-03 23:52:00,27.9,24.2,28.50,South,180,10.7,10.7,86,0.00,,,0.00,0.00,VWS V14.01,2014-01-04 05:52:00,
2014-01-03 23:53:00,27.9,24.2,28.50,SSW,202,10.5,13.0,86,0.00,,,0.00,0.00,VWS V14.01,2014-01-04 05:53:00,
2014-01-03 23:54:00,28.0,24.4,28.50,South,180,8.5,10.5,86,0.00,,,0.00,0.00,VWS V14.01,2014-01-04 05:54:00,
2014-01-03 23:55:00,28.0,24.4,28.50,SSW,202,10.1,12.1,86,0.00,,,0.00,0.00,VWS V14.01,2014-01-04 05:55:00,
2014-01-03 23:56:00,28.0,24.4,28.50,SSW,202,6.3,7.4,86,0.00,,,0.00,0.00,VWS V14.01,2014-01-04 05:56:00,
2014-01-03 23:57:00,28.0,24.4,28.50,SSE,158,3.8,8.1,86,0.00,,,0.00,0.00,VWS V14.01,2014-01-04 05:57:00,
2014-01-03 23:58:00,28.0,24.4,28.50,SSE,158,10.1,10.1,86,0.00,,,0.00,0.00,VWS V14.01,2014-01-04 05:58:00,
2014-01-03 23:59:00,28.0,24.4,28.50,WSW,248,10.5,10.5,86,0.00,,,0.00,0.00,VWS V14.01,2014-01-04 05:59:00,